<?xml version="1.0" encoding="UTF-8" standalone="no" ?>
<gpx xmlns="http://www.topografix.com/GPX/1/1" xmlns:xsi="http://www.w3.org/2001/XMLSchema-instance" xsi:schemaLocation="http://www.topografix.com/GPX/1/1 http://www.topografix.com/GPX/1/1/gpx.xsd" version="1.1" creator="VisuGPX - https://www.visugpx.com">
  <metadata>
    <name>210801 La Forêt Menomblet 92km</name>
  </metadata>
  <trk>
    <name><![CDATA[92_404 on GPSies.com]]></name>
    <extensions>
      <line xmlns="http://www.topografix.com/GPX/gpx_style/0/2">
        <color>0000FF</color>
        <width>4</width>
      </line>
    </extensions>
    <trkseg>
      <trkpt lat="46.86489" lon="-1.00551">
        <ele>121</ele>
        <time>2010-01-01T00:00:00Z</time>
      </trkpt>
      <trkpt lat="46.86487" lon="-1.00561">
        <ele>121</ele>
        <time>2010-01-01T00:00:01Z</time>
      </trkpt>
      <trkpt lat="46.86462" lon="-1.00555">
        <ele>122</ele>
        <time>2010-01-01T00:00:05Z</time>
      </trkpt>
      <trkpt lat="46.86406" lon="-1.00559">
        <ele>121</ele>
        <time>2010-01-01T00:00:14Z</time>
      </trkpt>
      <trkpt lat="46.86391" lon="-1.00556">
        <ele>120</ele>
        <time>2010-01-01T00:00:17Z</time>
      </trkpt>
      <trkpt lat="46.86381" lon="-1.00562">
        <ele>120</ele>
        <time>2010-01-01T00:00:19Z</time>
      </trkpt>
      <trkpt lat="46.86335" lon="-1.00614">
        <ele>121</ele>
        <time>2010-01-01T00:00:28Z</time>
      </trkpt>
      <trkpt lat="46.86315" lon="-1.00632">
        <ele>120</ele>
        <time>2010-01-01T00:00:32Z</time>
      </trkpt>
      <trkpt lat="46.8627" lon="-1.00662">
        <ele>118</ele>
        <time>2010-01-01T00:00:40Z</time>
      </trkpt>
      <trkpt lat="46.86234" lon="-1.00681">
        <ele>118</ele>
        <time>2010-01-01T00:00:47Z</time>
      </trkpt>
      <trkpt lat="46.86228" lon="-1.00664">
        <ele>117</ele>
        <time>2010-01-01T00:00:49Z</time>
      </trkpt>
      <trkpt lat="46.86189" lon="-1.00512">
        <ele>116</ele>
        <time>2010-01-01T00:01:08Z</time>
      </trkpt>
      <trkpt lat="46.86278" lon="-1.00221">
        <ele>121</ele>
        <time>2010-01-01T00:01:44Z</time>
      </trkpt>
      <trkpt lat="46.86367" lon="-0.9991">
        <ele>126</ele>
        <time>2010-01-01T00:02:22Z</time>
      </trkpt>
      <trkpt lat="46.86376" lon="-0.99876">
        <ele>126</ele>
        <time>2010-01-01T00:02:27Z</time>
      </trkpt>
      <trkpt lat="46.86375" lon="-0.99859">
        <ele>126</ele>
        <time>2010-01-01T00:02:28Z</time>
      </trkpt>
      <trkpt lat="46.86373" lon="-0.99841">
        <ele>125</ele>
        <time>2010-01-01T00:02:31Z</time>
      </trkpt>
      <trkpt lat="46.86369" lon="-0.99828">
        <ele>125</ele>
        <time>2010-01-01T00:02:32Z</time>
      </trkpt>
      <trkpt lat="46.86358" lon="-0.99813">
        <ele>124</ele>
        <time>2010-01-01T00:02:35Z</time>
      </trkpt>
      <trkpt lat="46.86346" lon="-0.99804">
        <ele>124</ele>
        <time>2010-01-01T00:02:37Z</time>
      </trkpt>
      <trkpt lat="46.86222" lon="-0.99727">
        <ele>121</ele>
        <time>2010-01-01T00:02:59Z</time>
      </trkpt>
      <trkpt lat="46.86213" lon="-0.99723">
        <ele>121</ele>
        <time>2010-01-01T00:03:01Z</time>
      </trkpt>
      <trkpt lat="46.86221" lon="-0.99704">
        <ele>121</ele>
        <time>2010-01-01T00:03:04Z</time>
      </trkpt>
      <trkpt lat="46.86314" lon="-0.99225">
        <ele>127</ele>
        <time>2010-01-01T00:04:00Z</time>
      </trkpt>
      <trkpt lat="46.86325" lon="-0.99162">
        <ele>128</ele>
        <time>2010-01-01T00:04:08Z</time>
      </trkpt>
      <trkpt lat="46.86336" lon="-0.99116">
        <ele>129</ele>
        <time>2010-01-01T00:04:13Z</time>
      </trkpt>
      <trkpt lat="46.86349" lon="-0.99072">
        <ele>130</ele>
        <time>2010-01-01T00:04:19Z</time>
      </trkpt>
      <trkpt lat="46.8638" lon="-0.98991">
        <ele>133</ele>
        <time>2010-01-01T00:04:29Z</time>
      </trkpt>
      <trkpt lat="46.86437" lon="-0.98874">
        <ele>140</ele>
        <time>2010-01-01T00:04:46Z</time>
      </trkpt>
      <trkpt lat="46.86442" lon="-0.9887">
        <ele>141</ele>
        <time>2010-01-01T00:04:47Z</time>
      </trkpt>
      <trkpt lat="46.86448" lon="-0.98871">
        <ele>141</ele>
        <time>2010-01-01T00:04:48Z</time>
      </trkpt>
      <trkpt lat="46.86498" lon="-0.98769">
        <ele>144</ele>
        <time>2010-01-01T00:05:02Z</time>
      </trkpt>
      <trkpt lat="46.86531" lon="-0.98695">
        <ele>147</ele>
        <time>2010-01-01T00:05:12Z</time>
      </trkpt>
      <trkpt lat="46.86563" lon="-0.98597">
        <ele>150</ele>
        <time>2010-01-01T00:05:24Z</time>
      </trkpt>
      <trkpt lat="46.86601" lon="-0.98456">
        <ele>150</ele>
        <time>2010-01-01T00:05:42Z</time>
      </trkpt>
      <trkpt lat="46.86614" lon="-0.98397">
        <ele>146</ele>
        <time>2010-01-01T00:05:49Z</time>
      </trkpt>
      <trkpt lat="46.86619" lon="-0.98385">
        <ele>145</ele>
        <time>2010-01-01T00:05:50Z</time>
      </trkpt>
      <trkpt lat="46.86632" lon="-0.98366">
        <ele>143</ele>
        <time>2010-01-01T00:05:53Z</time>
      </trkpt>
      <trkpt lat="46.86633" lon="-0.9825">
        <ele>146</ele>
        <time>2010-01-01T00:06:07Z</time>
      </trkpt>
      <trkpt lat="46.86628" lon="-0.98158">
        <ele>149</ele>
        <time>2010-01-01T00:06:17Z</time>
      </trkpt>
      <trkpt lat="46.86643" lon="-0.98144">
        <ele>148</ele>
        <time>2010-01-01T00:06:20Z</time>
      </trkpt>
      <trkpt lat="46.86656" lon="-0.98122">
        <ele>147</ele>
        <time>2010-01-01T00:06:23Z</time>
      </trkpt>
      <trkpt lat="46.86741" lon="-0.97911">
        <ele>144</ele>
        <time>2010-01-01T00:06:51Z</time>
      </trkpt>
      <trkpt lat="46.8682" lon="-0.9772">
        <ele>141</ele>
        <time>2010-01-01T00:07:17Z</time>
      </trkpt>
      <trkpt lat="46.86899" lon="-0.97532">
        <ele>139</ele>
        <time>2010-01-01T00:07:42Z</time>
      </trkpt>
      <trkpt lat="46.86975" lon="-0.97266">
        <ele>143</ele>
        <time>2010-01-01T00:08:15Z</time>
      </trkpt>
      <trkpt lat="46.86981" lon="-0.97034">
        <ele>143</ele>
        <time>2010-01-01T00:08:41Z</time>
      </trkpt>
      <trkpt lat="46.86992" lon="-0.97036">
        <ele>143</ele>
        <time>2010-01-01T00:08:43Z</time>
      </trkpt>
      <trkpt lat="46.87001" lon="-0.96834">
        <ele>145</ele>
        <time>2010-01-01T00:09:06Z</time>
      </trkpt>
      <trkpt lat="46.87009" lon="-0.96763">
        <ele>144</ele>
        <time>2010-01-01T00:09:14Z</time>
      </trkpt>
      <trkpt lat="46.87019" lon="-0.96708">
        <ele>144</ele>
        <time>2010-01-01T00:09:21Z</time>
      </trkpt>
      <trkpt lat="46.87037" lon="-0.96619">
        <ele>143</ele>
        <time>2010-01-01T00:09:32Z</time>
      </trkpt>
      <trkpt lat="46.87062" lon="-0.96531">
        <ele>143</ele>
        <time>2010-01-01T00:09:42Z</time>
      </trkpt>
      <trkpt lat="46.87151" lon="-0.96303">
        <ele>143</ele>
        <time>2010-01-01T00:10:12Z</time>
      </trkpt>
      <trkpt lat="46.87169" lon="-0.96253">
        <ele>142</ele>
        <time>2010-01-01T00:10:19Z</time>
      </trkpt>
      <trkpt lat="46.8719" lon="-0.96198">
        <ele>141</ele>
        <time>2010-01-01T00:10:26Z</time>
      </trkpt>
      <trkpt lat="46.8719" lon="-0.96199">
        <ele>141</ele>
        <time>2010-01-01T00:10:26Z</time>
      </trkpt>
      <trkpt lat="46.87255" lon="-0.96033">
        <ele>149</ele>
        <time>2010-01-01T00:10:48Z</time>
      </trkpt>
      <trkpt lat="46.87266" lon="-0.95997">
        <ele>149</ele>
        <time>2010-01-01T00:10:52Z</time>
      </trkpt>
      <trkpt lat="46.87274" lon="-0.95957">
        <ele>149</ele>
        <time>2010-01-01T00:10:57Z</time>
      </trkpt>
      <trkpt lat="46.87289" lon="-0.95812">
        <ele>149</ele>
        <time>2010-01-01T00:11:14Z</time>
      </trkpt>
      <trkpt lat="46.87312" lon="-0.95551">
        <ele>152</ele>
        <time>2010-01-01T00:11:44Z</time>
      </trkpt>
      <trkpt lat="46.87312" lon="-0.95477">
        <ele>154</ele>
        <time>2010-01-01T00:11:52Z</time>
      </trkpt>
      <trkpt lat="46.87305" lon="-0.95415">
        <ele>153</ele>
        <time>2010-01-01T00:12:00Z</time>
      </trkpt>
      <trkpt lat="46.87295" lon="-0.95365">
        <ele>152</ele>
        <time>2010-01-01T00:12:05Z</time>
      </trkpt>
      <trkpt lat="46.87273" lon="-0.95301">
        <ele>148</ele>
        <time>2010-01-01T00:12:14Z</time>
      </trkpt>
      <trkpt lat="46.87224" lon="-0.95167">
        <ele>146</ele>
        <time>2010-01-01T00:12:31Z</time>
      </trkpt>
      <trkpt lat="46.8721" lon="-0.95107">
        <ele>143</ele>
        <time>2010-01-01T00:12:38Z</time>
      </trkpt>
      <trkpt lat="46.87203" lon="-0.9505">
        <ele>140</ele>
        <time>2010-01-01T00:12:45Z</time>
      </trkpt>
      <trkpt lat="46.87198" lon="-0.9497">
        <ele>136</ele>
        <time>2010-01-01T00:12:54Z</time>
      </trkpt>
      <trkpt lat="46.87203" lon="-0.9489">
        <ele>133</ele>
        <time>2010-01-01T00:13:03Z</time>
      </trkpt>
      <trkpt lat="46.8725" lon="-0.94631">
        <ele>123</ele>
        <time>2010-01-01T00:13:34Z</time>
      </trkpt>
      <trkpt lat="46.87263" lon="-0.94572">
        <ele>123</ele>
        <time>2010-01-01T00:13:41Z</time>
      </trkpt>
      <trkpt lat="46.87366" lon="-0.94035">
        <ele>143</ele>
        <time>2010-01-01T00:14:44Z</time>
      </trkpt>
      <trkpt lat="46.87366" lon="-0.94036">
        <ele>143</ele>
        <time>2010-01-01T00:14:44Z</time>
      </trkpt>
      <trkpt lat="46.87417" lon="-0.93774">
        <ele>150</ele>
        <time>2010-01-01T00:15:15Z</time>
      </trkpt>
      <trkpt lat="46.87426" lon="-0.93717">
        <ele>152</ele>
        <time>2010-01-01T00:15:22Z</time>
      </trkpt>
      <trkpt lat="46.87431" lon="-0.93677">
        <ele>152</ele>
        <time>2010-01-01T00:15:27Z</time>
      </trkpt>
      <trkpt lat="46.87454" lon="-0.9332">
        <ele>162</ele>
        <time>2010-01-01T00:16:08Z</time>
      </trkpt>
      <trkpt lat="46.8746" lon="-0.93285">
        <ele>163</ele>
        <time>2010-01-01T00:16:12Z</time>
      </trkpt>
      <trkpt lat="46.87467" lon="-0.93258">
        <ele>164</ele>
        <time>2010-01-01T00:16:15Z</time>
      </trkpt>
      <trkpt lat="46.87478" lon="-0.93235">
        <ele>164</ele>
        <time>2010-01-01T00:16:18Z</time>
      </trkpt>
      <trkpt lat="46.875" lon="-0.93203">
        <ele>164</ele>
        <time>2010-01-01T00:16:23Z</time>
      </trkpt>
      <trkpt lat="46.87533" lon="-0.9316">
        <ele>167</ele>
        <time>2010-01-01T00:16:31Z</time>
      </trkpt>
      <trkpt lat="46.87546" lon="-0.93135">
        <ele>170</ele>
        <time>2010-01-01T00:16:34Z</time>
      </trkpt>
      <trkpt lat="46.87559" lon="-0.931">
        <ele>172</ele>
        <time>2010-01-01T00:16:39Z</time>
      </trkpt>
      <trkpt lat="46.87577" lon="-0.93029">
        <ele>178</ele>
        <time>2010-01-01T00:16:48Z</time>
      </trkpt>
      <trkpt lat="46.87591" lon="-0.92958">
        <ele>181</ele>
        <time>2010-01-01T00:16:56Z</time>
      </trkpt>
      <trkpt lat="46.87607" lon="-0.92865">
        <ele>186</ele>
        <time>2010-01-01T00:17:07Z</time>
      </trkpt>
      <trkpt lat="46.87631" lon="-0.92707">
        <ele>191</ele>
        <time>2010-01-01T00:17:25Z</time>
      </trkpt>
      <trkpt lat="46.87638" lon="-0.92706">
        <ele>192</ele>
        <time>2010-01-01T00:17:27Z</time>
      </trkpt>
      <trkpt lat="46.87645" lon="-0.92702">
        <ele>192</ele>
        <time>2010-01-01T00:17:28Z</time>
      </trkpt>
      <trkpt lat="46.8765" lon="-0.92695">
        <ele>192</ele>
        <time>2010-01-01T00:17:29Z</time>
      </trkpt>
      <trkpt lat="46.87654" lon="-0.92686">
        <ele>192</ele>
        <time>2010-01-01T00:17:30Z</time>
      </trkpt>
      <trkpt lat="46.87656" lon="-0.92676">
        <ele>192</ele>
        <time>2010-01-01T00:17:31Z</time>
      </trkpt>
      <trkpt lat="46.87655" lon="-0.92665">
        <ele>192</ele>
        <time>2010-01-01T00:17:33Z</time>
      </trkpt>
      <trkpt lat="46.87652" lon="-0.92655">
        <ele>192</ele>
        <time>2010-01-01T00:17:34Z</time>
      </trkpt>
      <trkpt lat="46.87647" lon="-0.92646">
        <ele>191</ele>
        <time>2010-01-01T00:17:35Z</time>
      </trkpt>
      <trkpt lat="46.87641" lon="-0.92641">
        <ele>191</ele>
        <time>2010-01-01T00:17:36Z</time>
      </trkpt>
      <trkpt lat="46.87647" lon="-0.92613">
        <ele>190</ele>
        <time>2010-01-01T00:17:40Z</time>
      </trkpt>
      <trkpt lat="46.8766" lon="-0.92579">
        <ele>190</ele>
        <time>2010-01-01T00:17:44Z</time>
      </trkpt>
      <trkpt lat="46.87744" lon="-0.92416">
        <ele>194</ele>
        <time>2010-01-01T00:18:07Z</time>
      </trkpt>
      <trkpt lat="46.87756" lon="-0.92387">
        <ele>195</ele>
        <time>2010-01-01T00:18:11Z</time>
      </trkpt>
      <trkpt lat="46.87763" lon="-0.92356">
        <ele>195</ele>
        <time>2010-01-01T00:18:15Z</time>
      </trkpt>
      <trkpt lat="46.87796" lon="-0.92177">
        <ele>196</ele>
        <time>2010-01-01T00:18:36Z</time>
      </trkpt>
      <trkpt lat="46.87815" lon="-0.9211">
        <ele>196</ele>
        <time>2010-01-01T00:18:44Z</time>
      </trkpt>
      <trkpt lat="46.87931" lon="-0.91762">
        <ele>201</ele>
        <time>2010-01-01T00:19:29Z</time>
      </trkpt>
      <trkpt lat="46.88026" lon="-0.91548">
        <ele>205</ele>
        <time>2010-01-01T00:19:58Z</time>
      </trkpt>
      <trkpt lat="46.88026" lon="-0.91549">
        <ele>205</ele>
        <time>2010-01-01T00:19:58Z</time>
      </trkpt>
      <trkpt lat="46.88066" lon="-0.91454">
        <ele>208</ele>
        <time>2010-01-01T00:20:10Z</time>
      </trkpt>
      <trkpt lat="46.88187" lon="-0.91313">
        <ele>207</ele>
        <time>2010-01-01T00:20:36Z</time>
      </trkpt>
      <trkpt lat="46.88217" lon="-0.91275">
        <ele>210</ele>
        <time>2010-01-01T00:20:43Z</time>
      </trkpt>
      <trkpt lat="46.8825" lon="-0.9122">
        <ele>211</ele>
        <time>2010-01-01T00:20:51Z</time>
      </trkpt>
      <trkpt lat="46.8828" lon="-0.91166">
        <ele>209</ele>
        <time>2010-01-01T00:20:59Z</time>
      </trkpt>
      <trkpt lat="46.88293" lon="-0.91139">
        <ele>209</ele>
        <time>2010-01-01T00:21:03Z</time>
      </trkpt>
      <trkpt lat="46.88303" lon="-0.91113">
        <ele>208</ele>
        <time>2010-01-01T00:21:06Z</time>
      </trkpt>
      <trkpt lat="46.88307" lon="-0.91077">
        <ele>206</ele>
        <time>2010-01-01T00:21:11Z</time>
      </trkpt>
      <trkpt lat="46.8831" lon="-0.91066">
        <ele>206</ele>
        <time>2010-01-01T00:21:12Z</time>
      </trkpt>
      <trkpt lat="46.88305" lon="-0.91062">
        <ele>206</ele>
        <time>2010-01-01T00:21:13Z</time>
      </trkpt>
      <trkpt lat="46.883" lon="-0.91046">
        <ele>205</ele>
        <time>2010-01-01T00:21:15Z</time>
      </trkpt>
      <trkpt lat="46.88299" lon="-0.91038">
        <ele>204</ele>
        <time>2010-01-01T00:21:16Z</time>
      </trkpt>
      <trkpt lat="46.88302" lon="-0.91024">
        <ele>203</ele>
        <time>2010-01-01T00:21:17Z</time>
      </trkpt>
      <trkpt lat="46.88307" lon="-0.91015">
        <ele>204</ele>
        <time>2010-01-01T00:21:19Z</time>
      </trkpt>
      <trkpt lat="46.88284" lon="-0.90984">
        <ele>202</ele>
        <time>2010-01-01T00:21:24Z</time>
      </trkpt>
      <trkpt lat="46.88275" lon="-0.90979">
        <ele>202</ele>
        <time>2010-01-01T00:21:26Z</time>
      </trkpt>
      <trkpt lat="46.88264" lon="-0.90976">
        <ele>202</ele>
        <time>2010-01-01T00:21:27Z</time>
      </trkpt>
      <trkpt lat="46.88224" lon="-0.90975">
        <ele>202</ele>
        <time>2010-01-01T00:21:34Z</time>
      </trkpt>
      <trkpt lat="46.88213" lon="-0.90971">
        <ele>201</ele>
        <time>2010-01-01T00:21:36Z</time>
      </trkpt>
      <trkpt lat="46.88207" lon="-0.90965">
        <ele>201</ele>
        <time>2010-01-01T00:21:37Z</time>
      </trkpt>
      <trkpt lat="46.88201" lon="-0.90947">
        <ele>200</ele>
        <time>2010-01-01T00:21:39Z</time>
      </trkpt>
      <trkpt lat="46.88184" lon="-0.90649">
        <ele>196</ele>
        <time>2010-01-01T00:22:14Z</time>
      </trkpt>
      <trkpt lat="46.88178" lon="-0.90626">
        <ele>195</ele>
        <time>2010-01-01T00:22:16Z</time>
      </trkpt>
      <trkpt lat="46.88168" lon="-0.90608">
        <ele>193</ele>
        <time>2010-01-01T00:22:19Z</time>
      </trkpt>
      <trkpt lat="46.88154" lon="-0.90589">
        <ele>190</ele>
        <time>2010-01-01T00:22:22Z</time>
      </trkpt>
      <trkpt lat="46.88149" lon="-0.90583">
        <ele>190</ele>
        <time>2010-01-01T00:22:23Z</time>
      </trkpt>
      <trkpt lat="46.88137" lon="-0.90578">
        <ele>188</ele>
        <time>2010-01-01T00:22:25Z</time>
      </trkpt>
      <trkpt lat="46.88123" lon="-0.90564">
        <ele>187</ele>
        <time>2010-01-01T00:22:28Z</time>
      </trkpt>
      <trkpt lat="46.88084" lon="-0.90511">
        <ele>186</ele>
        <time>2010-01-01T00:22:37Z</time>
      </trkpt>
      <trkpt lat="46.88052" lon="-0.90473">
        <ele>183</ele>
        <time>2010-01-01T00:22:44Z</time>
      </trkpt>
      <trkpt lat="46.87974" lon="-0.90356">
        <ele>179</ele>
        <time>2010-01-01T00:23:03Z</time>
      </trkpt>
      <trkpt lat="46.87971" lon="-0.90349">
        <ele>179</ele>
        <time>2010-01-01T00:23:04Z</time>
      </trkpt>
      <trkpt lat="46.87953" lon="-0.90259">
        <ele>177</ele>
        <time>2010-01-01T00:23:14Z</time>
      </trkpt>
      <trkpt lat="46.87951" lon="-0.90228">
        <ele>177</ele>
        <time>2010-01-01T00:23:18Z</time>
      </trkpt>
      <trkpt lat="46.87951" lon="-0.90229">
        <ele>177</ele>
        <time>2010-01-01T00:23:18Z</time>
      </trkpt>
      <trkpt lat="46.87954" lon="-0.90182">
        <ele>177</ele>
        <time>2010-01-01T00:23:23Z</time>
      </trkpt>
      <trkpt lat="46.87974" lon="-0.90125">
        <ele>175</ele>
        <time>2010-01-01T00:23:31Z</time>
      </trkpt>
      <trkpt lat="46.87992" lon="-0.90089">
        <ele>173</ele>
        <time>2010-01-01T00:23:36Z</time>
      </trkpt>
      <trkpt lat="46.88007" lon="-0.90069">
        <ele>172</ele>
        <time>2010-01-01T00:23:39Z</time>
      </trkpt>
      <trkpt lat="46.87946" lon="-0.90038">
        <ele>172</ele>
        <time>2010-01-01T00:23:50Z</time>
      </trkpt>
      <trkpt lat="46.8794" lon="-0.90027">
        <ele>172</ele>
        <time>2010-01-01T00:23:51Z</time>
      </trkpt>
      <trkpt lat="46.87954" lon="-0.90012">
        <ele>172</ele>
        <time>2010-01-01T00:23:54Z</time>
      </trkpt>
      <trkpt lat="46.87955" lon="-0.90002">
        <ele>172</ele>
        <time>2010-01-01T00:23:55Z</time>
      </trkpt>
      <trkpt lat="46.87958" lon="-0.89994">
        <ele>173</ele>
        <time>2010-01-01T00:23:57Z</time>
      </trkpt>
      <trkpt lat="46.87965" lon="-0.8999">
        <ele>173</ele>
        <time>2010-01-01T00:23:58Z</time>
      </trkpt>
      <trkpt lat="46.87972" lon="-0.89992">
        <ele>173</ele>
        <time>2010-01-01T00:23:59Z</time>
      </trkpt>
      <trkpt lat="46.87989" lon="-0.89976">
        <ele>173</ele>
        <time>2010-01-01T00:24:02Z</time>
      </trkpt>
      <trkpt lat="46.88017" lon="-0.89939">
        <ele>172</ele>
        <time>2010-01-01T00:24:09Z</time>
      </trkpt>
      <trkpt lat="46.88026" lon="-0.89924">
        <ele>172</ele>
        <time>2010-01-01T00:24:11Z</time>
      </trkpt>
      <trkpt lat="46.88095" lon="-0.89788">
        <ele>170</ele>
        <time>2010-01-01T00:24:30Z</time>
      </trkpt>
      <trkpt lat="46.88174" lon="-0.8959">
        <ele>169</ele>
        <time>2010-01-01T00:24:56Z</time>
      </trkpt>
      <trkpt lat="46.88146" lon="-0.89557">
        <ele>169</ele>
        <time>2010-01-01T00:25:02Z</time>
      </trkpt>
      <trkpt lat="46.88139" lon="-0.89537">
        <ele>169</ele>
        <time>2010-01-01T00:25:05Z</time>
      </trkpt>
      <trkpt lat="46.88134" lon="-0.89518">
        <ele>168</ele>
        <time>2010-01-01T00:25:07Z</time>
      </trkpt>
      <trkpt lat="46.88094" lon="-0.89193">
        <ele>163</ele>
        <time>2010-01-01T00:25:45Z</time>
      </trkpt>
      <trkpt lat="46.88086" lon="-0.89162">
        <ele>163</ele>
        <time>2010-01-01T00:25:49Z</time>
      </trkpt>
      <trkpt lat="46.88022" lon="-0.89054">
        <ele>158</ele>
        <time>2010-01-01T00:26:05Z</time>
      </trkpt>
      <trkpt lat="46.87947" lon="-0.88934">
        <ele>157</ele>
        <time>2010-01-01T00:26:23Z</time>
      </trkpt>
      <trkpt lat="46.87939" lon="-0.88916">
        <ele>158</ele>
        <time>2010-01-01T00:26:26Z</time>
      </trkpt>
      <trkpt lat="46.87672" lon="-0.88079">
        <ele>164</ele>
        <time>2010-01-01T00:28:11Z</time>
      </trkpt>
      <trkpt lat="46.87432" lon="-0.87347">
        <ele>157</ele>
        <time>2010-01-01T00:29:44Z</time>
      </trkpt>
      <trkpt lat="46.87346" lon="-0.87093">
        <ele>156</ele>
        <time>2010-01-01T00:30:16Z</time>
      </trkpt>
      <trkpt lat="46.87278" lon="-0.86908">
        <ele>156</ele>
        <time>2010-01-01T00:30:40Z</time>
      </trkpt>
      <trkpt lat="46.87251" lon="-0.8682">
        <ele>156</ele>
        <time>2010-01-01T00:30:51Z</time>
      </trkpt>
      <trkpt lat="46.87129" lon="-0.86482">
        <ele>158</ele>
        <time>2010-01-01T00:31:35Z</time>
      </trkpt>
      <trkpt lat="46.86734" lon="-0.85428">
        <ele>164</ele>
        <time>2010-01-01T00:33:52Z</time>
      </trkpt>
      <trkpt lat="46.86502" lon="-0.84817">
        <ele>151</ele>
        <time>2010-01-01T00:35:11Z</time>
      </trkpt>
      <trkpt lat="46.86386" lon="-0.84501">
        <ele>162</ele>
        <time>2010-01-01T00:35:52Z</time>
      </trkpt>
      <trkpt lat="46.86378" lon="-0.84451">
        <ele>164</ele>
        <time>2010-01-01T00:35:58Z</time>
      </trkpt>
      <trkpt lat="46.86376" lon="-0.84394">
        <ele>164</ele>
        <time>2010-01-01T00:36:05Z</time>
      </trkpt>
      <trkpt lat="46.86382" lon="-0.84128">
        <ele>170</ele>
        <time>2010-01-01T00:36:35Z</time>
      </trkpt>
      <trkpt lat="46.8638" lon="-0.84032">
        <ele>174</ele>
        <time>2010-01-01T00:36:46Z</time>
      </trkpt>
      <trkpt lat="46.86373" lon="-0.83959">
        <ele>174</ele>
        <time>2010-01-01T00:36:54Z</time>
      </trkpt>
      <trkpt lat="46.86368" lon="-0.83758">
        <ele>172</ele>
        <time>2010-01-01T00:37:17Z</time>
      </trkpt>
      <trkpt lat="46.86357" lon="-0.83716">
        <ele>171</ele>
        <time>2010-01-01T00:37:22Z</time>
      </trkpt>
      <trkpt lat="46.86308" lon="-0.836">
        <ele>174</ele>
        <time>2010-01-01T00:37:38Z</time>
      </trkpt>
      <trkpt lat="46.86294" lon="-0.83545">
        <ele>173</ele>
        <time>2010-01-01T00:37:45Z</time>
      </trkpt>
      <trkpt lat="46.86279" lon="-0.83441">
        <ele>172</ele>
        <time>2010-01-01T00:37:57Z</time>
      </trkpt>
      <trkpt lat="46.86261" lon="-0.83345">
        <ele>174</ele>
        <time>2010-01-01T00:38:08Z</time>
      </trkpt>
      <trkpt lat="46.86238" lon="-0.83278">
        <ele>170</ele>
        <time>2010-01-01T00:38:17Z</time>
      </trkpt>
      <trkpt lat="46.86218" lon="-0.83213">
        <ele>168</ele>
        <time>2010-01-01T00:38:25Z</time>
      </trkpt>
      <trkpt lat="46.86187" lon="-0.83077">
        <ele>167</ele>
        <time>2010-01-01T00:38:41Z</time>
      </trkpt>
      <trkpt lat="46.86167" lon="-0.83007">
        <ele>166</ele>
        <time>2010-01-01T00:38:50Z</time>
      </trkpt>
      <trkpt lat="46.86132" lon="-0.82935">
        <ele>166</ele>
        <time>2010-01-01T00:39:00Z</time>
      </trkpt>
      <trkpt lat="46.86096" lon="-0.82853">
        <ele>168</ele>
        <time>2010-01-01T00:39:11Z</time>
      </trkpt>
      <trkpt lat="46.86008" lon="-0.82711">
        <ele>170</ele>
        <time>2010-01-01T00:39:33Z</time>
      </trkpt>
      <trkpt lat="46.85938" lon="-0.82608">
        <ele>172</ele>
        <time>2010-01-01T00:39:49Z</time>
      </trkpt>
      <trkpt lat="46.8592" lon="-0.82573">
        <ele>174</ele>
        <time>2010-01-01T00:39:54Z</time>
      </trkpt>
      <trkpt lat="46.859" lon="-0.82528">
        <ele>173</ele>
        <time>2010-01-01T00:40:01Z</time>
      </trkpt>
      <trkpt lat="46.8588" lon="-0.8249">
        <ele>171</ele>
        <time>2010-01-01T00:40:06Z</time>
      </trkpt>
      <trkpt lat="46.8586" lon="-0.82461">
        <ele>172</ele>
        <time>2010-01-01T00:40:11Z</time>
      </trkpt>
      <trkpt lat="46.85834" lon="-0.82433">
        <ele>172</ele>
        <time>2010-01-01T00:40:16Z</time>
      </trkpt>
      <trkpt lat="46.85803" lon="-0.82414">
        <ele>172</ele>
        <time>2010-01-01T00:40:22Z</time>
      </trkpt>
      <trkpt lat="46.85762" lon="-0.82399">
        <ele>171</ele>
        <time>2010-01-01T00:40:29Z</time>
      </trkpt>
      <trkpt lat="46.85768" lon="-0.82308">
        <ele>171</ele>
        <time>2010-01-01T00:40:39Z</time>
      </trkpt>
      <trkpt lat="46.85775" lon="-0.82261">
        <ele>173</ele>
        <time>2010-01-01T00:40:45Z</time>
      </trkpt>
      <trkpt lat="46.85774" lon="-0.82231">
        <ele>172</ele>
        <time>2010-01-01T00:40:48Z</time>
      </trkpt>
      <trkpt lat="46.85756" lon="-0.82171">
        <ele>172</ele>
        <time>2010-01-01T00:40:56Z</time>
      </trkpt>
      <trkpt lat="46.85742" lon="-0.82154">
        <ele>173</ele>
        <time>2010-01-01T00:40:59Z</time>
      </trkpt>
      <trkpt lat="46.85729" lon="-0.82147">
        <ele>175</ele>
        <time>2010-01-01T00:41:01Z</time>
      </trkpt>
      <trkpt lat="46.85708" lon="-0.82145">
        <ele>180</ele>
        <time>2010-01-01T00:41:04Z</time>
      </trkpt>
      <trkpt lat="46.85666" lon="-0.82147">
        <ele>188</ele>
        <time>2010-01-01T00:41:11Z</time>
      </trkpt>
      <trkpt lat="46.85647" lon="-0.82143">
        <ele>190</ele>
        <time>2010-01-01T00:41:15Z</time>
      </trkpt>
      <trkpt lat="46.85624" lon="-0.82132">
        <ele>192</ele>
        <time>2010-01-01T00:41:19Z</time>
      </trkpt>
      <trkpt lat="46.85614" lon="-0.82149">
        <ele>190</ele>
        <time>2010-01-01T00:41:21Z</time>
      </trkpt>
      <trkpt lat="46.85614" lon="-0.8215">
        <ele>190</ele>
        <time>2010-01-01T00:41:21Z</time>
      </trkpt>
      <trkpt lat="46.85624" lon="-0.82132">
        <ele>192</ele>
        <time>2010-01-01T00:41:24Z</time>
      </trkpt>
      <trkpt lat="46.85562" lon="-0.82072">
        <ele>197</ele>
        <time>2010-01-01T00:41:36Z</time>
      </trkpt>
      <trkpt lat="46.85547" lon="-0.8207">
        <ele>197</ele>
        <time>2010-01-01T00:41:39Z</time>
      </trkpt>
      <trkpt lat="46.85514" lon="-0.82043">
        <ele>198</ele>
        <time>2010-01-01T00:41:45Z</time>
      </trkpt>
      <trkpt lat="46.85501" lon="-0.8199">
        <ele>198</ele>
        <time>2010-01-01T00:41:52Z</time>
      </trkpt>
      <trkpt lat="46.85514" lon="-0.81965">
        <ele>198</ele>
        <time>2010-01-01T00:41:55Z</time>
      </trkpt>
      <trkpt lat="46.85514" lon="-0.81927">
        <ele>194</ele>
        <time>2010-01-01T00:42:00Z</time>
      </trkpt>
      <trkpt lat="46.85506" lon="-0.81909">
        <ele>193</ele>
        <time>2010-01-01T00:42:02Z</time>
      </trkpt>
      <trkpt lat="46.8549" lon="-0.81897">
        <ele>192</ele>
        <time>2010-01-01T00:42:05Z</time>
      </trkpt>
      <trkpt lat="46.85467" lon="-0.81882">
        <ele>190</ele>
        <time>2010-01-01T00:42:09Z</time>
      </trkpt>
      <trkpt lat="46.85416" lon="-0.81864">
        <ele>181</ele>
        <time>2010-01-01T00:42:18Z</time>
      </trkpt>
      <trkpt lat="46.85385" lon="-0.81868">
        <ele>174</ele>
        <time>2010-01-01T00:42:23Z</time>
      </trkpt>
      <trkpt lat="46.85373" lon="-0.81861">
        <ele>172</ele>
        <time>2010-01-01T00:42:25Z</time>
      </trkpt>
      <trkpt lat="46.85368" lon="-0.81844">
        <ele>170</ele>
        <time>2010-01-01T00:42:27Z</time>
      </trkpt>
      <trkpt lat="46.85369" lon="-0.81796">
        <ele>167</ele>
        <time>2010-01-01T00:42:33Z</time>
      </trkpt>
      <trkpt lat="46.85363" lon="-0.81774">
        <ele>164</ele>
        <time>2010-01-01T00:42:36Z</time>
      </trkpt>
      <trkpt lat="46.85334" lon="-0.81729">
        <ele>160</ele>
        <time>2010-01-01T00:42:43Z</time>
      </trkpt>
      <trkpt lat="46.85312" lon="-0.81707">
        <ele>159</ele>
        <time>2010-01-01T00:42:47Z</time>
      </trkpt>
      <trkpt lat="46.8531" lon="-0.81716">
        <ele>159</ele>
        <time>2010-01-01T00:42:48Z</time>
      </trkpt>
      <trkpt lat="46.85264" lon="-0.8169">
        <ele>155</ele>
        <time>2010-01-01T00:42:56Z</time>
      </trkpt>
      <trkpt lat="46.85234" lon="-0.81666">
        <ele>154</ele>
        <time>2010-01-01T00:43:02Z</time>
      </trkpt>
      <trkpt lat="46.85194" lon="-0.81613">
        <ele>152</ele>
        <time>2010-01-01T00:43:11Z</time>
      </trkpt>
      <trkpt lat="46.85171" lon="-0.81564">
        <ele>149</ele>
        <time>2010-01-01T00:43:18Z</time>
      </trkpt>
      <trkpt lat="46.85145" lon="-0.81501">
        <ele>147</ele>
        <time>2010-01-01T00:43:26Z</time>
      </trkpt>
      <trkpt lat="46.85135" lon="-0.8149">
        <ele>146</ele>
        <time>2010-01-01T00:43:28Z</time>
      </trkpt>
      <trkpt lat="46.85071" lon="-0.81463">
        <ele>145</ele>
        <time>2010-01-01T00:43:39Z</time>
      </trkpt>
      <trkpt lat="46.85037" lon="-0.81418">
        <ele>146</ele>
        <time>2010-01-01T00:43:47Z</time>
      </trkpt>
      <trkpt lat="46.85023" lon="-0.81384">
        <ele>147</ele>
        <time>2010-01-01T00:43:52Z</time>
      </trkpt>
      <trkpt lat="46.84955" lon="-0.81109">
        <ele>148</ele>
        <time>2010-01-01T00:44:25Z</time>
      </trkpt>
      <trkpt lat="46.84937" lon="-0.81059">
        <ele>148</ele>
        <time>2010-01-01T00:44:31Z</time>
      </trkpt>
      <trkpt lat="46.84911" lon="-0.81019">
        <ele>147</ele>
        <time>2010-01-01T00:44:38Z</time>
      </trkpt>
      <trkpt lat="46.84828" lon="-0.80928">
        <ele>153</ele>
        <time>2010-01-01T00:44:55Z</time>
      </trkpt>
      <trkpt lat="46.84638" lon="-0.80727">
        <ele>149</ele>
        <time>2010-01-01T00:45:34Z</time>
      </trkpt>
      <trkpt lat="46.84584" lon="-0.80679">
        <ele>147</ele>
        <time>2010-01-01T00:45:45Z</time>
      </trkpt>
      <trkpt lat="46.84542" lon="-0.80668">
        <ele>149</ele>
        <time>2010-01-01T00:45:52Z</time>
      </trkpt>
      <trkpt lat="46.84434" lon="-0.80704">
        <ele>147</ele>
        <time>2010-01-01T00:46:10Z</time>
      </trkpt>
      <trkpt lat="46.84411" lon="-0.80706">
        <ele>147</ele>
        <time>2010-01-01T00:46:14Z</time>
      </trkpt>
      <trkpt lat="46.84375" lon="-0.80682">
        <ele>150</ele>
        <time>2010-01-01T00:46:21Z</time>
      </trkpt>
      <trkpt lat="46.84355" lon="-0.80656">
        <ele>152</ele>
        <time>2010-01-01T00:46:25Z</time>
      </trkpt>
      <trkpt lat="46.84341" lon="-0.80618">
        <ele>154</ele>
        <time>2010-01-01T00:46:30Z</time>
      </trkpt>
      <trkpt lat="46.84329" lon="-0.80526">
        <ele>156</ele>
        <time>2010-01-01T00:46:41Z</time>
      </trkpt>
      <trkpt lat="46.84333" lon="-0.80402">
        <ele>157</ele>
        <time>2010-01-01T00:46:55Z</time>
      </trkpt>
      <trkpt lat="46.84332" lon="-0.80364">
        <ele>158</ele>
        <time>2010-01-01T00:46:59Z</time>
      </trkpt>
      <trkpt lat="46.8431" lon="-0.80282">
        <ele>157</ele>
        <time>2010-01-01T00:47:09Z</time>
      </trkpt>
      <trkpt lat="46.84303" lon="-0.8024">
        <ele>157</ele>
        <time>2010-01-01T00:47:14Z</time>
      </trkpt>
      <trkpt lat="46.84302" lon="-0.80157">
        <ele>157</ele>
        <time>2010-01-01T00:47:24Z</time>
      </trkpt>
      <trkpt lat="46.84306" lon="-0.80074">
        <ele>157</ele>
        <time>2010-01-01T00:47:33Z</time>
      </trkpt>
      <trkpt lat="46.84304" lon="-0.80015">
        <ele>159</ele>
        <time>2010-01-01T00:47:40Z</time>
      </trkpt>
      <trkpt lat="46.84298" lon="-0.79979">
        <ele>160</ele>
        <time>2010-01-01T00:47:44Z</time>
      </trkpt>
      <trkpt lat="46.84196" lon="-0.79534">
        <ele>162</ele>
        <time>2010-01-01T00:48:38Z</time>
      </trkpt>
      <trkpt lat="46.84177" lon="-0.79439">
        <ele>164</ele>
        <time>2010-01-01T00:48:49Z</time>
      </trkpt>
      <trkpt lat="46.84155" lon="-0.79346">
        <ele>166</ele>
        <time>2010-01-01T00:49:00Z</time>
      </trkpt>
      <trkpt lat="46.84137" lon="-0.79252">
        <ele>165</ele>
        <time>2010-01-01T00:49:11Z</time>
      </trkpt>
      <trkpt lat="46.84134" lon="-0.79194">
        <ele>166</ele>
        <time>2010-01-01T00:49:18Z</time>
      </trkpt>
      <trkpt lat="46.84135" lon="-0.79166">
        <ele>164</ele>
        <time>2010-01-01T00:49:21Z</time>
      </trkpt>
      <trkpt lat="46.84138" lon="-0.7914">
        <ele>163</ele>
        <time>2010-01-01T00:49:24Z</time>
      </trkpt>
      <trkpt lat="46.84154" lon="-0.7906">
        <ele>158</ele>
        <time>2010-01-01T00:49:34Z</time>
      </trkpt>
      <trkpt lat="46.84163" lon="-0.78991">
        <ele>155</ele>
        <time>2010-01-01T00:49:42Z</time>
      </trkpt>
      <trkpt lat="46.84167" lon="-0.78906">
        <ele>153</ele>
        <time>2010-01-01T00:49:52Z</time>
      </trkpt>
      <trkpt lat="46.84166" lon="-0.7886">
        <ele>152</ele>
        <time>2010-01-01T00:49:57Z</time>
      </trkpt>
      <trkpt lat="46.84156" lon="-0.78806">
        <ele>151</ele>
        <time>2010-01-01T00:50:03Z</time>
      </trkpt>
      <trkpt lat="46.84136" lon="-0.78736">
        <ele>151</ele>
        <time>2010-01-01T00:50:12Z</time>
      </trkpt>
      <trkpt lat="46.8411" lon="-0.78652">
        <ele>149</ele>
        <time>2010-01-01T00:50:22Z</time>
      </trkpt>
      <trkpt lat="46.84096" lon="-0.78598">
        <ele>146</ele>
        <time>2010-01-01T00:50:29Z</time>
      </trkpt>
      <trkpt lat="46.84089" lon="-0.78516">
        <ele>145</ele>
        <time>2010-01-01T00:50:38Z</time>
      </trkpt>
      <trkpt lat="46.84088" lon="-0.78478">
        <ele>145</ele>
        <time>2010-01-01T00:50:43Z</time>
      </trkpt>
      <trkpt lat="46.84084" lon="-0.78377">
        <ele>144</ele>
        <time>2010-01-01T00:50:54Z</time>
      </trkpt>
      <trkpt lat="46.84079" lon="-0.78318">
        <ele>143</ele>
        <time>2010-01-01T00:51:01Z</time>
      </trkpt>
      <trkpt lat="46.84053" lon="-0.78208">
        <ele>143</ele>
        <time>2010-01-01T00:51:14Z</time>
      </trkpt>
      <trkpt lat="46.83967" lon="-0.77898">
        <ele>142</ele>
        <time>2010-01-01T00:51:52Z</time>
      </trkpt>
      <trkpt lat="46.83949" lon="-0.77853">
        <ele>143</ele>
        <time>2010-01-01T00:51:58Z</time>
      </trkpt>
      <trkpt lat="46.83934" lon="-0.77823">
        <ele>143</ele>
        <time>2010-01-01T00:52:03Z</time>
      </trkpt>
      <trkpt lat="46.83906" lon="-0.77782">
        <ele>143</ele>
        <time>2010-01-01T00:52:09Z</time>
      </trkpt>
      <trkpt lat="46.83879" lon="-0.77756">
        <ele>146</ele>
        <time>2010-01-01T00:52:15Z</time>
      </trkpt>
      <trkpt lat="46.83867" lon="-0.77748">
        <ele>147</ele>
        <time>2010-01-01T00:52:17Z</time>
      </trkpt>
      <trkpt lat="46.83809" lon="-0.77726">
        <ele>148</ele>
        <time>2010-01-01T00:52:27Z</time>
      </trkpt>
      <trkpt lat="46.83777" lon="-0.77703">
        <ele>149</ele>
        <time>2010-01-01T00:52:33Z</time>
      </trkpt>
      <trkpt lat="46.83762" lon="-0.7768">
        <ele>149</ele>
        <time>2010-01-01T00:52:36Z</time>
      </trkpt>
      <trkpt lat="46.83743" lon="-0.77534">
        <ele>148</ele>
        <time>2010-01-01T00:52:53Z</time>
      </trkpt>
      <trkpt lat="46.83648" lon="-0.7736">
        <ele>149</ele>
        <time>2010-01-01T00:53:19Z</time>
      </trkpt>
      <trkpt lat="46.83589" lon="-0.77286">
        <ele>149</ele>
        <time>2010-01-01T00:53:32Z</time>
      </trkpt>
      <trkpt lat="46.83553" lon="-0.77216">
        <ele>151</ele>
        <time>2010-01-01T00:53:42Z</time>
      </trkpt>
      <trkpt lat="46.83523" lon="-0.77179">
        <ele>152</ele>
        <time>2010-01-01T00:53:48Z</time>
      </trkpt>
      <trkpt lat="46.83499" lon="-0.77166">
        <ele>153</ele>
        <time>2010-01-01T00:53:53Z</time>
      </trkpt>
      <trkpt lat="46.8348" lon="-0.77161">
        <ele>154</ele>
        <time>2010-01-01T00:53:56Z</time>
      </trkpt>
      <trkpt lat="46.83476" lon="-0.77171">
        <ele>154</ele>
        <time>2010-01-01T00:53:57Z</time>
      </trkpt>
      <trkpt lat="46.83472" lon="-0.77174">
        <ele>155</ele>
        <time>2010-01-01T00:53:58Z</time>
      </trkpt>
      <trkpt lat="46.83464" lon="-0.77175">
        <ele>155</ele>
        <time>2010-01-01T00:53:59Z</time>
      </trkpt>
      <trkpt lat="46.83457" lon="-0.77169">
        <ele>155</ele>
        <time>2010-01-01T00:54:01Z</time>
      </trkpt>
      <trkpt lat="46.83454" lon="-0.77157">
        <ele>154</ele>
        <time>2010-01-01T00:54:02Z</time>
      </trkpt>
      <trkpt lat="46.83456" lon="-0.77145">
        <ele>154</ele>
        <time>2010-01-01T00:54:03Z</time>
      </trkpt>
      <trkpt lat="46.8346" lon="-0.77141">
        <ele>154</ele>
        <time>2010-01-01T00:54:04Z</time>
      </trkpt>
      <trkpt lat="46.83381" lon="-0.7701">
        <ele>152</ele>
        <time>2010-01-01T00:54:24Z</time>
      </trkpt>
      <trkpt lat="46.83349" lon="-0.76962">
        <ele>152</ele>
        <time>2010-01-01T00:54:32Z</time>
      </trkpt>
      <trkpt lat="46.83255" lon="-0.76832">
        <ele>152</ele>
        <time>2010-01-01T00:54:53Z</time>
      </trkpt>
      <trkpt lat="46.83184" lon="-0.76663">
        <ele>155</ele>
        <time>2010-01-01T00:55:16Z</time>
      </trkpt>
      <trkpt lat="46.83085" lon="-0.76444">
        <ele>154</ele>
        <time>2010-01-01T00:55:46Z</time>
      </trkpt>
      <trkpt lat="46.83044" lon="-0.76314">
        <ele>150</ele>
        <time>2010-01-01T00:56:02Z</time>
      </trkpt>
      <trkpt lat="46.83031" lon="-0.76279">
        <ele>150</ele>
        <time>2010-01-01T00:56:07Z</time>
      </trkpt>
      <trkpt lat="46.82972" lon="-0.76154">
        <ele>146</ele>
        <time>2010-01-01T00:56:24Z</time>
      </trkpt>
      <trkpt lat="46.82935" lon="-0.76069">
        <ele>147</ele>
        <time>2010-01-01T00:56:36Z</time>
      </trkpt>
      <trkpt lat="46.82819" lon="-0.7571">
        <ele>146</ele>
        <time>2010-01-01T00:57:21Z</time>
      </trkpt>
      <trkpt lat="46.82734" lon="-0.75555">
        <ele>152</ele>
        <time>2010-01-01T00:57:44Z</time>
      </trkpt>
      <trkpt lat="46.82711" lon="-0.75483">
        <ele>152</ele>
        <time>2010-01-01T00:57:53Z</time>
      </trkpt>
      <trkpt lat="46.82699" lon="-0.75429">
        <ele>151</ele>
        <time>2010-01-01T00:57:59Z</time>
      </trkpt>
      <trkpt lat="46.8268" lon="-0.75379">
        <ele>151</ele>
        <time>2010-01-01T00:58:06Z</time>
      </trkpt>
      <trkpt lat="46.82634" lon="-0.75288">
        <ele>150</ele>
        <time>2010-01-01T00:58:19Z</time>
      </trkpt>
      <trkpt lat="46.82574" lon="-0.75152">
        <ele>154</ele>
        <time>2010-01-01T00:58:37Z</time>
      </trkpt>
      <trkpt lat="46.82558" lon="-0.7512">
        <ele>155</ele>
        <time>2010-01-01T00:58:42Z</time>
      </trkpt>
      <trkpt lat="46.82542" lon="-0.75097">
        <ele>156</ele>
        <time>2010-01-01T00:58:45Z</time>
      </trkpt>
      <trkpt lat="46.8252" lon="-0.75081">
        <ele>158</ele>
        <time>2010-01-01T00:58:49Z</time>
      </trkpt>
      <trkpt lat="46.8247" lon="-0.75058">
        <ele>159</ele>
        <time>2010-01-01T00:58:58Z</time>
      </trkpt>
      <trkpt lat="46.82427" lon="-0.75024">
        <ele>161</ele>
        <time>2010-01-01T00:59:06Z</time>
      </trkpt>
      <trkpt lat="46.82345" lon="-0.74938">
        <ele>164</ele>
        <time>2010-01-01T00:59:23Z</time>
      </trkpt>
      <trkpt lat="46.82233" lon="-0.74857">
        <ele>165</ele>
        <time>2010-01-01T00:59:44Z</time>
      </trkpt>
      <trkpt lat="46.82135" lon="-0.74776">
        <ele>169</ele>
        <time>2010-01-01T01:00:03Z</time>
      </trkpt>
      <trkpt lat="46.8208" lon="-0.74737">
        <ele>171</ele>
        <time>2010-01-01T01:00:13Z</time>
      </trkpt>
      <trkpt lat="46.81951" lon="-0.74626">
        <ele>177</ele>
        <time>2010-01-01T01:00:38Z</time>
      </trkpt>
      <trkpt lat="46.81907" lon="-0.74573">
        <ele>181</ele>
        <time>2010-01-01T01:00:47Z</time>
      </trkpt>
      <trkpt lat="46.8183" lon="-0.7451">
        <ele>185</ele>
        <time>2010-01-01T01:01:02Z</time>
      </trkpt>
      <trkpt lat="46.8176" lon="-0.74482">
        <ele>191</ele>
        <time>2010-01-01T01:01:14Z</time>
      </trkpt>
      <trkpt lat="46.81733" lon="-0.74469">
        <ele>192</ele>
        <time>2010-01-01T01:01:19Z</time>
      </trkpt>
      <trkpt lat="46.81674" lon="-0.74424">
        <ele>190</ele>
        <time>2010-01-01T01:01:30Z</time>
      </trkpt>
      <trkpt lat="46.81505" lon="-0.74311">
        <ele>182</ele>
        <time>2010-01-01T01:02:01Z</time>
      </trkpt>
      <trkpt lat="46.81419" lon="-0.74206">
        <ele>185</ele>
        <time>2010-01-01T01:02:20Z</time>
      </trkpt>
      <trkpt lat="46.81355" lon="-0.74163">
        <ele>185</ele>
        <time>2010-01-01T01:02:32Z</time>
      </trkpt>
      <trkpt lat="46.8121" lon="-0.7413">
        <ele>195</ele>
        <time>2010-01-01T01:02:56Z</time>
      </trkpt>
      <trkpt lat="46.81183" lon="-0.74109">
        <ele>198</ele>
        <time>2010-01-01T01:03:01Z</time>
      </trkpt>
      <trkpt lat="46.81109" lon="-0.73994">
        <ele>200</ele>
        <time>2010-01-01T01:03:19Z</time>
      </trkpt>
      <trkpt lat="46.81081" lon="-0.73969">
        <ele>199</ele>
        <time>2010-01-01T01:03:25Z</time>
      </trkpt>
      <trkpt lat="46.81022" lon="-0.73931">
        <ele>202</ele>
        <time>2010-01-01T01:03:35Z</time>
      </trkpt>
      <trkpt lat="46.80872" lon="-0.73821">
        <ele>199</ele>
        <time>2010-01-01T01:04:03Z</time>
      </trkpt>
      <trkpt lat="46.80854" lon="-0.7381">
        <ele>199</ele>
        <time>2010-01-01T01:04:07Z</time>
      </trkpt>
      <trkpt lat="46.80812" lon="-0.738">
        <ele>199</ele>
        <time>2010-01-01T01:04:14Z</time>
      </trkpt>
      <trkpt lat="46.80726" lon="-0.73753">
        <ele>192</ele>
        <time>2010-01-01T01:04:29Z</time>
      </trkpt>
      <trkpt lat="46.80702" lon="-0.73744">
        <ele>191</ele>
        <time>2010-01-01T01:04:33Z</time>
      </trkpt>
      <trkpt lat="46.80537" lon="-0.7368">
        <ele>190</ele>
        <time>2010-01-01T01:05:02Z</time>
      </trkpt>
      <trkpt lat="46.8049" lon="-0.73667">
        <ele>188</ele>
        <time>2010-01-01T01:05:10Z</time>
      </trkpt>
      <trkpt lat="46.80367" lon="-0.73609">
        <ele>184</ele>
        <time>2010-01-01T01:05:31Z</time>
      </trkpt>
      <trkpt lat="46.80342" lon="-0.73592">
        <ele>181</ele>
        <time>2010-01-01T01:05:36Z</time>
      </trkpt>
      <trkpt lat="46.80328" lon="-0.73575">
        <ele>180</ele>
        <time>2010-01-01T01:05:39Z</time>
      </trkpt>
      <trkpt lat="46.8029" lon="-0.73512">
        <ele>179</ele>
        <time>2010-01-01T01:05:48Z</time>
      </trkpt>
      <trkpt lat="46.80277" lon="-0.73501">
        <ele>179</ele>
        <time>2010-01-01T01:05:51Z</time>
      </trkpt>
      <trkpt lat="46.80263" lon="-0.73492">
        <ele>178</ele>
        <time>2010-01-01T01:05:53Z</time>
      </trkpt>
      <trkpt lat="46.80242" lon="-0.73489">
        <ele>177</ele>
        <time>2010-01-01T01:05:57Z</time>
      </trkpt>
      <trkpt lat="46.80209" lon="-0.73491">
        <ele>175</ele>
        <time>2010-01-01T01:06:03Z</time>
      </trkpt>
      <trkpt lat="46.8014" lon="-0.73511">
        <ele>172</ele>
        <time>2010-01-01T01:06:14Z</time>
      </trkpt>
      <trkpt lat="46.79861" lon="-0.73509">
        <ele>161</ele>
        <time>2010-01-01T01:07:01Z</time>
      </trkpt>
      <trkpt lat="46.79826" lon="-0.73505">
        <ele>161</ele>
        <time>2010-01-01T01:07:07Z</time>
      </trkpt>
      <trkpt lat="46.79686" lon="-0.73469">
        <ele>164</ele>
        <time>2010-01-01T01:07:30Z</time>
      </trkpt>
      <trkpt lat="46.79644" lon="-0.73451">
        <ele>165</ele>
        <time>2010-01-01T01:07:38Z</time>
      </trkpt>
      <trkpt lat="46.7962" lon="-0.73437">
        <ele>165</ele>
        <time>2010-01-01T01:07:42Z</time>
      </trkpt>
      <trkpt lat="46.79537" lon="-0.73391">
        <ele>170</ele>
        <time>2010-01-01T01:07:57Z</time>
      </trkpt>
      <trkpt lat="46.79519" lon="-0.73386">
        <ele>170</ele>
        <time>2010-01-01T01:08:00Z</time>
      </trkpt>
      <trkpt lat="46.7946" lon="-0.73305">
        <ele>170</ele>
        <time>2010-01-01T01:08:13Z</time>
      </trkpt>
      <trkpt lat="46.79446" lon="-0.73302">
        <ele>170</ele>
        <time>2010-01-01T01:08:16Z</time>
      </trkpt>
      <trkpt lat="46.79386" lon="-0.73304">
        <ele>169</ele>
        <time>2010-01-01T01:08:26Z</time>
      </trkpt>
      <trkpt lat="46.79393" lon="-0.7325">
        <ele>169</ele>
        <time>2010-01-01T01:08:32Z</time>
      </trkpt>
      <trkpt lat="46.79402" lon="-0.73224">
        <ele>169</ele>
        <time>2010-01-01T01:08:35Z</time>
      </trkpt>
      <trkpt lat="46.7943" lon="-0.73169">
        <ele>169</ele>
        <time>2010-01-01T01:08:43Z</time>
      </trkpt>
      <trkpt lat="46.7949" lon="-0.73076">
        <ele>170</ele>
        <time>2010-01-01T01:08:58Z</time>
      </trkpt>
      <trkpt lat="46.79559" lon="-0.72973">
        <ele>167</ele>
        <time>2010-01-01T01:09:14Z</time>
      </trkpt>
      <trkpt lat="46.79769" lon="-0.72647">
        <ele>164</ele>
        <time>2010-01-01T01:10:05Z</time>
      </trkpt>
      <trkpt lat="46.79769" lon="-0.72648">
        <ele>164</ele>
        <time>2010-01-01T01:10:05Z</time>
      </trkpt>
      <trkpt lat="46.79855" lon="-0.7251">
        <ele>159</ele>
        <time>2010-01-01T01:10:27Z</time>
      </trkpt>
      <trkpt lat="46.79888" lon="-0.72465">
        <ele>156</ele>
        <time>2010-01-01T01:10:34Z</time>
      </trkpt>
      <trkpt lat="46.80181" lon="-0.72003">
        <ele>158</ele>
        <time>2010-01-01T01:11:46Z</time>
      </trkpt>
      <trkpt lat="46.80155" lon="-0.71965">
        <ele>157</ele>
        <time>2010-01-01T01:11:52Z</time>
      </trkpt>
      <trkpt lat="46.80086" lon="-0.7188">
        <ele>155</ele>
        <time>2010-01-01T01:12:07Z</time>
      </trkpt>
      <trkpt lat="46.80047" lon="-0.71827">
        <ele>154</ele>
        <time>2010-01-01T01:12:16Z</time>
      </trkpt>
      <trkpt lat="46.80025" lon="-0.71776">
        <ele>154</ele>
        <time>2010-01-01T01:12:23Z</time>
      </trkpt>
      <trkpt lat="46.80014" lon="-0.7173">
        <ele>157</ele>
        <time>2010-01-01T01:12:29Z</time>
      </trkpt>
      <trkpt lat="46.80009" lon="-0.71681">
        <ele>161</ele>
        <time>2010-01-01T01:12:34Z</time>
      </trkpt>
      <trkpt lat="46.80012" lon="-0.71556">
        <ele>162</ele>
        <time>2010-01-01T01:12:49Z</time>
      </trkpt>
      <trkpt lat="46.79994" lon="-0.71337">
        <ele>159</ele>
        <time>2010-01-01T01:13:14Z</time>
      </trkpt>
      <trkpt lat="46.7999" lon="-0.71229">
        <ele>160</ele>
        <time>2010-01-01T01:13:26Z</time>
      </trkpt>
      <trkpt lat="46.7998" lon="-0.71119">
        <ele>161</ele>
        <time>2010-01-01T01:13:39Z</time>
      </trkpt>
      <trkpt lat="46.79948" lon="-0.7099">
        <ele>164</ele>
        <time>2010-01-01T01:13:54Z</time>
      </trkpt>
      <trkpt lat="46.79908" lon="-0.70881">
        <ele>164</ele>
        <time>2010-01-01T01:14:09Z</time>
      </trkpt>
      <trkpt lat="46.79895" lon="-0.70741">
        <ele>162</ele>
        <time>2010-01-01T01:14:25Z</time>
      </trkpt>
      <trkpt lat="46.79889" lon="-0.70691">
        <ele>162</ele>
        <time>2010-01-01T01:14:31Z</time>
      </trkpt>
      <trkpt lat="46.79873" lon="-0.70652">
        <ele>162</ele>
        <time>2010-01-01T01:14:36Z</time>
      </trkpt>
      <trkpt lat="46.79704" lon="-0.70351">
        <ele>163</ele>
        <time>2010-01-01T01:15:20Z</time>
      </trkpt>
      <trkpt lat="46.79675" lon="-0.70292">
        <ele>162</ele>
        <time>2010-01-01T01:15:28Z</time>
      </trkpt>
      <trkpt lat="46.79654" lon="-0.70233">
        <ele>160</ele>
        <time>2010-01-01T01:15:36Z</time>
      </trkpt>
      <trkpt lat="46.79634" lon="-0.70189">
        <ele>159</ele>
        <time>2010-01-01T01:15:42Z</time>
      </trkpt>
      <trkpt lat="46.79621" lon="-0.70155">
        <ele>159</ele>
        <time>2010-01-01T01:15:47Z</time>
      </trkpt>
      <trkpt lat="46.79632" lon="-0.69912">
        <ele>160</ele>
        <time>2010-01-01T01:16:14Z</time>
      </trkpt>
      <trkpt lat="46.79615" lon="-0.69802">
        <ele>161</ele>
        <time>2010-01-01T01:16:27Z</time>
      </trkpt>
      <trkpt lat="46.79611" lon="-0.69751">
        <ele>162</ele>
        <time>2010-01-01T01:16:33Z</time>
      </trkpt>
      <trkpt lat="46.79611" lon="-0.69752">
        <ele>162</ele>
        <time>2010-01-01T01:16:33Z</time>
      </trkpt>
      <trkpt lat="46.79611" lon="-0.69668">
        <ele>159</ele>
        <time>2010-01-01T01:16:43Z</time>
      </trkpt>
      <trkpt lat="46.79618" lon="-0.69622">
        <ele>159</ele>
        <time>2010-01-01T01:16:48Z</time>
      </trkpt>
      <trkpt lat="46.79617" lon="-0.69568">
        <ele>160</ele>
        <time>2010-01-01T01:16:54Z</time>
      </trkpt>
      <trkpt lat="46.79607" lon="-0.6949">
        <ele>158</ele>
        <time>2010-01-01T01:17:03Z</time>
      </trkpt>
      <trkpt lat="46.79593" lon="-0.69466">
        <ele>158</ele>
        <time>2010-01-01T01:17:07Z</time>
      </trkpt>
      <trkpt lat="46.79571" lon="-0.69451">
        <ele>158</ele>
        <time>2010-01-01T01:17:11Z</time>
      </trkpt>
      <trkpt lat="46.79541" lon="-0.6944">
        <ele>158</ele>
        <time>2010-01-01T01:17:16Z</time>
      </trkpt>
      <trkpt lat="46.79501" lon="-0.69402">
        <ele>157</ele>
        <time>2010-01-01T01:17:24Z</time>
      </trkpt>
      <trkpt lat="46.79487" lon="-0.69369">
        <ele>157</ele>
        <time>2010-01-01T01:17:29Z</time>
      </trkpt>
      <trkpt lat="46.79634" lon="-0.69083">
        <ele>157</ele>
        <time>2010-01-01T01:18:09Z</time>
      </trkpt>
      <trkpt lat="46.79605" lon="-0.6897">
        <ele>155</ele>
        <time>2010-01-01T01:18:23Z</time>
      </trkpt>
      <trkpt lat="46.79588" lon="-0.68937">
        <ele>154</ele>
        <time>2010-01-01T01:18:28Z</time>
      </trkpt>
      <trkpt lat="46.79564" lon="-0.68914">
        <ele>153</ele>
        <time>2010-01-01T01:18:33Z</time>
      </trkpt>
      <trkpt lat="46.79535" lon="-0.68895">
        <ele>154</ele>
        <time>2010-01-01T01:18:38Z</time>
      </trkpt>
      <trkpt lat="46.79509" lon="-0.68884">
        <ele>154</ele>
        <time>2010-01-01T01:18:43Z</time>
      </trkpt>
      <trkpt lat="46.79484" lon="-0.68881">
        <ele>155</ele>
        <time>2010-01-01T01:18:47Z</time>
      </trkpt>
      <trkpt lat="46.79426" lon="-0.68844">
        <ele>157</ele>
        <time>2010-01-01T01:18:57Z</time>
      </trkpt>
      <trkpt lat="46.79382" lon="-0.6881">
        <ele>158</ele>
        <time>2010-01-01T01:19:06Z</time>
      </trkpt>
      <trkpt lat="46.79337" lon="-0.68724">
        <ele>161</ele>
        <time>2010-01-01T01:19:18Z</time>
      </trkpt>
      <trkpt lat="46.79284" lon="-0.6868">
        <ele>163</ele>
        <time>2010-01-01T01:19:28Z</time>
      </trkpt>
      <trkpt lat="46.79228" lon="-0.6865">
        <ele>160</ele>
        <time>2010-01-01T01:19:38Z</time>
      </trkpt>
      <trkpt lat="46.79176" lon="-0.68645">
        <ele>155</ele>
        <time>2010-01-01T01:19:47Z</time>
      </trkpt>
      <trkpt lat="46.79108" lon="-0.68644">
        <ele>155</ele>
        <time>2010-01-01T01:19:58Z</time>
      </trkpt>
      <trkpt lat="46.79066" lon="-0.68639">
        <ele>157</ele>
        <time>2010-01-01T01:20:05Z</time>
      </trkpt>
      <trkpt lat="46.79024" lon="-0.68625">
        <ele>155</ele>
        <time>2010-01-01T01:20:12Z</time>
      </trkpt>
      <trkpt lat="46.78975" lon="-0.68597">
        <ele>155</ele>
        <time>2010-01-01T01:20:21Z</time>
      </trkpt>
      <trkpt lat="46.78935" lon="-0.68533">
        <ele>157</ele>
        <time>2010-01-01T01:20:31Z</time>
      </trkpt>
      <trkpt lat="46.78871" lon="-0.68424">
        <ele>157</ele>
        <time>2010-01-01T01:20:47Z</time>
      </trkpt>
      <trkpt lat="46.788" lon="-0.68274">
        <ele>157</ele>
        <time>2010-01-01T01:21:08Z</time>
      </trkpt>
      <trkpt lat="46.78772" lon="-0.68222">
        <ele>158</ele>
        <time>2010-01-01T01:21:16Z</time>
      </trkpt>
      <trkpt lat="46.78754" lon="-0.68113">
        <ele>156</ele>
        <time>2010-01-01T01:21:29Z</time>
      </trkpt>
      <trkpt lat="46.78755" lon="-0.68055">
        <ele>154</ele>
        <time>2010-01-01T01:21:35Z</time>
      </trkpt>
      <trkpt lat="46.78751" lon="-0.68006">
        <ele>153</ele>
        <time>2010-01-01T01:21:41Z</time>
      </trkpt>
      <trkpt lat="46.78726" lon="-0.67964">
        <ele>152</ele>
        <time>2010-01-01T01:21:47Z</time>
      </trkpt>
      <trkpt lat="46.78694" lon="-0.67919">
        <ele>153</ele>
        <time>2010-01-01T01:21:55Z</time>
      </trkpt>
      <trkpt lat="46.78662" lon="-0.67892">
        <ele>152</ele>
        <time>2010-01-01T01:22:01Z</time>
      </trkpt>
      <trkpt lat="46.78633" lon="-0.67878">
        <ele>151</ele>
        <time>2010-01-01T01:22:06Z</time>
      </trkpt>
      <trkpt lat="46.78575" lon="-0.67871">
        <ele>150</ele>
        <time>2010-01-01T01:22:16Z</time>
      </trkpt>
      <trkpt lat="46.78542" lon="-0.67833">
        <ele>154</ele>
        <time>2010-01-01T01:22:23Z</time>
      </trkpt>
      <trkpt lat="46.7851" lon="-0.67791">
        <ele>160</ele>
        <time>2010-01-01T01:22:30Z</time>
      </trkpt>
      <trkpt lat="46.78444" lon="-0.67694">
        <ele>157</ele>
        <time>2010-01-01T01:22:45Z</time>
      </trkpt>
      <trkpt lat="46.78437" lon="-0.67687">
        <ele>157</ele>
        <time>2010-01-01T01:22:47Z</time>
      </trkpt>
      <trkpt lat="46.78424" lon="-0.67684">
        <ele>157</ele>
        <time>2010-01-01T01:22:49Z</time>
      </trkpt>
      <trkpt lat="46.78412" lon="-0.67685">
        <ele>157</ele>
        <time>2010-01-01T01:22:51Z</time>
      </trkpt>
      <trkpt lat="46.78369" lon="-0.67707">
        <ele>157</ele>
        <time>2010-01-01T01:22:59Z</time>
      </trkpt>
      <trkpt lat="46.7834" lon="-0.67717">
        <ele>157</ele>
        <time>2010-01-01T01:23:04Z</time>
      </trkpt>
      <trkpt lat="46.78275" lon="-0.67712">
        <ele>160</ele>
        <time>2010-01-01T01:23:14Z</time>
      </trkpt>
      <trkpt lat="46.78252" lon="-0.67701">
        <ele>160</ele>
        <time>2010-01-01T01:23:18Z</time>
      </trkpt>
      <trkpt lat="46.78191" lon="-0.67657">
        <ele>156</ele>
        <time>2010-01-01T01:23:30Z</time>
      </trkpt>
      <trkpt lat="46.78166" lon="-0.67643">
        <ele>156</ele>
        <time>2010-01-01T01:23:34Z</time>
      </trkpt>
      <trkpt lat="46.7813" lon="-0.67632">
        <ele>155</ele>
        <time>2010-01-01T01:23:40Z</time>
      </trkpt>
      <trkpt lat="46.78085" lon="-0.67623">
        <ele>155</ele>
        <time>2010-01-01T01:23:48Z</time>
      </trkpt>
      <trkpt lat="46.78051" lon="-0.67607">
        <ele>156</ele>
        <time>2010-01-01T01:23:54Z</time>
      </trkpt>
      <trkpt lat="46.78022" lon="-0.67584">
        <ele>156</ele>
        <time>2010-01-01T01:23:59Z</time>
      </trkpt>
      <trkpt lat="46.77948" lon="-0.67502">
        <ele>155</ele>
        <time>2010-01-01T01:24:15Z</time>
      </trkpt>
      <trkpt lat="46.77878" lon="-0.67414">
        <ele>156</ele>
        <time>2010-01-01T01:24:30Z</time>
      </trkpt>
      <trkpt lat="46.77878" lon="-0.67413">
        <ele>156</ele>
        <time>2010-01-01T01:24:30Z</time>
      </trkpt>
      <trkpt lat="46.77838" lon="-0.67367">
        <ele>157</ele>
        <time>2010-01-01T01:24:39Z</time>
      </trkpt>
      <trkpt lat="46.77797" lon="-0.67331">
        <ele>158</ele>
        <time>2010-01-01T01:24:47Z</time>
      </trkpt>
      <trkpt lat="46.77631" lon="-0.6716">
        <ele>158</ele>
        <time>2010-01-01T01:25:21Z</time>
      </trkpt>
      <trkpt lat="46.77565" lon="-0.6708">
        <ele>156</ele>
        <time>2010-01-01T01:25:35Z</time>
      </trkpt>
      <trkpt lat="46.77523" lon="-0.67046">
        <ele>156</ele>
        <time>2010-01-01T01:25:43Z</time>
      </trkpt>
      <trkpt lat="46.77472" lon="-0.67001">
        <ele>156</ele>
        <time>2010-01-01T01:25:53Z</time>
      </trkpt>
      <trkpt lat="46.77431" lon="-0.66958">
        <ele>155</ele>
        <time>2010-01-01T01:26:01Z</time>
      </trkpt>
      <trkpt lat="46.77417" lon="-0.66929">
        <ele>154</ele>
        <time>2010-01-01T01:26:06Z</time>
      </trkpt>
      <trkpt lat="46.7741" lon="-0.66893">
        <ele>153</ele>
        <time>2010-01-01T01:26:10Z</time>
      </trkpt>
      <trkpt lat="46.77408" lon="-0.66836">
        <ele>153</ele>
        <time>2010-01-01T01:26:16Z</time>
      </trkpt>
      <trkpt lat="46.77396" lon="-0.66723">
        <ele>155</ele>
        <time>2010-01-01T01:26:29Z</time>
      </trkpt>
      <trkpt lat="46.774" lon="-0.66677">
        <ele>157</ele>
        <time>2010-01-01T01:26:35Z</time>
      </trkpt>
      <trkpt lat="46.77408" lon="-0.66642">
        <ele>158</ele>
        <time>2010-01-01T01:26:39Z</time>
      </trkpt>
      <trkpt lat="46.77408" lon="-0.66601">
        <ele>159</ele>
        <time>2010-01-01T01:26:44Z</time>
      </trkpt>
      <trkpt lat="46.77393" lon="-0.66547">
        <ele>162</ele>
        <time>2010-01-01T01:26:50Z</time>
      </trkpt>
      <trkpt lat="46.77388" lon="-0.66502">
        <ele>164</ele>
        <time>2010-01-01T01:26:55Z</time>
      </trkpt>
      <trkpt lat="46.77385" lon="-0.66433">
        <ele>164</ele>
        <time>2010-01-01T01:27:03Z</time>
      </trkpt>
      <trkpt lat="46.7738" lon="-0.66373">
        <ele>163</ele>
        <time>2010-01-01T01:27:10Z</time>
      </trkpt>
      <trkpt lat="46.77386" lon="-0.66293">
        <ele>159</ele>
        <time>2010-01-01T01:27:19Z</time>
      </trkpt>
      <trkpt lat="46.77396" lon="-0.66204">
        <ele>162</ele>
        <time>2010-01-01T01:27:30Z</time>
      </trkpt>
      <trkpt lat="46.77418" lon="-0.66143">
        <ele>162</ele>
        <time>2010-01-01T01:27:38Z</time>
      </trkpt>
      <trkpt lat="46.77426" lon="-0.66005">
        <ele>161</ele>
        <time>2010-01-01T01:27:53Z</time>
      </trkpt>
      <trkpt lat="46.77423" lon="-0.65931">
        <ele>159</ele>
        <time>2010-01-01T01:28:02Z</time>
      </trkpt>
      <trkpt lat="46.77426" lon="-0.65861">
        <ele>160</ele>
        <time>2010-01-01T01:28:10Z</time>
      </trkpt>
      <trkpt lat="46.77436" lon="-0.65759">
        <ele>158</ele>
        <time>2010-01-01T01:28:22Z</time>
      </trkpt>
      <trkpt lat="46.77432" lon="-0.6572">
        <ele>156</ele>
        <time>2010-01-01T01:28:26Z</time>
      </trkpt>
      <trkpt lat="46.77355" lon="-0.65547">
        <ele>155</ele>
        <time>2010-01-01T01:28:50Z</time>
      </trkpt>
      <trkpt lat="46.77243" lon="-0.65305">
        <ele>154</ele>
        <time>2010-01-01T01:29:23Z</time>
      </trkpt>
      <trkpt lat="46.77196" lon="-0.65196">
        <ele>154</ele>
        <time>2010-01-01T01:29:38Z</time>
      </trkpt>
      <trkpt lat="46.77143" lon="-0.65108">
        <ele>156</ele>
        <time>2010-01-01T01:29:51Z</time>
      </trkpt>
      <trkpt lat="46.77103" lon="-0.65023">
        <ele>161</ele>
        <time>2010-01-01T01:30:03Z</time>
      </trkpt>
      <trkpt lat="46.77081" lon="-0.64966">
        <ele>160</ele>
        <time>2010-01-01T01:30:10Z</time>
      </trkpt>
      <trkpt lat="46.77072" lon="-0.64927">
        <ele>159</ele>
        <time>2010-01-01T01:30:15Z</time>
      </trkpt>
      <trkpt lat="46.77062" lon="-0.64897">
        <ele>159</ele>
        <time>2010-01-01T01:30:19Z</time>
      </trkpt>
      <trkpt lat="46.77" lon="-0.64931">
        <ele>157</ele>
        <time>2010-01-01T01:30:30Z</time>
      </trkpt>
      <trkpt lat="46.77" lon="-0.64932">
        <ele>157</ele>
        <time>2010-01-01T01:30:30Z</time>
      </trkpt>
      <trkpt lat="46.76141" lon="-0.65413">
        <ele>172</ele>
        <time>2010-01-01T01:33:04Z</time>
      </trkpt>
      <trkpt lat="46.75946" lon="-0.65529">
        <ele>175</ele>
        <time>2010-01-01T01:33:39Z</time>
      </trkpt>
      <trkpt lat="46.75946" lon="-0.6553">
        <ele>175</ele>
        <time>2010-01-01T01:33:39Z</time>
      </trkpt>
      <trkpt lat="46.75946" lon="-0.65529">
        <ele>175</ele>
        <time>2010-01-01T01:33:39Z</time>
      </trkpt>
      <trkpt lat="46.75946" lon="-0.6553">
        <ele>175</ele>
        <time>2010-01-01T01:33:39Z</time>
      </trkpt>
      <trkpt lat="46.75482" lon="-0.658">
        <ele>161</ele>
        <time>2010-01-01T01:35:02Z</time>
      </trkpt>
      <trkpt lat="46.7528" lon="-0.65915">
        <ele>160</ele>
        <time>2010-01-01T01:35:39Z</time>
      </trkpt>
      <trkpt lat="46.74763" lon="-0.66218">
        <ele>178</ele>
        <time>2010-01-01T01:37:11Z</time>
      </trkpt>
      <trkpt lat="46.7478" lon="-0.66282">
        <ele>175</ele>
        <time>2010-01-01T01:37:19Z</time>
      </trkpt>
      <trkpt lat="46.74781" lon="-0.66298">
        <ele>175</ele>
        <time>2010-01-01T01:37:21Z</time>
      </trkpt>
      <trkpt lat="46.74748" lon="-0.66297">
        <ele>175</ele>
        <time>2010-01-01T01:37:27Z</time>
      </trkpt>
      <trkpt lat="46.74672" lon="-0.66356">
        <ele>172</ele>
        <time>2010-01-01T01:37:41Z</time>
      </trkpt>
      <trkpt lat="46.7465" lon="-0.66357">
        <ele>172</ele>
        <time>2010-01-01T01:37:45Z</time>
      </trkpt>
      <trkpt lat="46.74625" lon="-0.66335">
        <ele>173</ele>
        <time>2010-01-01T01:37:50Z</time>
      </trkpt>
      <trkpt lat="46.74603" lon="-0.6631">
        <ele>174</ele>
        <time>2010-01-01T01:37:54Z</time>
      </trkpt>
      <trkpt lat="46.74538" lon="-0.66348">
        <ele>171</ele>
        <time>2010-01-01T01:38:06Z</time>
      </trkpt>
      <trkpt lat="46.74529" lon="-0.66474">
        <ele>166</ele>
        <time>2010-01-01T01:38:20Z</time>
      </trkpt>
      <trkpt lat="46.74517" lon="-0.66566">
        <ele>169</ele>
        <time>2010-01-01T01:38:31Z</time>
      </trkpt>
      <trkpt lat="46.74511" lon="-0.66626">
        <ele>171</ele>
        <time>2010-01-01T01:38:38Z</time>
      </trkpt>
      <trkpt lat="46.74488" lon="-0.66741">
        <ele>173</ele>
        <time>2010-01-01T01:38:52Z</time>
      </trkpt>
      <trkpt lat="46.74466" lon="-0.6681">
        <ele>173</ele>
        <time>2010-01-01T01:39:00Z</time>
      </trkpt>
      <trkpt lat="46.74466" lon="-0.66811">
        <ele>172</ele>
        <time>2010-01-01T01:39:00Z</time>
      </trkpt>
      <trkpt lat="46.74395" lon="-0.66952">
        <ele>167</ele>
        <time>2010-01-01T01:39:20Z</time>
      </trkpt>
      <trkpt lat="46.7441" lon="-0.66973">
        <ele>165</ele>
        <time>2010-01-01T01:39:24Z</time>
      </trkpt>
      <trkpt lat="46.7445" lon="-0.6704">
        <ele>164</ele>
        <time>2010-01-01T01:39:34Z</time>
      </trkpt>
      <trkpt lat="46.74503" lon="-0.67163">
        <ele>170</ele>
        <time>2010-01-01T01:39:51Z</time>
      </trkpt>
      <trkpt lat="46.74514" lon="-0.6721">
        <ele>172</ele>
        <time>2010-01-01T01:39:56Z</time>
      </trkpt>
      <trkpt lat="46.74531" lon="-0.67251">
        <ele>173</ele>
        <time>2010-01-01T01:40:02Z</time>
      </trkpt>
      <trkpt lat="46.74553" lon="-0.67288">
        <ele>173</ele>
        <time>2010-01-01T01:40:07Z</time>
      </trkpt>
      <trkpt lat="46.74572" lon="-0.67328">
        <ele>172</ele>
        <time>2010-01-01T01:40:13Z</time>
      </trkpt>
      <trkpt lat="46.74579" lon="-0.6735">
        <ele>172</ele>
        <time>2010-01-01T01:40:16Z</time>
      </trkpt>
      <trkpt lat="46.7458" lon="-0.6737">
        <ele>172</ele>
        <time>2010-01-01T01:40:18Z</time>
      </trkpt>
      <trkpt lat="46.74573" lon="-0.67431">
        <ele>171</ele>
        <time>2010-01-01T01:40:25Z</time>
      </trkpt>
      <trkpt lat="46.7458" lon="-0.67487">
        <ele>171</ele>
        <time>2010-01-01T01:40:32Z</time>
      </trkpt>
      <trkpt lat="46.74584" lon="-0.67565">
        <ele>172</ele>
        <time>2010-01-01T01:40:41Z</time>
      </trkpt>
      <trkpt lat="46.74582" lon="-0.6763">
        <ele>174</ele>
        <time>2010-01-01T01:40:48Z</time>
      </trkpt>
      <trkpt lat="46.74575" lon="-0.67763">
        <ele>175</ele>
        <time>2010-01-01T01:41:03Z</time>
      </trkpt>
      <trkpt lat="46.74573" lon="-0.67894">
        <ele>178</ele>
        <time>2010-01-01T01:41:18Z</time>
      </trkpt>
      <trkpt lat="46.74586" lon="-0.68118">
        <ele>177</ele>
        <time>2010-01-01T01:41:44Z</time>
      </trkpt>
      <trkpt lat="46.74583" lon="-0.6822">
        <ele>177</ele>
        <time>2010-01-01T01:41:56Z</time>
      </trkpt>
      <trkpt lat="46.74587" lon="-0.68241">
        <ele>178</ele>
        <time>2010-01-01T01:41:58Z</time>
      </trkpt>
      <trkpt lat="46.74631" lon="-0.68302">
        <ele>180</ele>
        <time>2010-01-01T01:42:08Z</time>
      </trkpt>
      <trkpt lat="46.74645" lon="-0.68341">
        <ele>180</ele>
        <time>2010-01-01T01:42:13Z</time>
      </trkpt>
      <trkpt lat="46.74653" lon="-0.68382">
        <ele>180</ele>
        <time>2010-01-01T01:42:18Z</time>
      </trkpt>
      <trkpt lat="46.74647" lon="-0.68419">
        <ele>180</ele>
        <time>2010-01-01T01:42:23Z</time>
      </trkpt>
      <trkpt lat="46.74578" lon="-0.68583">
        <ele>182</ele>
        <time>2010-01-01T01:42:44Z</time>
      </trkpt>
      <trkpt lat="46.74556" lon="-0.68617">
        <ele>182</ele>
        <time>2010-01-01T01:42:50Z</time>
      </trkpt>
      <trkpt lat="46.74548" lon="-0.68642">
        <ele>183</ele>
        <time>2010-01-01T01:42:53Z</time>
      </trkpt>
      <trkpt lat="46.74528" lon="-0.68691">
        <ele>182</ele>
        <time>2010-01-01T01:43:00Z</time>
      </trkpt>
      <trkpt lat="46.74494" lon="-0.68757">
        <ele>183</ele>
        <time>2010-01-01T01:43:09Z</time>
      </trkpt>
      <trkpt lat="46.7448" lon="-0.68813">
        <ele>183</ele>
        <time>2010-01-01T01:43:16Z</time>
      </trkpt>
      <trkpt lat="46.74447" lon="-0.68957">
        <ele>184</ele>
        <time>2010-01-01T01:43:33Z</time>
      </trkpt>
      <trkpt lat="46.74427" lon="-0.69025">
        <ele>184</ele>
        <time>2010-01-01T01:43:42Z</time>
      </trkpt>
      <trkpt lat="46.74399" lon="-0.691">
        <ele>186</ele>
        <time>2010-01-01T01:43:51Z</time>
      </trkpt>
      <trkpt lat="46.74367" lon="-0.69172">
        <ele>186</ele>
        <time>2010-01-01T01:44:01Z</time>
      </trkpt>
      <trkpt lat="46.74342" lon="-0.6922">
        <ele>188</ele>
        <time>2010-01-01T01:44:08Z</time>
      </trkpt>
      <trkpt lat="46.74342" lon="-0.69221">
        <ele>188</ele>
        <time>2010-01-01T01:44:08Z</time>
      </trkpt>
      <trkpt lat="46.74264" lon="-0.69365">
        <ele>189</ele>
        <time>2010-01-01T01:44:29Z</time>
      </trkpt>
      <trkpt lat="46.74246" lon="-0.69392">
        <ele>189</ele>
        <time>2010-01-01T01:44:33Z</time>
      </trkpt>
      <trkpt lat="46.74189" lon="-0.69464">
        <ele>190</ele>
        <time>2010-01-01T01:44:46Z</time>
      </trkpt>
      <trkpt lat="46.74149" lon="-0.69511">
        <ele>190</ele>
        <time>2010-01-01T01:44:55Z</time>
      </trkpt>
      <trkpt lat="46.74127" lon="-0.69533">
        <ele>191</ele>
        <time>2010-01-01T01:44:59Z</time>
      </trkpt>
      <trkpt lat="46.74108" lon="-0.69559">
        <ele>190</ele>
        <time>2010-01-01T01:45:03Z</time>
      </trkpt>
      <trkpt lat="46.74093" lon="-0.69572">
        <ele>190</ele>
        <time>2010-01-01T01:45:06Z</time>
      </trkpt>
      <trkpt lat="46.74062" lon="-0.69593">
        <ele>189</ele>
        <time>2010-01-01T01:45:12Z</time>
      </trkpt>
      <trkpt lat="46.74019" lon="-0.69613">
        <ele>190</ele>
        <time>2010-01-01T01:45:20Z</time>
      </trkpt>
      <trkpt lat="46.74002" lon="-0.69627">
        <ele>190</ele>
        <time>2010-01-01T01:45:23Z</time>
      </trkpt>
      <trkpt lat="46.73991" lon="-0.69641">
        <ele>190</ele>
        <time>2010-01-01T01:45:25Z</time>
      </trkpt>
      <trkpt lat="46.73977" lon="-0.69653">
        <ele>190</ele>
        <time>2010-01-01T01:45:28Z</time>
      </trkpt>
      <trkpt lat="46.73947" lon="-0.69668">
        <ele>191</ele>
        <time>2010-01-01T01:45:33Z</time>
      </trkpt>
      <trkpt lat="46.73931" lon="-0.69681">
        <ele>192</ele>
        <time>2010-01-01T01:45:36Z</time>
      </trkpt>
      <trkpt lat="46.73898" lon="-0.6972">
        <ele>193</ele>
        <time>2010-01-01T01:45:43Z</time>
      </trkpt>
      <trkpt lat="46.73819" lon="-0.69826">
        <ele>193</ele>
        <time>2010-01-01T01:46:01Z</time>
      </trkpt>
      <trkpt lat="46.73789" lon="-0.69873">
        <ele>195</ele>
        <time>2010-01-01T01:46:09Z</time>
      </trkpt>
      <trkpt lat="46.73785" lon="-0.69885">
        <ele>196</ele>
        <time>2010-01-01T01:46:10Z</time>
      </trkpt>
      <trkpt lat="46.73782" lon="-0.69913">
        <ele>197</ele>
        <time>2010-01-01T01:46:13Z</time>
      </trkpt>
      <trkpt lat="46.73775" lon="-0.70041">
        <ele>199</ele>
        <time>2010-01-01T01:46:28Z</time>
      </trkpt>
      <trkpt lat="46.73772" lon="-0.70064">
        <ele>198</ele>
        <time>2010-01-01T01:46:31Z</time>
      </trkpt>
      <trkpt lat="46.73767" lon="-0.70081">
        <ele>198</ele>
        <time>2010-01-01T01:46:33Z</time>
      </trkpt>
      <trkpt lat="46.73757" lon="-0.70101">
        <ele>198</ele>
        <time>2010-01-01T01:46:36Z</time>
      </trkpt>
      <trkpt lat="46.73738" lon="-0.70117">
        <ele>199</ele>
        <time>2010-01-01T01:46:39Z</time>
      </trkpt>
      <trkpt lat="46.73674" lon="-0.7016">
        <ele>199</ele>
        <time>2010-01-01T01:46:51Z</time>
      </trkpt>
      <trkpt lat="46.73655" lon="-0.70179">
        <ele>198</ele>
        <time>2010-01-01T01:46:55Z</time>
      </trkpt>
      <trkpt lat="46.73624" lon="-0.70217">
        <ele>199</ele>
        <time>2010-01-01T01:47:02Z</time>
      </trkpt>
      <trkpt lat="46.73607" lon="-0.70233">
        <ele>199</ele>
        <time>2010-01-01T01:47:05Z</time>
      </trkpt>
      <trkpt lat="46.73589" lon="-0.70242">
        <ele>199</ele>
        <time>2010-01-01T01:47:08Z</time>
      </trkpt>
      <trkpt lat="46.73522" lon="-0.70259">
        <ele>199</ele>
        <time>2010-01-01T01:47:20Z</time>
      </trkpt>
      <trkpt lat="46.73497" lon="-0.70275">
        <ele>199</ele>
        <time>2010-01-01T01:47:24Z</time>
      </trkpt>
      <trkpt lat="46.73481" lon="-0.70282">
        <ele>199</ele>
        <time>2010-01-01T01:47:27Z</time>
      </trkpt>
      <trkpt lat="46.73463" lon="-0.70316">
        <ele>198</ele>
        <time>2010-01-01T01:47:32Z</time>
      </trkpt>
      <trkpt lat="46.73376" lon="-0.7056">
        <ele>198</ele>
        <time>2010-01-01T01:48:03Z</time>
      </trkpt>
      <trkpt lat="46.7337" lon="-0.70586">
        <ele>198</ele>
        <time>2010-01-01T01:48:06Z</time>
      </trkpt>
      <trkpt lat="46.7334" lon="-0.70781">
        <ele>197</ele>
        <time>2010-01-01T01:48:29Z</time>
      </trkpt>
      <trkpt lat="46.73347" lon="-0.70857">
        <ele>198</ele>
        <time>2010-01-01T01:48:38Z</time>
      </trkpt>
      <trkpt lat="46.73324" lon="-0.70856">
        <ele>199</ele>
        <time>2010-01-01T01:48:42Z</time>
      </trkpt>
      <trkpt lat="46.73306" lon="-0.70952">
        <ele>196</ele>
        <time>2010-01-01T01:48:53Z</time>
      </trkpt>
      <trkpt lat="46.73283" lon="-0.71099">
        <ele>200</ele>
        <time>2010-01-01T01:49:10Z</time>
      </trkpt>
      <trkpt lat="46.73278" lon="-0.71123">
        <ele>201</ele>
        <time>2010-01-01T01:49:13Z</time>
      </trkpt>
      <trkpt lat="46.73278" lon="-0.71138">
        <ele>201</ele>
        <time>2010-01-01T01:49:15Z</time>
      </trkpt>
      <trkpt lat="46.73281" lon="-0.71151">
        <ele>201</ele>
        <time>2010-01-01T01:49:17Z</time>
      </trkpt>
      <trkpt lat="46.73255" lon="-0.712">
        <ele>202</ele>
        <time>2010-01-01T01:49:24Z</time>
      </trkpt>
      <trkpt lat="46.73255" lon="-0.71201">
        <ele>202</ele>
        <time>2010-01-01T01:49:24Z</time>
      </trkpt>
      <trkpt lat="46.73253" lon="-0.71206">
        <ele>202</ele>
        <time>2010-01-01T01:49:24Z</time>
      </trkpt>
      <trkpt lat="46.73202" lon="-0.71251">
        <ele>203</ele>
        <time>2010-01-01T01:49:34Z</time>
      </trkpt>
      <trkpt lat="46.73141" lon="-0.71302">
        <ele>205</ele>
        <time>2010-01-01T01:49:46Z</time>
      </trkpt>
      <trkpt lat="46.73111" lon="-0.71311">
        <ele>207</ele>
        <time>2010-01-01T01:49:51Z</time>
      </trkpt>
      <trkpt lat="46.73039" lon="-0.71318">
        <ele>207</ele>
        <time>2010-01-01T01:50:03Z</time>
      </trkpt>
      <trkpt lat="46.73007" lon="-0.71324">
        <ele>208</ele>
        <time>2010-01-01T01:50:09Z</time>
      </trkpt>
      <trkpt lat="46.72968" lon="-0.71324">
        <ele>208</ele>
        <time>2010-01-01T01:50:15Z</time>
      </trkpt>
      <trkpt lat="46.72949" lon="-0.71332">
        <ele>208</ele>
        <time>2010-01-01T01:50:18Z</time>
      </trkpt>
      <trkpt lat="46.72933" lon="-0.71344">
        <ele>207</ele>
        <time>2010-01-01T01:50:21Z</time>
      </trkpt>
      <trkpt lat="46.7287" lon="-0.71422">
        <ele>208</ele>
        <time>2010-01-01T01:50:35Z</time>
      </trkpt>
      <trkpt lat="46.72832" lon="-0.71467">
        <ele>207</ele>
        <time>2010-01-01T01:50:43Z</time>
      </trkpt>
      <trkpt lat="46.72804" lon="-0.71496">
        <ele>207</ele>
        <time>2010-01-01T01:50:49Z</time>
      </trkpt>
      <trkpt lat="46.72795" lon="-0.71499">
        <ele>207</ele>
        <time>2010-01-01T01:50:51Z</time>
      </trkpt>
      <trkpt lat="46.72781" lon="-0.71498">
        <ele>207</ele>
        <time>2010-01-01T01:50:53Z</time>
      </trkpt>
      <trkpt lat="46.72721" lon="-0.71484">
        <ele>206</ele>
        <time>2010-01-01T01:51:03Z</time>
      </trkpt>
      <trkpt lat="46.72663" lon="-0.7148">
        <ele>205</ele>
        <time>2010-01-01T01:51:13Z</time>
      </trkpt>
      <trkpt lat="46.72634" lon="-0.71467">
        <ele>204</ele>
        <time>2010-01-01T01:51:18Z</time>
      </trkpt>
      <trkpt lat="46.7261" lon="-0.71451">
        <ele>205</ele>
        <time>2010-01-01T01:51:22Z</time>
      </trkpt>
      <trkpt lat="46.72581" lon="-0.71419">
        <ele>205</ele>
        <time>2010-01-01T01:51:28Z</time>
      </trkpt>
      <trkpt lat="46.72422" lon="-0.71229">
        <ele>203</ele>
        <time>2010-01-01T01:52:03Z</time>
      </trkpt>
      <trkpt lat="46.7235" lon="-0.71187">
        <ele>202</ele>
        <time>2010-01-01T01:52:16Z</time>
      </trkpt>
      <trkpt lat="46.72333" lon="-0.71185">
        <ele>201</ele>
        <time>2010-01-01T01:52:18Z</time>
      </trkpt>
      <trkpt lat="46.72314" lon="-0.71187">
        <ele>201</ele>
        <time>2010-01-01T01:52:22Z</time>
      </trkpt>
      <trkpt lat="46.72209" lon="-0.71213">
        <ele>202</ele>
        <time>2010-01-01T01:52:39Z</time>
      </trkpt>
      <trkpt lat="46.72175" lon="-0.71211">
        <ele>202</ele>
        <time>2010-01-01T01:52:45Z</time>
      </trkpt>
      <trkpt lat="46.72034" lon="-0.71183">
        <ele>205</ele>
        <time>2010-01-01T01:53:09Z</time>
      </trkpt>
      <trkpt lat="46.71964" lon="-0.71172">
        <ele>206</ele>
        <time>2010-01-01T01:53:20Z</time>
      </trkpt>
      <trkpt lat="46.71917" lon="-0.71155">
        <ele>209</ele>
        <time>2010-01-01T01:53:29Z</time>
      </trkpt>
      <trkpt lat="46.71862" lon="-0.71117">
        <ele>211</ele>
        <time>2010-01-01T01:53:39Z</time>
      </trkpt>
      <trkpt lat="46.71811" lon="-0.71075">
        <ele>210</ele>
        <time>2010-01-01T01:53:48Z</time>
      </trkpt>
      <trkpt lat="46.7177" lon="-0.71031">
        <ele>208</ele>
        <time>2010-01-01T01:53:57Z</time>
      </trkpt>
      <trkpt lat="46.71742" lon="-0.71005">
        <ele>206</ele>
        <time>2010-01-01T01:54:03Z</time>
      </trkpt>
      <trkpt lat="46.71712" lon="-0.70985">
        <ele>205</ele>
        <time>2010-01-01T01:54:08Z</time>
      </trkpt>
      <trkpt lat="46.71663" lon="-0.70962">
        <ele>204</ele>
        <time>2010-01-01T01:54:17Z</time>
      </trkpt>
      <trkpt lat="46.71622" lon="-0.7095">
        <ele>203</ele>
        <time>2010-01-01T01:54:24Z</time>
      </trkpt>
      <trkpt lat="46.71568" lon="-0.70947">
        <ele>202</ele>
        <time>2010-01-01T01:54:33Z</time>
      </trkpt>
      <trkpt lat="46.71515" lon="-0.70947">
        <ele>202</ele>
        <time>2010-01-01T01:54:41Z</time>
      </trkpt>
      <trkpt lat="46.71455" lon="-0.7093">
        <ele>200</ele>
        <time>2010-01-01T01:54:52Z</time>
      </trkpt>
      <trkpt lat="46.71392" lon="-0.70921">
        <ele>198</ele>
        <time>2010-01-01T01:55:02Z</time>
      </trkpt>
      <trkpt lat="46.71143" lon="-0.70898">
        <ele>194</ele>
        <time>2010-01-01T01:55:44Z</time>
      </trkpt>
      <trkpt lat="46.71109" lon="-0.70888">
        <ele>195</ele>
        <time>2010-01-01T01:55:50Z</time>
      </trkpt>
      <trkpt lat="46.71061" lon="-0.70856">
        <ele>196</ele>
        <time>2010-01-01T01:55:58Z</time>
      </trkpt>
      <trkpt lat="46.7093" lon="-0.70779">
        <ele>198</ele>
        <time>2010-01-01T01:56:22Z</time>
      </trkpt>
      <trkpt lat="46.7083" lon="-0.70762">
        <ele>200</ele>
        <time>2010-01-01T01:56:39Z</time>
      </trkpt>
      <trkpt lat="46.70806" lon="-0.7075">
        <ele>199</ele>
        <time>2010-01-01T01:56:43Z</time>
      </trkpt>
      <trkpt lat="46.70773" lon="-0.70706">
        <ele>199</ele>
        <time>2010-01-01T01:56:50Z</time>
      </trkpt>
      <trkpt lat="46.7075" lon="-0.70693">
        <ele>199</ele>
        <time>2010-01-01T01:56:55Z</time>
      </trkpt>
      <trkpt lat="46.70733" lon="-0.7069">
        <ele>199</ele>
        <time>2010-01-01T01:56:57Z</time>
      </trkpt>
      <trkpt lat="46.70648" lon="-0.7069">
        <ele>199</ele>
        <time>2010-01-01T01:57:12Z</time>
      </trkpt>
      <trkpt lat="46.70623" lon="-0.70681">
        <ele>200</ele>
        <time>2010-01-01T01:57:16Z</time>
      </trkpt>
      <trkpt lat="46.706" lon="-0.70656">
        <ele>199</ele>
        <time>2010-01-01T01:57:21Z</time>
      </trkpt>
      <trkpt lat="46.70562" lon="-0.7057">
        <ele>198</ele>
        <time>2010-01-01T01:57:32Z</time>
      </trkpt>
      <trkpt lat="46.70521" lon="-0.70501">
        <ele>200</ele>
        <time>2010-01-01T01:57:43Z</time>
      </trkpt>
      <trkpt lat="46.70341" lon="-0.70238">
        <ele>201</ele>
        <time>2010-01-01T01:58:25Z</time>
      </trkpt>
      <trkpt lat="46.70323" lon="-0.70204">
        <ele>200</ele>
        <time>2010-01-01T01:58:30Z</time>
      </trkpt>
      <trkpt lat="46.70306" lon="-0.70151">
        <ele>199</ele>
        <time>2010-01-01T01:58:37Z</time>
      </trkpt>
      <trkpt lat="46.70295" lon="-0.7013">
        <ele>199</ele>
        <time>2010-01-01T01:58:40Z</time>
      </trkpt>
      <trkpt lat="46.70277" lon="-0.70115">
        <ele>199</ele>
        <time>2010-01-01T01:58:43Z</time>
      </trkpt>
      <trkpt lat="46.70255" lon="-0.70108">
        <ele>200</ele>
        <time>2010-01-01T01:58:47Z</time>
      </trkpt>
      <trkpt lat="46.70239" lon="-0.70109">
        <ele>201</ele>
        <time>2010-01-01T01:58:50Z</time>
      </trkpt>
      <trkpt lat="46.7016" lon="-0.70139">
        <ele>207</ele>
        <time>2010-01-01T01:59:03Z</time>
      </trkpt>
      <trkpt lat="46.70139" lon="-0.70143">
        <ele>211</ele>
        <time>2010-01-01T01:59:07Z</time>
      </trkpt>
      <trkpt lat="46.70111" lon="-0.70138">
        <ele>213</ele>
        <time>2010-01-01T01:59:12Z</time>
      </trkpt>
      <trkpt lat="46.69894" lon="-0.70068">
        <ele>218</ele>
        <time>2010-01-01T01:59:49Z</time>
      </trkpt>
      <trkpt lat="46.69855" lon="-0.70061">
        <ele>220</ele>
        <time>2010-01-01T01:59:55Z</time>
      </trkpt>
      <trkpt lat="46.69792" lon="-0.70065">
        <ele>222</ele>
        <time>2010-01-01T02:00:06Z</time>
      </trkpt>
      <trkpt lat="46.69772" lon="-0.70071">
        <ele>223</ele>
        <time>2010-01-01T02:00:09Z</time>
      </trkpt>
      <trkpt lat="46.69771" lon="-0.70054">
        <ele>223</ele>
        <time>2010-01-01T02:00:11Z</time>
      </trkpt>
      <trkpt lat="46.69772" lon="-0.70071">
        <ele>223</ele>
        <time>2010-01-01T02:00:13Z</time>
      </trkpt>
      <trkpt lat="46.69739" lon="-0.70082">
        <ele>226</ele>
        <time>2010-01-01T02:00:19Z</time>
      </trkpt>
      <trkpt lat="46.69718" lon="-0.70083">
        <ele>228</ele>
        <time>2010-01-01T02:00:22Z</time>
      </trkpt>
      <trkpt lat="46.69703" lon="-0.70072">
        <ele>228</ele>
        <time>2010-01-01T02:00:25Z</time>
      </trkpt>
      <trkpt lat="46.69689" lon="-0.70055">
        <ele>229</ele>
        <time>2010-01-01T02:00:28Z</time>
      </trkpt>
      <trkpt lat="46.69676" lon="-0.70024">
        <ele>229</ele>
        <time>2010-01-01T02:00:32Z</time>
      </trkpt>
      <trkpt lat="46.69635" lon="-0.70046">
        <ele>231</ele>
        <time>2010-01-01T02:00:40Z</time>
      </trkpt>
      <trkpt lat="46.6962" lon="-0.70046">
        <ele>232</ele>
        <time>2010-01-01T02:00:42Z</time>
      </trkpt>
      <trkpt lat="46.69593" lon="-0.70101">
        <ele>230</ele>
        <time>2010-01-01T02:00:50Z</time>
      </trkpt>
      <trkpt lat="46.69533" lon="-0.70188">
        <ele>229</ele>
        <time>2010-01-01T02:01:04Z</time>
      </trkpt>
      <trkpt lat="46.69557" lon="-0.7023">
        <ele>230</ele>
        <time>2010-01-01T02:01:10Z</time>
      </trkpt>
      <trkpt lat="46.69591" lon="-0.70266">
        <ele>231</ele>
        <time>2010-01-01T02:01:17Z</time>
      </trkpt>
      <trkpt lat="46.69609" lon="-0.70295">
        <ele>231</ele>
        <time>2010-01-01T02:01:22Z</time>
      </trkpt>
      <trkpt lat="46.69621" lon="-0.70335">
        <ele>230</ele>
        <time>2010-01-01T02:01:27Z</time>
      </trkpt>
      <trkpt lat="46.69643" lon="-0.70459">
        <ele>231</ele>
        <time>2010-01-01T02:01:41Z</time>
      </trkpt>
      <trkpt lat="46.69651" lon="-0.70531">
        <ele>229</ele>
        <time>2010-01-01T02:01:50Z</time>
      </trkpt>
      <trkpt lat="46.69658" lon="-0.70663">
        <ele>227</ele>
        <time>2010-01-01T02:02:05Z</time>
      </trkpt>
      <trkpt lat="46.69669" lon="-0.70767">
        <ele>227</ele>
        <time>2010-01-01T02:02:17Z</time>
      </trkpt>
      <trkpt lat="46.6968" lon="-0.70826">
        <ele>226</ele>
        <time>2010-01-01T02:02:24Z</time>
      </trkpt>
      <trkpt lat="46.69747" lon="-0.70939">
        <ele>225</ele>
        <time>2010-01-01T02:02:41Z</time>
      </trkpt>
      <trkpt lat="46.69756" lon="-0.7099">
        <ele>225</ele>
        <time>2010-01-01T02:02:47Z</time>
      </trkpt>
      <trkpt lat="46.69754" lon="-0.71087">
        <ele>224</ele>
        <time>2010-01-01T02:02:58Z</time>
      </trkpt>
      <trkpt lat="46.69759" lon="-0.71122">
        <ele>224</ele>
        <time>2010-01-01T02:03:02Z</time>
      </trkpt>
      <trkpt lat="46.69781" lon="-0.71211">
        <ele>223</ele>
        <time>2010-01-01T02:03:13Z</time>
      </trkpt>
      <trkpt lat="46.69842" lon="-0.71455">
        <ele>219</ele>
        <time>2010-01-01T02:03:43Z</time>
      </trkpt>
      <trkpt lat="46.69874" lon="-0.7164">
        <ele>215</ele>
        <time>2010-01-01T02:04:04Z</time>
      </trkpt>
      <trkpt lat="46.69877" lon="-0.71715">
        <ele>211</ele>
        <time>2010-01-01T02:04:13Z</time>
      </trkpt>
      <trkpt lat="46.69883" lon="-0.71813">
        <ele>212</ele>
        <time>2010-01-01T02:04:24Z</time>
      </trkpt>
      <trkpt lat="46.69891" lon="-0.71858">
        <ele>212</ele>
        <time>2010-01-01T02:04:30Z</time>
      </trkpt>
      <trkpt lat="46.69913" lon="-0.71931">
        <ele>211</ele>
        <time>2010-01-01T02:04:39Z</time>
      </trkpt>
      <trkpt lat="46.69917" lon="-0.71975">
        <ele>208</ele>
        <time>2010-01-01T02:04:44Z</time>
      </trkpt>
      <trkpt lat="46.69907" lon="-0.72085">
        <ele>207</ele>
        <time>2010-01-01T02:04:57Z</time>
      </trkpt>
      <trkpt lat="46.69908" lon="-0.72219">
        <ele>209</ele>
        <time>2010-01-01T02:05:12Z</time>
      </trkpt>
      <trkpt lat="46.69919" lon="-0.72266">
        <ele>209</ele>
        <time>2010-01-01T02:05:18Z</time>
      </trkpt>
      <trkpt lat="46.69942" lon="-0.72309">
        <ele>209</ele>
        <time>2010-01-01T02:05:24Z</time>
      </trkpt>
      <trkpt lat="46.69975" lon="-0.72428">
        <ele>212</ele>
        <time>2010-01-01T02:05:38Z</time>
      </trkpt>
      <trkpt lat="46.70002" lon="-0.72503">
        <ele>210</ele>
        <time>2010-01-01T02:05:48Z</time>
      </trkpt>
      <trkpt lat="46.70032" lon="-0.72565">
        <ele>209</ele>
        <time>2010-01-01T02:05:57Z</time>
      </trkpt>
      <trkpt lat="46.70083" lon="-0.72629">
        <ele>207</ele>
        <time>2010-01-01T02:06:08Z</time>
      </trkpt>
      <trkpt lat="46.70116" lon="-0.72661">
        <ele>204</ele>
        <time>2010-01-01T02:06:15Z</time>
      </trkpt>
      <trkpt lat="46.70158" lon="-0.72697">
        <ele>202</ele>
        <time>2010-01-01T02:06:23Z</time>
      </trkpt>
      <trkpt lat="46.70269" lon="-0.72807">
        <ele>207</ele>
        <time>2010-01-01T02:06:45Z</time>
      </trkpt>
      <trkpt lat="46.70289" lon="-0.72837">
        <ele>207</ele>
        <time>2010-01-01T02:06:50Z</time>
      </trkpt>
      <trkpt lat="46.70309" lon="-0.72905">
        <ele>205</ele>
        <time>2010-01-01T02:06:58Z</time>
      </trkpt>
      <trkpt lat="46.70363" lon="-0.73157">
        <ele>203</ele>
        <time>2010-01-01T02:07:29Z</time>
      </trkpt>
      <trkpt lat="46.70365" lon="-0.73361">
        <ele>199</ele>
        <time>2010-01-01T02:07:52Z</time>
      </trkpt>
      <trkpt lat="46.70372" lon="-0.735">
        <ele>194</ele>
        <time>2010-01-01T02:08:08Z</time>
      </trkpt>
      <trkpt lat="46.7037" lon="-0.73569">
        <ele>193</ele>
        <time>2010-01-01T02:08:16Z</time>
      </trkpt>
      <trkpt lat="46.70357" lon="-0.73685">
        <ele>194</ele>
        <time>2010-01-01T02:08:29Z</time>
      </trkpt>
      <trkpt lat="46.70355" lon="-0.73749">
        <ele>193</ele>
        <time>2010-01-01T02:08:37Z</time>
      </trkpt>
      <trkpt lat="46.70362" lon="-0.73809">
        <ele>193</ele>
        <time>2010-01-01T02:08:44Z</time>
      </trkpt>
      <trkpt lat="46.70389" lon="-0.73907">
        <ele>194</ele>
        <time>2010-01-01T02:08:56Z</time>
      </trkpt>
      <trkpt lat="46.7047" lon="-0.74076">
        <ele>194</ele>
        <time>2010-01-01T02:09:19Z</time>
      </trkpt>
      <trkpt lat="46.70481" lon="-0.74121">
        <ele>194</ele>
        <time>2010-01-01T02:09:25Z</time>
      </trkpt>
      <trkpt lat="46.70504" lon="-0.74262">
        <ele>194</ele>
        <time>2010-01-01T02:09:41Z</time>
      </trkpt>
      <trkpt lat="46.70512" lon="-0.74379">
        <ele>191</ele>
        <time>2010-01-01T02:09:55Z</time>
      </trkpt>
      <trkpt lat="46.70511" lon="-0.74464">
        <ele>188</ele>
        <time>2010-01-01T02:10:04Z</time>
      </trkpt>
      <trkpt lat="46.70517" lon="-0.74511">
        <ele>188</ele>
        <time>2010-01-01T02:10:10Z</time>
      </trkpt>
      <trkpt lat="46.70573" lon="-0.74802">
        <ele>184</ele>
        <time>2010-01-01T02:10:44Z</time>
      </trkpt>
      <trkpt lat="46.70583" lon="-0.74841">
        <ele>183</ele>
        <time>2010-01-01T02:10:49Z</time>
      </trkpt>
      <trkpt lat="46.70653" lon="-0.75004">
        <ele>182</ele>
        <time>2010-01-01T02:11:11Z</time>
      </trkpt>
      <trkpt lat="46.70664" lon="-0.75048">
        <ele>181</ele>
        <time>2010-01-01T02:11:17Z</time>
      </trkpt>
      <trkpt lat="46.70664" lon="-0.75088">
        <ele>180</ele>
        <time>2010-01-01T02:11:21Z</time>
      </trkpt>
      <trkpt lat="46.70648" lon="-0.75133">
        <ele>179</ele>
        <time>2010-01-01T02:11:27Z</time>
      </trkpt>
      <trkpt lat="46.70525" lon="-0.75416">
        <ele>168</ele>
        <time>2010-01-01T02:12:05Z</time>
      </trkpt>
      <trkpt lat="46.70514" lon="-0.75469">
        <ele>168</ele>
        <time>2010-01-01T02:12:12Z</time>
      </trkpt>
      <trkpt lat="46.70514" lon="-0.75516">
        <ele>168</ele>
        <time>2010-01-01T02:12:17Z</time>
      </trkpt>
      <trkpt lat="46.70522" lon="-0.75554">
        <ele>166</ele>
        <time>2010-01-01T02:12:22Z</time>
      </trkpt>
      <trkpt lat="46.70544" lon="-0.75595">
        <ele>164</ele>
        <time>2010-01-01T02:12:27Z</time>
      </trkpt>
      <trkpt lat="46.7057" lon="-0.75625">
        <ele>161</ele>
        <time>2010-01-01T02:12:33Z</time>
      </trkpt>
      <trkpt lat="46.70608" lon="-0.75646">
        <ele>158</ele>
        <time>2010-01-01T02:12:40Z</time>
      </trkpt>
      <trkpt lat="46.70657" lon="-0.75655">
        <ele>157</ele>
        <time>2010-01-01T02:12:48Z</time>
      </trkpt>
      <trkpt lat="46.70704" lon="-0.75651">
        <ele>155</ele>
        <time>2010-01-01T02:12:56Z</time>
      </trkpt>
      <trkpt lat="46.70748" lon="-0.75634">
        <ele>154</ele>
        <time>2010-01-01T02:13:03Z</time>
      </trkpt>
      <trkpt lat="46.70761" lon="-0.75641">
        <ele>153</ele>
        <time>2010-01-01T02:13:06Z</time>
      </trkpt>
      <trkpt lat="46.70766" lon="-0.7566">
        <ele>152</ele>
        <time>2010-01-01T02:13:08Z</time>
      </trkpt>
      <trkpt lat="46.70757" lon="-0.75681">
        <ele>150</ele>
        <time>2010-01-01T02:13:11Z</time>
      </trkpt>
      <trkpt lat="46.70684" lon="-0.75768">
        <ele>148</ele>
        <time>2010-01-01T02:13:27Z</time>
      </trkpt>
      <trkpt lat="46.70665" lon="-0.75808">
        <ele>147</ele>
        <time>2010-01-01T02:13:32Z</time>
      </trkpt>
      <trkpt lat="46.70662" lon="-0.75823">
        <ele>147</ele>
        <time>2010-01-01T02:13:34Z</time>
      </trkpt>
      <trkpt lat="46.70661" lon="-0.75847">
        <ele>147</ele>
        <time>2010-01-01T02:13:37Z</time>
      </trkpt>
      <trkpt lat="46.70667" lon="-0.7588">
        <ele>148</ele>
        <time>2010-01-01T02:13:41Z</time>
      </trkpt>
      <trkpt lat="46.70682" lon="-0.75926">
        <ele>149</ele>
        <time>2010-01-01T02:13:46Z</time>
      </trkpt>
      <trkpt lat="46.70701" lon="-0.75994">
        <ele>152</ele>
        <time>2010-01-01T02:13:55Z</time>
      </trkpt>
      <trkpt lat="46.70705" lon="-0.76048">
        <ele>154</ele>
        <time>2010-01-01T02:14:01Z</time>
      </trkpt>
      <trkpt lat="46.70704" lon="-0.76161">
        <ele>160</ele>
        <time>2010-01-01T02:14:14Z</time>
      </trkpt>
      <trkpt lat="46.70707" lon="-0.76178">
        <ele>160</ele>
        <time>2010-01-01T02:14:16Z</time>
      </trkpt>
      <trkpt lat="46.70726" lon="-0.76324">
        <ele>158</ele>
        <time>2010-01-01T02:14:33Z</time>
      </trkpt>
      <trkpt lat="46.7072" lon="-0.76378">
        <ele>157</ele>
        <time>2010-01-01T02:14:39Z</time>
      </trkpt>
      <trkpt lat="46.70721" lon="-0.76427">
        <ele>156</ele>
        <time>2010-01-01T02:14:45Z</time>
      </trkpt>
      <trkpt lat="46.70732" lon="-0.76468">
        <ele>156</ele>
        <time>2010-01-01T02:14:50Z</time>
      </trkpt>
      <trkpt lat="46.70785" lon="-0.76581">
        <ele>159</ele>
        <time>2010-01-01T02:15:06Z</time>
      </trkpt>
      <trkpt lat="46.708" lon="-0.76668">
        <ele>161</ele>
        <time>2010-01-01T02:15:16Z</time>
      </trkpt>
      <trkpt lat="46.70846" lon="-0.76756">
        <ele>165</ele>
        <time>2010-01-01T02:15:29Z</time>
      </trkpt>
      <trkpt lat="46.70867" lon="-0.76806">
        <ele>168</ele>
        <time>2010-01-01T02:15:35Z</time>
      </trkpt>
      <trkpt lat="46.70873" lon="-0.76871">
        <ele>170</ele>
        <time>2010-01-01T02:15:43Z</time>
      </trkpt>
      <trkpt lat="46.70878" lon="-0.76984">
        <ele>173</ele>
        <time>2010-01-01T02:15:56Z</time>
      </trkpt>
      <trkpt lat="46.70876" lon="-0.7705">
        <ele>175</ele>
        <time>2010-01-01T02:16:03Z</time>
      </trkpt>
      <trkpt lat="46.70868" lon="-0.77122">
        <ele>177</ele>
        <time>2010-01-01T02:16:12Z</time>
      </trkpt>
      <trkpt lat="46.70864" lon="-0.77209">
        <ele>181</ele>
        <time>2010-01-01T02:16:22Z</time>
      </trkpt>
      <trkpt lat="46.70869" lon="-0.77228">
        <ele>181</ele>
        <time>2010-01-01T02:16:24Z</time>
      </trkpt>
      <trkpt lat="46.70915" lon="-0.77308">
        <ele>184</ele>
        <time>2010-01-01T02:16:36Z</time>
      </trkpt>
      <trkpt lat="46.70925" lon="-0.77338">
        <ele>184</ele>
        <time>2010-01-01T02:16:40Z</time>
      </trkpt>
      <trkpt lat="46.70939" lon="-0.77423">
        <ele>181</ele>
        <time>2010-01-01T02:16:50Z</time>
      </trkpt>
      <trkpt lat="46.70939" lon="-0.77438">
        <ele>181</ele>
        <time>2010-01-01T02:16:51Z</time>
      </trkpt>
      <trkpt lat="46.70935" lon="-0.77479">
        <ele>179</ele>
        <time>2010-01-01T02:16:56Z</time>
      </trkpt>
      <trkpt lat="46.70897" lon="-0.77622">
        <ele>180</ele>
        <time>2010-01-01T02:17:14Z</time>
      </trkpt>
      <trkpt lat="46.70894" lon="-0.7766">
        <ele>181</ele>
        <time>2010-01-01T02:17:18Z</time>
      </trkpt>
      <trkpt lat="46.70901" lon="-0.77808">
        <ele>180</ele>
        <time>2010-01-01T02:17:35Z</time>
      </trkpt>
      <trkpt lat="46.70903" lon="-0.77821">
        <ele>180</ele>
        <time>2010-01-01T02:17:36Z</time>
      </trkpt>
      <trkpt lat="46.7093" lon="-0.77903">
        <ele>179</ele>
        <time>2010-01-01T02:17:47Z</time>
      </trkpt>
      <trkpt lat="46.70946" lon="-0.77964">
        <ele>178</ele>
        <time>2010-01-01T02:17:54Z</time>
      </trkpt>
      <trkpt lat="46.70965" lon="-0.78052">
        <ele>178</ele>
        <time>2010-01-01T02:18:05Z</time>
      </trkpt>
      <trkpt lat="46.71006" lon="-0.78137">
        <ele>174</ele>
        <time>2010-01-01T02:18:17Z</time>
      </trkpt>
      <trkpt lat="46.71043" lon="-0.78228">
        <ele>172</ele>
        <time>2010-01-01T02:18:29Z</time>
      </trkpt>
      <trkpt lat="46.71063" lon="-0.78287">
        <ele>170</ele>
        <time>2010-01-01T02:18:36Z</time>
      </trkpt>
      <trkpt lat="46.7107" lon="-0.78319">
        <ele>169</ele>
        <time>2010-01-01T02:18:40Z</time>
      </trkpt>
      <trkpt lat="46.71066" lon="-0.78399">
        <ele>167</ele>
        <time>2010-01-01T02:18:49Z</time>
      </trkpt>
      <trkpt lat="46.71066" lon="-0.78437">
        <ele>165</ele>
        <time>2010-01-01T02:18:54Z</time>
      </trkpt>
      <trkpt lat="46.71075" lon="-0.78478">
        <ele>164</ele>
        <time>2010-01-01T02:18:59Z</time>
      </trkpt>
      <trkpt lat="46.71096" lon="-0.78518">
        <ele>162</ele>
        <time>2010-01-01T02:19:04Z</time>
      </trkpt>
      <trkpt lat="46.71135" lon="-0.78584">
        <ele>163</ele>
        <time>2010-01-01T02:19:14Z</time>
      </trkpt>
      <trkpt lat="46.71211" lon="-0.78737">
        <ele>165</ele>
        <time>2010-01-01T02:19:36Z</time>
      </trkpt>
      <trkpt lat="46.71236" lon="-0.78788">
        <ele>163</ele>
        <time>2010-01-01T02:19:43Z</time>
      </trkpt>
      <trkpt lat="46.71269" lon="-0.78865">
        <ele>164</ele>
        <time>2010-01-01T02:19:54Z</time>
      </trkpt>
      <trkpt lat="46.71295" lon="-0.78966">
        <ele>165</ele>
        <time>2010-01-01T02:20:06Z</time>
      </trkpt>
      <trkpt lat="46.71391" lon="-0.79273">
        <ele>159</ele>
        <time>2010-01-01T02:20:45Z</time>
      </trkpt>
      <trkpt lat="46.71409" lon="-0.79305">
        <ele>159</ele>
        <time>2010-01-01T02:20:49Z</time>
      </trkpt>
      <trkpt lat="46.71458" lon="-0.79377">
        <ele>156</ele>
        <time>2010-01-01T02:21:01Z</time>
      </trkpt>
      <trkpt lat="46.71495" lon="-0.79438">
        <ele>157</ele>
        <time>2010-01-01T02:21:10Z</time>
      </trkpt>
      <trkpt lat="46.71522" lon="-0.79486">
        <ele>157</ele>
        <time>2010-01-01T02:21:17Z</time>
      </trkpt>
      <trkpt lat="46.71546" lon="-0.79557">
        <ele>156</ele>
        <time>2010-01-01T02:21:26Z</time>
      </trkpt>
      <trkpt lat="46.71604" lon="-0.79791">
        <ele>153</ele>
        <time>2010-01-01T02:21:55Z</time>
      </trkpt>
      <trkpt lat="46.71623" lon="-0.79829">
        <ele>152</ele>
        <time>2010-01-01T02:22:00Z</time>
      </trkpt>
      <trkpt lat="46.71682" lon="-0.79892">
        <ele>149</ele>
        <time>2010-01-01T02:22:12Z</time>
      </trkpt>
      <trkpt lat="46.71822" lon="-0.80008">
        <ele>144</ele>
        <time>2010-01-01T02:22:39Z</time>
      </trkpt>
      <trkpt lat="46.71882" lon="-0.80052">
        <ele>144</ele>
        <time>2010-01-01T02:22:50Z</time>
      </trkpt>
      <trkpt lat="46.71888" lon="-0.80059">
        <ele>143</ele>
        <time>2010-01-01T02:22:52Z</time>
      </trkpt>
      <trkpt lat="46.71919" lon="-0.80105">
        <ele>145</ele>
        <time>2010-01-01T02:22:59Z</time>
      </trkpt>
      <trkpt lat="46.71941" lon="-0.80153">
        <ele>145</ele>
        <time>2010-01-01T02:23:06Z</time>
      </trkpt>
      <trkpt lat="46.71905" lon="-0.80145">
        <ele>143</ele>
        <time>2010-01-01T02:23:12Z</time>
      </trkpt>
      <trkpt lat="46.71905" lon="-0.80144">
        <ele>143</ele>
        <time>2010-01-01T02:23:12Z</time>
      </trkpt>
      <trkpt lat="46.71838" lon="-0.80134">
        <ele>140</ele>
        <time>2010-01-01T02:23:23Z</time>
      </trkpt>
      <trkpt lat="46.71833" lon="-0.80171">
        <ele>137</ele>
        <time>2010-01-01T02:23:27Z</time>
      </trkpt>
      <trkpt lat="46.7182" lon="-0.80217">
        <ele>135</ele>
        <time>2010-01-01T02:23:33Z</time>
      </trkpt>
      <trkpt lat="46.71741" lon="-0.80312">
        <ele>131</ele>
        <time>2010-01-01T02:23:50Z</time>
      </trkpt>
      <trkpt lat="46.71772" lon="-0.80372">
        <ele>131</ele>
        <time>2010-01-01T02:23:59Z</time>
      </trkpt>
      <trkpt lat="46.71809" lon="-0.80434">
        <ele>132</ele>
        <time>2010-01-01T02:24:08Z</time>
      </trkpt>
      <trkpt lat="46.71824" lon="-0.80465">
        <ele>132</ele>
        <time>2010-01-01T02:24:12Z</time>
      </trkpt>
      <trkpt lat="46.71809" lon="-0.80476">
        <ele>131</ele>
        <time>2010-01-01T02:24:15Z</time>
      </trkpt>
      <trkpt lat="46.71825" lon="-0.80518">
        <ele>131</ele>
        <time>2010-01-01T02:24:21Z</time>
      </trkpt>
      <trkpt lat="46.71843" lon="-0.80556">
        <ele>131</ele>
        <time>2010-01-01T02:24:26Z</time>
      </trkpt>
      <trkpt lat="46.71878" lon="-0.80624">
        <ele>129</ele>
        <time>2010-01-01T02:24:36Z</time>
      </trkpt>
      <trkpt lat="46.7185" lon="-0.80668">
        <ele>127</ele>
        <time>2010-01-01T02:24:43Z</time>
      </trkpt>
      <trkpt lat="46.71783" lon="-0.80836">
        <ele>126</ele>
        <time>2010-01-01T02:25:05Z</time>
      </trkpt>
      <trkpt lat="46.71752" lon="-0.80899">
        <ele>128</ele>
        <time>2010-01-01T02:25:14Z</time>
      </trkpt>
      <trkpt lat="46.71653" lon="-0.81084">
        <ele>142</ele>
        <time>2010-01-01T02:25:41Z</time>
      </trkpt>
      <trkpt lat="46.71585" lon="-0.81201">
        <ele>151</ele>
        <time>2010-01-01T02:25:58Z</time>
      </trkpt>
      <trkpt lat="46.71493" lon="-0.81333">
        <ele>156</ele>
        <time>2010-01-01T02:26:20Z</time>
      </trkpt>
      <trkpt lat="46.7148" lon="-0.8134">
        <ele>155</ele>
        <time>2010-01-01T02:26:22Z</time>
      </trkpt>
      <trkpt lat="46.71479" lon="-0.8134">
        <ele>155</ele>
        <time>2010-01-01T02:26:22Z</time>
      </trkpt>
      <trkpt lat="46.7146" lon="-0.81351">
        <ele>155</ele>
        <time>2010-01-01T02:26:26Z</time>
      </trkpt>
      <trkpt lat="46.71434" lon="-0.81377">
        <ele>156</ele>
        <time>2010-01-01T02:26:31Z</time>
      </trkpt>
      <trkpt lat="46.71448" lon="-0.81405">
        <ele>155</ele>
        <time>2010-01-01T02:26:35Z</time>
      </trkpt>
      <trkpt lat="46.71446" lon="-0.81442">
        <ele>154</ele>
        <time>2010-01-01T02:26:39Z</time>
      </trkpt>
      <trkpt lat="46.7142" lon="-0.81466">
        <ele>156</ele>
        <time>2010-01-01T02:26:44Z</time>
      </trkpt>
      <trkpt lat="46.71421" lon="-0.81484">
        <ele>156</ele>
        <time>2010-01-01T02:26:46Z</time>
      </trkpt>
      <trkpt lat="46.71424" lon="-0.81502">
        <ele>156</ele>
        <time>2010-01-01T02:26:48Z</time>
      </trkpt>
      <trkpt lat="46.7143" lon="-0.81519">
        <ele>155</ele>
        <time>2010-01-01T02:26:50Z</time>
      </trkpt>
      <trkpt lat="46.7144" lon="-0.81531">
        <ele>155</ele>
        <time>2010-01-01T02:26:53Z</time>
      </trkpt>
      <trkpt lat="46.71454" lon="-0.81537">
        <ele>154</ele>
        <time>2010-01-01T02:26:55Z</time>
      </trkpt>
      <trkpt lat="46.71466" lon="-0.81538">
        <ele>153</ele>
        <time>2010-01-01T02:26:57Z</time>
      </trkpt>
      <trkpt lat="46.71499" lon="-0.8153">
        <ele>152</ele>
        <time>2010-01-01T02:27:03Z</time>
      </trkpt>
      <trkpt lat="46.71514" lon="-0.8153">
        <ele>153</ele>
        <time>2010-01-01T02:27:05Z</time>
      </trkpt>
      <trkpt lat="46.71532" lon="-0.81535">
        <ele>154</ele>
        <time>2010-01-01T02:27:08Z</time>
      </trkpt>
      <trkpt lat="46.71632" lon="-0.81582">
        <ele>154</ele>
        <time>2010-01-01T02:27:26Z</time>
      </trkpt>
      <trkpt lat="46.71653" lon="-0.81597">
        <ele>153</ele>
        <time>2010-01-01T02:27:30Z</time>
      </trkpt>
      <trkpt lat="46.71673" lon="-0.81615">
        <ele>153</ele>
        <time>2010-01-01T02:27:34Z</time>
      </trkpt>
      <trkpt lat="46.71693" lon="-0.81636">
        <ele>152</ele>
        <time>2010-01-01T02:27:38Z</time>
      </trkpt>
      <trkpt lat="46.71704" lon="-0.81653">
        <ele>152</ele>
        <time>2010-01-01T02:27:40Z</time>
      </trkpt>
      <trkpt lat="46.71719" lon="-0.81681">
        <ele>152</ele>
        <time>2010-01-01T02:27:44Z</time>
      </trkpt>
      <trkpt lat="46.71731" lon="-0.81708">
        <ele>152</ele>
        <time>2010-01-01T02:27:48Z</time>
      </trkpt>
      <trkpt lat="46.71912" lon="-0.82259">
        <ele>154</ele>
        <time>2010-01-01T02:28:58Z</time>
      </trkpt>
      <trkpt lat="46.72031" lon="-0.82552">
        <ele>159</ele>
        <time>2010-01-01T02:29:37Z</time>
      </trkpt>
      <trkpt lat="46.72061" lon="-0.82604">
        <ele>158</ele>
        <time>2010-01-01T02:29:45Z</time>
      </trkpt>
      <trkpt lat="46.72209" lon="-0.82795">
        <ele>154</ele>
        <time>2010-01-01T02:30:18Z</time>
      </trkpt>
      <trkpt lat="46.72224" lon="-0.82822">
        <ele>154</ele>
        <time>2010-01-01T02:30:22Z</time>
      </trkpt>
      <trkpt lat="46.72235" lon="-0.82852">
        <ele>153</ele>
        <time>2010-01-01T02:30:26Z</time>
      </trkpt>
      <trkpt lat="46.72244" lon="-0.82883">
        <ele>153</ele>
        <time>2010-01-01T02:30:29Z</time>
      </trkpt>
      <trkpt lat="46.72254" lon="-0.82948">
        <ele>152</ele>
        <time>2010-01-01T02:30:37Z</time>
      </trkpt>
      <trkpt lat="46.72276" lon="-0.83167">
        <ele>147</ele>
        <time>2010-01-01T02:31:02Z</time>
      </trkpt>
      <trkpt lat="46.72285" lon="-0.83287">
        <ele>143</ele>
        <time>2010-01-01T02:31:16Z</time>
      </trkpt>
      <trkpt lat="46.72291" lon="-0.83312">
        <ele>142</ele>
        <time>2010-01-01T02:31:19Z</time>
      </trkpt>
      <trkpt lat="46.723" lon="-0.83333">
        <ele>142</ele>
        <time>2010-01-01T02:31:22Z</time>
      </trkpt>
      <trkpt lat="46.72312" lon="-0.83355">
        <ele>142</ele>
        <time>2010-01-01T02:31:25Z</time>
      </trkpt>
      <trkpt lat="46.72453" lon="-0.83542">
        <ele>142</ele>
        <time>2010-01-01T02:31:57Z</time>
      </trkpt>
      <trkpt lat="46.72464" lon="-0.83563">
        <ele>142</ele>
        <time>2010-01-01T02:32:00Z</time>
      </trkpt>
      <trkpt lat="46.72472" lon="-0.83583">
        <ele>141</ele>
        <time>2010-01-01T02:32:03Z</time>
      </trkpt>
      <trkpt lat="46.72478" lon="-0.83606">
        <ele>141</ele>
        <time>2010-01-01T02:32:05Z</time>
      </trkpt>
      <trkpt lat="46.72481" lon="-0.83629">
        <ele>141</ele>
        <time>2010-01-01T02:32:08Z</time>
      </trkpt>
      <trkpt lat="46.72482" lon="-0.83655">
        <ele>141</ele>
        <time>2010-01-01T02:32:11Z</time>
      </trkpt>
      <trkpt lat="46.72482" lon="-0.83681">
        <ele>142</ele>
        <time>2010-01-01T02:32:14Z</time>
      </trkpt>
      <trkpt lat="46.72478" lon="-0.83707">
        <ele>142</ele>
        <time>2010-01-01T02:32:17Z</time>
      </trkpt>
      <trkpt lat="46.72473" lon="-0.83729">
        <ele>143</ele>
        <time>2010-01-01T02:32:20Z</time>
      </trkpt>
      <trkpt lat="46.72448" lon="-0.83799">
        <ele>140</ele>
        <time>2010-01-01T02:32:29Z</time>
      </trkpt>
      <trkpt lat="46.72443" lon="-0.83821">
        <ele>139</ele>
        <time>2010-01-01T02:32:31Z</time>
      </trkpt>
      <trkpt lat="46.72443" lon="-0.83822">
        <ele>139</ele>
        <time>2010-01-01T02:32:32Z</time>
      </trkpt>
      <trkpt lat="46.72441" lon="-0.83852">
        <ele>139</ele>
        <time>2010-01-01T02:32:35Z</time>
      </trkpt>
      <trkpt lat="46.72443" lon="-0.83874">
        <ele>139</ele>
        <time>2010-01-01T02:32:38Z</time>
      </trkpt>
      <trkpt lat="46.7246" lon="-0.83974">
        <ele>137</ele>
        <time>2010-01-01T02:32:49Z</time>
      </trkpt>
      <trkpt lat="46.72463" lon="-0.84001">
        <ele>137</ele>
        <time>2010-01-01T02:32:52Z</time>
      </trkpt>
      <trkpt lat="46.72463" lon="-0.84024">
        <ele>136</ele>
        <time>2010-01-01T02:32:55Z</time>
      </trkpt>
      <trkpt lat="46.7246" lon="-0.84051">
        <ele>135</ele>
        <time>2010-01-01T02:32:58Z</time>
      </trkpt>
      <trkpt lat="46.72454" lon="-0.84071">
        <ele>134</ele>
        <time>2010-01-01T02:33:01Z</time>
      </trkpt>
      <trkpt lat="46.72444" lon="-0.84094">
        <ele>134</ele>
        <time>2010-01-01T02:33:04Z</time>
      </trkpt>
      <trkpt lat="46.72407" lon="-0.84168">
        <ele>132</ele>
        <time>2010-01-01T02:33:14Z</time>
      </trkpt>
      <trkpt lat="46.72395" lon="-0.84195">
        <ele>132</ele>
        <time>2010-01-01T02:33:18Z</time>
      </trkpt>
      <trkpt lat="46.72391" lon="-0.84211">
        <ele>132</ele>
        <time>2010-01-01T02:33:20Z</time>
      </trkpt>
      <trkpt lat="46.72382" lon="-0.84254">
        <ele>132</ele>
        <time>2010-01-01T02:33:25Z</time>
      </trkpt>
      <trkpt lat="46.72375" lon="-0.84371">
        <ele>131</ele>
        <time>2010-01-01T02:33:38Z</time>
      </trkpt>
      <trkpt lat="46.72368" lon="-0.84439">
        <ele>130</ele>
        <time>2010-01-01T02:33:46Z</time>
      </trkpt>
      <trkpt lat="46.72356" lon="-0.84486">
        <ele>129</ele>
        <time>2010-01-01T02:33:52Z</time>
      </trkpt>
      <trkpt lat="46.72337" lon="-0.84522">
        <ele>129</ele>
        <time>2010-01-01T02:33:57Z</time>
      </trkpt>
      <trkpt lat="46.72313" lon="-0.84554">
        <ele>129</ele>
        <time>2010-01-01T02:34:03Z</time>
      </trkpt>
      <trkpt lat="46.72301" lon="-0.84567">
        <ele>129</ele>
        <time>2010-01-01T02:34:05Z</time>
      </trkpt>
      <trkpt lat="46.72279" lon="-0.84585">
        <ele>128</ele>
        <time>2010-01-01T02:34:09Z</time>
      </trkpt>
      <trkpt lat="46.72252" lon="-0.84604">
        <ele>129</ele>
        <time>2010-01-01T02:34:14Z</time>
      </trkpt>
      <trkpt lat="46.72215" lon="-0.84642">
        <ele>128</ele>
        <time>2010-01-01T02:34:22Z</time>
      </trkpt>
      <trkpt lat="46.72204" lon="-0.84657">
        <ele>128</ele>
        <time>2010-01-01T02:34:24Z</time>
      </trkpt>
      <trkpt lat="46.72197" lon="-0.84673">
        <ele>128</ele>
        <time>2010-01-01T02:34:27Z</time>
      </trkpt>
      <trkpt lat="46.72191" lon="-0.8469">
        <ele>128</ele>
        <time>2010-01-01T02:34:29Z</time>
      </trkpt>
      <trkpt lat="46.72188" lon="-0.84709">
        <ele>128</ele>
        <time>2010-01-01T02:34:31Z</time>
      </trkpt>
      <trkpt lat="46.72187" lon="-0.84729">
        <ele>128</ele>
        <time>2010-01-01T02:34:33Z</time>
      </trkpt>
      <trkpt lat="46.72188" lon="-0.84749">
        <ele>127</ele>
        <time>2010-01-01T02:34:36Z</time>
      </trkpt>
      <trkpt lat="46.72199" lon="-0.84789">
        <ele>126</ele>
        <time>2010-01-01T02:34:41Z</time>
      </trkpt>
      <trkpt lat="46.72204" lon="-0.84814">
        <ele>126</ele>
        <time>2010-01-01T02:34:44Z</time>
      </trkpt>
      <trkpt lat="46.72204" lon="-0.84835">
        <ele>125</ele>
        <time>2010-01-01T02:34:46Z</time>
      </trkpt>
      <trkpt lat="46.72202" lon="-0.84858">
        <ele>125</ele>
        <time>2010-01-01T02:34:49Z</time>
      </trkpt>
      <trkpt lat="46.72188" lon="-0.84916">
        <ele>126</ele>
        <time>2010-01-01T02:34:56Z</time>
      </trkpt>
      <trkpt lat="46.72184" lon="-0.84939">
        <ele>126</ele>
        <time>2010-01-01T02:34:58Z</time>
      </trkpt>
      <trkpt lat="46.72182" lon="-0.84961">
        <ele>126</ele>
        <time>2010-01-01T02:35:01Z</time>
      </trkpt>
      <trkpt lat="46.72185" lon="-0.85023">
        <ele>124</ele>
        <time>2010-01-01T02:35:08Z</time>
      </trkpt>
      <trkpt lat="46.7219" lon="-0.85048">
        <ele>123</ele>
        <time>2010-01-01T02:35:11Z</time>
      </trkpt>
      <trkpt lat="46.72201" lon="-0.85074">
        <ele>122</ele>
        <time>2010-01-01T02:35:14Z</time>
      </trkpt>
      <trkpt lat="46.72234" lon="-0.85121">
        <ele>122</ele>
        <time>2010-01-01T02:35:22Z</time>
      </trkpt>
      <trkpt lat="46.72249" lon="-0.85145">
        <ele>122</ele>
        <time>2010-01-01T02:35:26Z</time>
      </trkpt>
      <trkpt lat="46.72259" lon="-0.85168">
        <ele>121</ele>
        <time>2010-01-01T02:35:29Z</time>
      </trkpt>
      <trkpt lat="46.7228" lon="-0.85262">
        <ele>123</ele>
        <time>2010-01-01T02:35:40Z</time>
      </trkpt>
      <trkpt lat="46.72302" lon="-0.85324">
        <ele>122</ele>
        <time>2010-01-01T02:35:48Z</time>
      </trkpt>
      <trkpt lat="46.72312" lon="-0.85359">
        <ele>120</ele>
        <time>2010-01-01T02:35:53Z</time>
      </trkpt>
      <trkpt lat="46.72333" lon="-0.85528">
        <ele>118</ele>
        <time>2010-01-01T02:36:12Z</time>
      </trkpt>
      <trkpt lat="46.72358" lon="-0.85601">
        <ele>116</ele>
        <time>2010-01-01T02:36:22Z</time>
      </trkpt>
      <trkpt lat="46.72388" lon="-0.85658">
        <ele>115</ele>
        <time>2010-01-01T02:36:30Z</time>
      </trkpt>
      <trkpt lat="46.7245" lon="-0.8576">
        <ele>119</ele>
        <time>2010-01-01T02:36:45Z</time>
      </trkpt>
      <trkpt lat="46.72462" lon="-0.85784">
        <ele>118</ele>
        <time>2010-01-01T02:36:49Z</time>
      </trkpt>
      <trkpt lat="46.72476" lon="-0.85822">
        <ele>118</ele>
        <time>2010-01-01T02:36:54Z</time>
      </trkpt>
      <trkpt lat="46.72488" lon="-0.85861">
        <ele>118</ele>
        <time>2010-01-01T02:36:59Z</time>
      </trkpt>
      <trkpt lat="46.72496" lon="-0.85881">
        <ele>119</ele>
        <time>2010-01-01T02:37:01Z</time>
      </trkpt>
      <trkpt lat="46.7252" lon="-0.85913">
        <ele>120</ele>
        <time>2010-01-01T02:37:07Z</time>
      </trkpt>
      <trkpt lat="46.72544" lon="-0.85936">
        <ele>122</ele>
        <time>2010-01-01T02:37:11Z</time>
      </trkpt>
      <trkpt lat="46.72652" lon="-0.86012">
        <ele>125</ele>
        <time>2010-01-01T02:37:31Z</time>
      </trkpt>
      <trkpt lat="46.72698" lon="-0.86047">
        <ele>127</ele>
        <time>2010-01-01T02:37:40Z</time>
      </trkpt>
      <trkpt lat="46.72758" lon="-0.86082">
        <ele>127</ele>
        <time>2010-01-01T02:37:51Z</time>
      </trkpt>
      <trkpt lat="46.7285" lon="-0.86149">
        <ele>124</ele>
        <time>2010-01-01T02:38:08Z</time>
      </trkpt>
      <trkpt lat="46.72954" lon="-0.86222">
        <ele>121</ele>
        <time>2010-01-01T02:38:27Z</time>
      </trkpt>
      <trkpt lat="46.72964" lon="-0.862">
        <ele>121</ele>
        <time>2010-01-01T02:38:30Z</time>
      </trkpt>
      <trkpt lat="46.72982" lon="-0.8617">
        <ele>122</ele>
        <time>2010-01-01T02:38:35Z</time>
      </trkpt>
      <trkpt lat="46.73023" lon="-0.8617">
        <ele>122</ele>
        <time>2010-01-01T02:38:42Z</time>
      </trkpt>
      <trkpt lat="46.73094" lon="-0.86213">
        <ele>120</ele>
        <time>2010-01-01T02:38:54Z</time>
      </trkpt>
      <trkpt lat="46.73132" lon="-0.8623">
        <ele>118</ele>
        <time>2010-01-01T02:39:01Z</time>
      </trkpt>
      <trkpt lat="46.73214" lon="-0.86251">
        <ele>116</ele>
        <time>2010-01-01T02:39:15Z</time>
      </trkpt>
      <trkpt lat="46.73273" lon="-0.86263">
        <ele>118</ele>
        <time>2010-01-01T02:39:25Z</time>
      </trkpt>
      <trkpt lat="46.73369" lon="-0.86268">
        <ele>121</ele>
        <time>2010-01-01T02:39:41Z</time>
      </trkpt>
      <trkpt lat="46.73382" lon="-0.86265">
        <ele>122</ele>
        <time>2010-01-01T02:39:43Z</time>
      </trkpt>
      <trkpt lat="46.73427" lon="-0.86249">
        <ele>124</ele>
        <time>2010-01-01T02:39:51Z</time>
      </trkpt>
      <trkpt lat="46.73439" lon="-0.86242">
        <ele>124</ele>
        <time>2010-01-01T02:39:53Z</time>
      </trkpt>
      <trkpt lat="46.73455" lon="-0.86237">
        <ele>125</ele>
        <time>2010-01-01T02:39:56Z</time>
      </trkpt>
      <trkpt lat="46.73468" lon="-0.86235">
        <ele>126</ele>
        <time>2010-01-01T02:39:58Z</time>
      </trkpt>
      <trkpt lat="46.73481" lon="-0.86238">
        <ele>127</ele>
        <time>2010-01-01T02:40:00Z</time>
      </trkpt>
      <trkpt lat="46.73512" lon="-0.86253">
        <ele>128</ele>
        <time>2010-01-01T02:40:06Z</time>
      </trkpt>
      <trkpt lat="46.7353" lon="-0.86266">
        <ele>129</ele>
        <time>2010-01-01T02:40:09Z</time>
      </trkpt>
      <trkpt lat="46.73561" lon="-0.86284">
        <ele>130</ele>
        <time>2010-01-01T02:40:15Z</time>
      </trkpt>
      <trkpt lat="46.73654" lon="-0.86313">
        <ele>131</ele>
        <time>2010-01-01T02:40:30Z</time>
      </trkpt>
      <trkpt lat="46.73665" lon="-0.86322">
        <ele>131</ele>
        <time>2010-01-01T02:40:32Z</time>
      </trkpt>
      <trkpt lat="46.73683" lon="-0.86352">
        <ele>131</ele>
        <time>2010-01-01T02:40:37Z</time>
      </trkpt>
      <trkpt lat="46.7376" lon="-0.86503">
        <ele>128</ele>
        <time>2010-01-01T02:40:59Z</time>
      </trkpt>
      <trkpt lat="46.73928" lon="-0.86847">
        <ele>125</ele>
        <time>2010-01-01T02:41:47Z</time>
      </trkpt>
      <trkpt lat="46.73939" lon="-0.86885">
        <ele>126</ele>
        <time>2010-01-01T02:41:52Z</time>
      </trkpt>
      <trkpt lat="46.73947" lon="-0.86947">
        <ele>131</ele>
        <time>2010-01-01T02:41:59Z</time>
      </trkpt>
      <trkpt lat="46.73955" lon="-0.86986">
        <ele>132</ele>
        <time>2010-01-01T02:42:03Z</time>
      </trkpt>
      <trkpt lat="46.73965" lon="-0.87021">
        <ele>132</ele>
        <time>2010-01-01T02:42:08Z</time>
      </trkpt>
      <trkpt lat="46.741" lon="-0.87317">
        <ele>133</ele>
        <time>2010-01-01T02:42:48Z</time>
      </trkpt>
      <trkpt lat="46.74178" lon="-0.87463">
        <ele>133</ele>
        <time>2010-01-01T02:43:10Z</time>
      </trkpt>
      <trkpt lat="46.74224" lon="-0.87528">
        <ele>126</ele>
        <time>2010-01-01T02:43:20Z</time>
      </trkpt>
      <trkpt lat="46.74247" lon="-0.8755">
        <ele>124</ele>
        <time>2010-01-01T02:43:25Z</time>
      </trkpt>
      <trkpt lat="46.74295" lon="-0.87604">
        <ele>127</ele>
        <time>2010-01-01T02:43:35Z</time>
      </trkpt>
      <trkpt lat="46.74329" lon="-0.87651">
        <ele>130</ele>
        <time>2010-01-01T02:43:43Z</time>
      </trkpt>
      <trkpt lat="46.74384" lon="-0.87747">
        <ele>133</ele>
        <time>2010-01-01T02:43:57Z</time>
      </trkpt>
      <trkpt lat="46.74405" lon="-0.8778">
        <ele>131</ele>
        <time>2010-01-01T02:44:02Z</time>
      </trkpt>
      <trkpt lat="46.74451" lon="-0.87882">
        <ele>134</ele>
        <time>2010-01-01T02:44:16Z</time>
      </trkpt>
      <trkpt lat="46.74517" lon="-0.88042">
        <ele>132</ele>
        <time>2010-01-01T02:44:37Z</time>
      </trkpt>
      <trkpt lat="46.74599" lon="-0.88219">
        <ele>134</ele>
        <time>2010-01-01T02:45:02Z</time>
      </trkpt>
      <trkpt lat="46.74809" lon="-0.88654">
        <ele>129</ele>
        <time>2010-01-01T02:46:03Z</time>
      </trkpt>
      <trkpt lat="46.74824" lon="-0.8869">
        <ele>130</ele>
        <time>2010-01-01T02:46:08Z</time>
      </trkpt>
      <trkpt lat="46.74836" lon="-0.88731">
        <ele>132</ele>
        <time>2010-01-01T02:46:13Z</time>
      </trkpt>
      <trkpt lat="46.7487" lon="-0.88883">
        <ele>131</ele>
        <time>2010-01-01T02:46:31Z</time>
      </trkpt>
      <trkpt lat="46.74915" lon="-0.89227">
        <ele>125</ele>
        <time>2010-01-01T02:47:11Z</time>
      </trkpt>
      <trkpt lat="46.74922" lon="-0.89291">
        <ele>125</ele>
        <time>2010-01-01T02:47:18Z</time>
      </trkpt>
      <trkpt lat="46.74922" lon="-0.89329">
        <ele>126</ele>
        <time>2010-01-01T02:47:23Z</time>
      </trkpt>
      <trkpt lat="46.74918" lon="-0.89357">
        <ele>126</ele>
        <time>2010-01-01T02:47:26Z</time>
      </trkpt>
      <trkpt lat="46.74909" lon="-0.89389">
        <ele>128</ele>
        <time>2010-01-01T02:47:30Z</time>
      </trkpt>
      <trkpt lat="46.74809" lon="-0.89636">
        <ele>122</ele>
        <time>2010-01-01T02:48:03Z</time>
      </trkpt>
      <trkpt lat="46.74772" lon="-0.89735">
        <ele>122</ele>
        <time>2010-01-01T02:48:16Z</time>
      </trkpt>
      <trkpt lat="46.74763" lon="-0.89776">
        <ele>121</ele>
        <time>2010-01-01T02:48:20Z</time>
      </trkpt>
      <trkpt lat="46.74759" lon="-0.89811">
        <ele>120</ele>
        <time>2010-01-01T02:48:25Z</time>
      </trkpt>
      <trkpt lat="46.74759" lon="-0.89842">
        <ele>120</ele>
        <time>2010-01-01T02:48:28Z</time>
      </trkpt>
      <trkpt lat="46.74773" lon="-0.90443">
        <ele>112</ele>
        <time>2010-01-01T02:49:37Z</time>
      </trkpt>
      <trkpt lat="46.74776" lon="-0.90495">
        <ele>112</ele>
        <time>2010-01-01T02:49:43Z</time>
      </trkpt>
      <trkpt lat="46.74783" lon="-0.90548">
        <ele>113</ele>
        <time>2010-01-01T02:49:49Z</time>
      </trkpt>
      <trkpt lat="46.74804" lon="-0.90644">
        <ele>111</ele>
        <time>2010-01-01T02:50:00Z</time>
      </trkpt>
      <trkpt lat="46.74837" lon="-0.90755">
        <ele>112</ele>
        <time>2010-01-01T02:50:14Z</time>
      </trkpt>
      <trkpt lat="46.74924" lon="-0.91026">
        <ele>112</ele>
        <time>2010-01-01T02:50:49Z</time>
      </trkpt>
      <trkpt lat="46.74973" lon="-0.91165">
        <ele>111</ele>
        <time>2010-01-01T02:51:06Z</time>
      </trkpt>
      <trkpt lat="46.74986" lon="-0.91186">
        <ele>112</ele>
        <time>2010-01-01T02:51:10Z</time>
      </trkpt>
      <trkpt lat="46.75039" lon="-0.91263">
        <ele>118</ele>
        <time>2010-01-01T02:51:22Z</time>
      </trkpt>
      <trkpt lat="46.7506" lon="-0.91301">
        <ele>120</ele>
        <time>2010-01-01T02:51:28Z</time>
      </trkpt>
      <trkpt lat="46.75077" lon="-0.91347">
        <ele>120</ele>
        <time>2010-01-01T02:51:34Z</time>
      </trkpt>
      <trkpt lat="46.75087" lon="-0.91383">
        <ele>119</ele>
        <time>2010-01-01T02:51:38Z</time>
      </trkpt>
      <trkpt lat="46.75123" lon="-0.91477">
        <ele>115</ele>
        <time>2010-01-01T02:51:50Z</time>
      </trkpt>
      <trkpt lat="46.75135" lon="-0.91515">
        <ele>115</ele>
        <time>2010-01-01T02:51:55Z</time>
      </trkpt>
      <trkpt lat="46.7514" lon="-0.91542">
        <ele>115</ele>
        <time>2010-01-01T02:51:58Z</time>
      </trkpt>
      <trkpt lat="46.75143" lon="-0.91575">
        <ele>114</ele>
        <time>2010-01-01T02:52:02Z</time>
      </trkpt>
      <trkpt lat="46.75136" lon="-0.91689">
        <ele>114</ele>
        <time>2010-01-01T02:52:15Z</time>
      </trkpt>
      <trkpt lat="46.75125" lon="-0.91752">
        <ele>111</ele>
        <time>2010-01-01T02:52:23Z</time>
      </trkpt>
      <trkpt lat="46.75108" lon="-0.918">
        <ele>110</ele>
        <time>2010-01-01T02:52:29Z</time>
      </trkpt>
      <trkpt lat="46.75078" lon="-0.9185">
        <ele>108</ele>
        <time>2010-01-01T02:52:36Z</time>
      </trkpt>
      <trkpt lat="46.75038" lon="-0.9189">
        <ele>108</ele>
        <time>2010-01-01T02:52:45Z</time>
      </trkpt>
      <trkpt lat="46.74958" lon="-0.91963">
        <ele>109</ele>
        <time>2010-01-01T02:53:00Z</time>
      </trkpt>
      <trkpt lat="46.74929" lon="-0.92005">
        <ele>108</ele>
        <time>2010-01-01T02:53:07Z</time>
      </trkpt>
      <trkpt lat="46.74913" lon="-0.92037">
        <ele>108</ele>
        <time>2010-01-01T02:53:12Z</time>
      </trkpt>
      <trkpt lat="46.74902" lon="-0.92069">
        <ele>108</ele>
        <time>2010-01-01T02:53:16Z</time>
      </trkpt>
      <trkpt lat="46.74893" lon="-0.92104">
        <ele>109</ele>
        <time>2010-01-01T02:53:20Z</time>
      </trkpt>
      <trkpt lat="46.74886" lon="-0.92157">
        <ele>109</ele>
        <time>2010-01-01T02:53:26Z</time>
      </trkpt>
      <trkpt lat="46.7487" lon="-0.92343">
        <ele>107</ele>
        <time>2010-01-01T02:53:48Z</time>
      </trkpt>
      <trkpt lat="46.74865" lon="-0.92375">
        <ele>106</ele>
        <time>2010-01-01T02:53:51Z</time>
      </trkpt>
      <trkpt lat="46.7485" lon="-0.92419">
        <ele>105</ele>
        <time>2010-01-01T02:53:57Z</time>
      </trkpt>
      <trkpt lat="46.74792" lon="-0.92575">
        <ele>105</ele>
        <time>2010-01-01T02:54:17Z</time>
      </trkpt>
      <trkpt lat="46.74786" lon="-0.92596">
        <ele>105</ele>
        <time>2010-01-01T02:54:20Z</time>
      </trkpt>
      <trkpt lat="46.7478" lon="-0.9263">
        <ele>105</ele>
        <time>2010-01-01T02:54:24Z</time>
      </trkpt>
      <trkpt lat="46.7477" lon="-0.92719">
        <ele>103</ele>
        <time>2010-01-01T02:54:34Z</time>
      </trkpt>
      <trkpt lat="46.74769" lon="-0.92762">
        <ele>102</ele>
        <time>2010-01-01T02:54:39Z</time>
      </trkpt>
      <trkpt lat="46.74771" lon="-0.92829">
        <ele>101</ele>
        <time>2010-01-01T02:54:47Z</time>
      </trkpt>
      <trkpt lat="46.74781" lon="-0.92975">
        <ele>98</ele>
        <time>2010-01-01T02:55:03Z</time>
      </trkpt>
      <trkpt lat="46.74779" lon="-0.93002">
        <ele>98</ele>
        <time>2010-01-01T02:55:07Z</time>
      </trkpt>
      <trkpt lat="46.74773" lon="-0.9303">
        <ele>99</ele>
        <time>2010-01-01T02:55:10Z</time>
      </trkpt>
      <trkpt lat="46.74763" lon="-0.93057">
        <ele>99</ele>
        <time>2010-01-01T02:55:13Z</time>
      </trkpt>
      <trkpt lat="46.74667" lon="-0.93253">
        <ele>102</ele>
        <time>2010-01-01T02:55:41Z</time>
      </trkpt>
      <trkpt lat="46.74634" lon="-0.93363">
        <ele>105</ele>
        <time>2010-01-01T02:55:55Z</time>
      </trkpt>
      <trkpt lat="46.74611" lon="-0.93454">
        <ele>105</ele>
        <time>2010-01-01T02:56:06Z</time>
      </trkpt>
      <trkpt lat="46.74597" lon="-0.93494">
        <ele>105</ele>
        <time>2010-01-01T02:56:11Z</time>
      </trkpt>
      <trkpt lat="46.74555" lon="-0.93583">
        <ele>104</ele>
        <time>2010-01-01T02:56:23Z</time>
      </trkpt>
      <trkpt lat="46.74531" lon="-0.93659">
        <ele>104</ele>
        <time>2010-01-01T02:56:33Z</time>
      </trkpt>
      <trkpt lat="46.74499" lon="-0.93829">
        <ele>102</ele>
        <time>2010-01-01T02:56:53Z</time>
      </trkpt>
      <trkpt lat="46.74494" lon="-0.9385">
        <ele>102</ele>
        <time>2010-01-01T02:56:56Z</time>
      </trkpt>
      <trkpt lat="46.74494" lon="-0.93851">
        <ele>102</ele>
        <time>2010-01-01T02:56:56Z</time>
      </trkpt>
      <trkpt lat="46.74487" lon="-0.93876">
        <ele>102</ele>
        <time>2010-01-01T02:56:59Z</time>
      </trkpt>
      <trkpt lat="46.74449" lon="-0.93988">
        <ele>104</ele>
        <time>2010-01-01T02:57:13Z</time>
      </trkpt>
      <trkpt lat="46.74424" lon="-0.94052">
        <ele>105</ele>
        <time>2010-01-01T02:57:21Z</time>
      </trkpt>
      <trkpt lat="46.74412" lon="-0.94089">
        <ele>106</ele>
        <time>2010-01-01T02:57:26Z</time>
      </trkpt>
      <trkpt lat="46.74405" lon="-0.94117">
        <ele>106</ele>
        <time>2010-01-01T02:57:30Z</time>
      </trkpt>
      <trkpt lat="46.74404" lon="-0.94144">
        <ele>106</ele>
        <time>2010-01-01T02:57:33Z</time>
      </trkpt>
      <trkpt lat="46.7442" lon="-0.94215">
        <ele>108</ele>
        <time>2010-01-01T02:57:41Z</time>
      </trkpt>
      <trkpt lat="46.74428" lon="-0.94263">
        <ele>109</ele>
        <time>2010-01-01T02:57:47Z</time>
      </trkpt>
      <trkpt lat="46.7444" lon="-0.94466">
        <ele>107</ele>
        <time>2010-01-01T02:58:10Z</time>
      </trkpt>
      <trkpt lat="46.74455" lon="-0.94565">
        <ele>107</ele>
        <time>2010-01-01T02:58:22Z</time>
      </trkpt>
      <trkpt lat="46.74475" lon="-0.94652">
        <ele>104</ele>
        <time>2010-01-01T02:58:32Z</time>
      </trkpt>
      <trkpt lat="46.74512" lon="-0.9473">
        <ele>101</ele>
        <time>2010-01-01T02:58:43Z</time>
      </trkpt>
      <trkpt lat="46.74522" lon="-0.94744">
        <ele>101</ele>
        <time>2010-01-01T02:58:45Z</time>
      </trkpt>
      <trkpt lat="46.74536" lon="-0.94758">
        <ele>100</ele>
        <time>2010-01-01T02:58:48Z</time>
      </trkpt>
      <trkpt lat="46.74548" lon="-0.94781">
        <ele>100</ele>
        <time>2010-01-01T02:58:51Z</time>
      </trkpt>
      <trkpt lat="46.74592" lon="-0.948">
        <ele>97</ele>
        <time>2010-01-01T02:58:59Z</time>
      </trkpt>
      <trkpt lat="46.74613" lon="-0.94811">
        <ele>95</ele>
        <time>2010-01-01T02:59:03Z</time>
      </trkpt>
      <trkpt lat="46.7465" lon="-0.94841">
        <ele>91</ele>
        <time>2010-01-01T02:59:10Z</time>
      </trkpt>
      <trkpt lat="46.74683" lon="-0.94886">
        <ele>88</ele>
        <time>2010-01-01T02:59:17Z</time>
      </trkpt>
      <trkpt lat="46.74752" lon="-0.94994">
        <ele>81</ele>
        <time>2010-01-01T02:59:34Z</time>
      </trkpt>
      <trkpt lat="46.74776" lon="-0.95035">
        <ele>79</ele>
        <time>2010-01-01T02:59:40Z</time>
      </trkpt>
      <trkpt lat="46.74795" lon="-0.9507">
        <ele>76</ele>
        <time>2010-01-01T02:59:46Z</time>
      </trkpt>
      <trkpt lat="46.74828" lon="-0.95151">
        <ele>74</ele>
        <time>2010-01-01T02:59:56Z</time>
      </trkpt>
      <trkpt lat="46.74841" lon="-0.95151">
        <ele>74</ele>
        <time>2010-01-01T02:59:59Z</time>
      </trkpt>
      <trkpt lat="46.7487" lon="-0.95157">
        <ele>74</ele>
        <time>2010-01-01T03:00:03Z</time>
      </trkpt>
      <trkpt lat="46.74903" lon="-0.95141">
        <ele>72</ele>
        <time>2010-01-01T03:00:09Z</time>
      </trkpt>
      <trkpt lat="46.74938" lon="-0.95126">
        <ele>69</ele>
        <time>2010-01-01T03:00:15Z</time>
      </trkpt>
      <trkpt lat="46.74973" lon="-0.95136">
        <ele>64</ele>
        <time>2010-01-01T03:00:21Z</time>
      </trkpt>
      <trkpt lat="46.75006" lon="-0.95158">
        <ele>64</ele>
        <time>2010-01-01T03:00:27Z</time>
      </trkpt>
      <trkpt lat="46.75033" lon="-0.95188">
        <ele>65</ele>
        <time>2010-01-01T03:00:33Z</time>
      </trkpt>
      <trkpt lat="46.75049" lon="-0.95217">
        <ele>67</ele>
        <time>2010-01-01T03:00:37Z</time>
      </trkpt>
      <trkpt lat="46.75065" lon="-0.95251">
        <ele>70</ele>
        <time>2010-01-01T03:00:42Z</time>
      </trkpt>
      <trkpt lat="46.75077" lon="-0.95308">
        <ele>74</ele>
        <time>2010-01-01T03:00:49Z</time>
      </trkpt>
      <trkpt lat="46.75089" lon="-0.95375">
        <ele>75</ele>
        <time>2010-01-01T03:00:57Z</time>
      </trkpt>
      <trkpt lat="46.751" lon="-0.95418">
        <ele>77</ele>
        <time>2010-01-01T03:01:02Z</time>
      </trkpt>
      <trkpt lat="46.75117" lon="-0.95463">
        <ele>78</ele>
        <time>2010-01-01T03:01:08Z</time>
      </trkpt>
      <trkpt lat="46.75148" lon="-0.95511">
        <ele>80</ele>
        <time>2010-01-01T03:01:15Z</time>
      </trkpt>
      <trkpt lat="46.75209" lon="-0.95565">
        <ele>84</ele>
        <time>2010-01-01T03:01:27Z</time>
      </trkpt>
      <trkpt lat="46.75242" lon="-0.95597">
        <ele>87</ele>
        <time>2010-01-01T03:01:34Z</time>
      </trkpt>
      <trkpt lat="46.75274" lon="-0.95641">
        <ele>88</ele>
        <time>2010-01-01T03:01:41Z</time>
      </trkpt>
      <trkpt lat="46.753" lon="-0.95693">
        <ele>93</ele>
        <time>2010-01-01T03:01:48Z</time>
      </trkpt>
      <trkpt lat="46.75324" lon="-0.95759">
        <ele>97</ele>
        <time>2010-01-01T03:01:57Z</time>
      </trkpt>
      <trkpt lat="46.75333" lon="-0.95778">
        <ele>97</ele>
        <time>2010-01-01T03:02:00Z</time>
      </trkpt>
      <trkpt lat="46.75337" lon="-0.95785">
        <ele>98</ele>
        <time>2010-01-01T03:02:01Z</time>
      </trkpt>
      <trkpt lat="46.7534" lon="-0.95782">
        <ele>98</ele>
        <time>2010-01-01T03:02:01Z</time>
      </trkpt>
      <trkpt lat="46.75349" lon="-0.95781">
        <ele>99</ele>
        <time>2010-01-01T03:02:03Z</time>
      </trkpt>
      <trkpt lat="46.75356" lon="-0.95788">
        <ele>99</ele>
        <time>2010-01-01T03:02:04Z</time>
      </trkpt>
      <trkpt lat="46.75359" lon="-0.958">
        <ele>99</ele>
        <time>2010-01-01T03:02:06Z</time>
      </trkpt>
      <trkpt lat="46.75358" lon="-0.95806">
        <ele>98</ele>
        <time>2010-01-01T03:02:06Z</time>
      </trkpt>
      <trkpt lat="46.75353" lon="-0.95816">
        <ele>98</ele>
        <time>2010-01-01T03:02:08Z</time>
      </trkpt>
      <trkpt lat="46.75369" lon="-0.95841">
        <ele>98</ele>
        <time>2010-01-01T03:02:12Z</time>
      </trkpt>
      <trkpt lat="46.75389" lon="-0.95867">
        <ele>99</ele>
        <time>2010-01-01T03:02:16Z</time>
      </trkpt>
      <trkpt lat="46.75412" lon="-0.95891">
        <ele>100</ele>
        <time>2010-01-01T03:02:21Z</time>
      </trkpt>
      <trkpt lat="46.75507" lon="-0.95967">
        <ele>102</ele>
        <time>2010-01-01T03:02:39Z</time>
      </trkpt>
      <trkpt lat="46.75514" lon="-0.95973">
        <ele>102</ele>
        <time>2010-01-01T03:02:40Z</time>
      </trkpt>
      <trkpt lat="46.75523" lon="-0.95986">
        <ele>102</ele>
        <time>2010-01-01T03:02:42Z</time>
      </trkpt>
      <trkpt lat="46.75529" lon="-0.96004">
        <ele>103</ele>
        <time>2010-01-01T03:02:45Z</time>
      </trkpt>
      <trkpt lat="46.75557" lon="-0.96063">
        <ele>104</ele>
        <time>2010-01-01T03:02:53Z</time>
      </trkpt>
      <trkpt lat="46.75585" lon="-0.9614">
        <ele>105</ele>
        <time>2010-01-01T03:03:03Z</time>
      </trkpt>
      <trkpt lat="46.75617" lon="-0.96216">
        <ele>107</ele>
        <time>2010-01-01T03:03:13Z</time>
      </trkpt>
      <trkpt lat="46.75632" lon="-0.96251">
        <ele>108</ele>
        <time>2010-01-01T03:03:18Z</time>
      </trkpt>
      <trkpt lat="46.75649" lon="-0.963">
        <ele>107</ele>
        <time>2010-01-01T03:03:24Z</time>
      </trkpt>
      <trkpt lat="46.75668" lon="-0.96286">
        <ele>108</ele>
        <time>2010-01-01T03:03:28Z</time>
      </trkpt>
      <trkpt lat="46.75756" lon="-0.96197">
        <ele>110</ele>
        <time>2010-01-01T03:03:45Z</time>
      </trkpt>
      <trkpt lat="46.75799" lon="-0.96166">
        <ele>112</ele>
        <time>2010-01-01T03:03:53Z</time>
      </trkpt>
      <trkpt lat="46.75852" lon="-0.9614">
        <ele>112</ele>
        <time>2010-01-01T03:04:03Z</time>
      </trkpt>
      <trkpt lat="46.75888" lon="-0.96128">
        <ele>111</ele>
        <time>2010-01-01T03:04:09Z</time>
      </trkpt>
      <trkpt lat="46.75905" lon="-0.96123">
        <ele>110</ele>
        <time>2010-01-01T03:04:12Z</time>
      </trkpt>
      <trkpt lat="46.75961" lon="-0.96119">
        <ele>109</ele>
        <time>2010-01-01T03:04:21Z</time>
      </trkpt>
      <trkpt lat="46.76011" lon="-0.96086">
        <ele>107</ele>
        <time>2010-01-01T03:04:30Z</time>
      </trkpt>
      <trkpt lat="46.7604" lon="-0.96048">
        <ele>105</ele>
        <time>2010-01-01T03:04:37Z</time>
      </trkpt>
      <trkpt lat="46.76041" lon="-0.96036">
        <ele>105</ele>
        <time>2010-01-01T03:04:38Z</time>
      </trkpt>
      <trkpt lat="46.76045" lon="-0.96026">
        <ele>105</ele>
        <time>2010-01-01T03:04:40Z</time>
      </trkpt>
      <trkpt lat="46.76049" lon="-0.96023">
        <ele>105</ele>
        <time>2010-01-01T03:04:40Z</time>
      </trkpt>
      <trkpt lat="46.76058" lon="-0.96021">
        <ele>105</ele>
        <time>2010-01-01T03:04:42Z</time>
      </trkpt>
      <trkpt lat="46.76062" lon="-0.96022">
        <ele>105</ele>
        <time>2010-01-01T03:04:43Z</time>
      </trkpt>
      <trkpt lat="46.76082" lon="-0.95983">
        <ele>104</ele>
        <time>2010-01-01T03:04:48Z</time>
      </trkpt>
      <trkpt lat="46.76093" lon="-0.95966">
        <ele>104</ele>
        <time>2010-01-01T03:04:51Z</time>
      </trkpt>
      <trkpt lat="46.76117" lon="-0.95937">
        <ele>103</ele>
        <time>2010-01-01T03:04:56Z</time>
      </trkpt>
      <trkpt lat="46.76219" lon="-0.95841">
        <ele>107</ele>
        <time>2010-01-01T03:05:16Z</time>
      </trkpt>
      <trkpt lat="46.76227" lon="-0.95841">
        <ele>108</ele>
        <time>2010-01-01T03:05:18Z</time>
      </trkpt>
      <trkpt lat="46.76429" lon="-0.95903">
        <ele>111</ele>
        <time>2010-01-01T03:05:52Z</time>
      </trkpt>
      <trkpt lat="46.76503" lon="-0.9595">
        <ele>110</ele>
        <time>2010-01-01T03:06:05Z</time>
      </trkpt>
      <trkpt lat="46.76587" lon="-0.96038">
        <ele>110</ele>
        <time>2010-01-01T03:06:23Z</time>
      </trkpt>
      <trkpt lat="46.7661" lon="-0.96049">
        <ele>110</ele>
        <time>2010-01-01T03:06:27Z</time>
      </trkpt>
      <trkpt lat="46.76712" lon="-0.96073">
        <ele>111</ele>
        <time>2010-01-01T03:06:44Z</time>
      </trkpt>
      <trkpt lat="46.76868" lon="-0.96069">
        <ele>107</ele>
        <time>2010-01-01T03:07:10Z</time>
      </trkpt>
      <trkpt lat="46.76906" lon="-0.96078">
        <ele>106</ele>
        <time>2010-01-01T03:07:16Z</time>
      </trkpt>
      <trkpt lat="46.76953" lon="-0.96116">
        <ele>108</ele>
        <time>2010-01-01T03:07:25Z</time>
      </trkpt>
      <trkpt lat="46.77169" lon="-0.96351">
        <ele>122</ele>
        <time>2010-01-01T03:08:10Z</time>
      </trkpt>
      <trkpt lat="46.77214" lon="-0.96386">
        <ele>124</ele>
        <time>2010-01-01T03:08:19Z</time>
      </trkpt>
      <trkpt lat="46.7726" lon="-0.96391">
        <ele>125</ele>
        <time>2010-01-01T03:08:26Z</time>
      </trkpt>
      <trkpt lat="46.77352" lon="-0.96378">
        <ele>129</ele>
        <time>2010-01-01T03:08:42Z</time>
      </trkpt>
      <trkpt lat="46.77446" lon="-0.96345">
        <ele>130</ele>
        <time>2010-01-01T03:08:58Z</time>
      </trkpt>
      <trkpt lat="46.77508" lon="-0.96338">
        <ele>132</ele>
        <time>2010-01-01T03:09:08Z</time>
      </trkpt>
      <trkpt lat="46.77558" lon="-0.96337">
        <ele>132</ele>
        <time>2010-01-01T03:09:17Z</time>
      </trkpt>
      <trkpt lat="46.7759" lon="-0.96355">
        <ele>132</ele>
        <time>2010-01-01T03:09:22Z</time>
      </trkpt>
      <trkpt lat="46.77631" lon="-0.96396">
        <ele>134</ele>
        <time>2010-01-01T03:09:31Z</time>
      </trkpt>
      <trkpt lat="46.77793" lon="-0.96557">
        <ele>129</ele>
        <time>2010-01-01T03:10:03Z</time>
      </trkpt>
      <trkpt lat="46.77879" lon="-0.96606">
        <ele>127</ele>
        <time>2010-01-01T03:10:19Z</time>
      </trkpt>
      <trkpt lat="46.78025" lon="-0.96653">
        <ele>124</ele>
        <time>2010-01-01T03:10:44Z</time>
      </trkpt>
      <trkpt lat="46.78099" lon="-0.96683">
        <ele>123</ele>
        <time>2010-01-01T03:10:57Z</time>
      </trkpt>
      <trkpt lat="46.78204" lon="-0.96743">
        <ele>121</ele>
        <time>2010-01-01T03:11:15Z</time>
      </trkpt>
      <trkpt lat="46.7823" lon="-0.96753">
        <ele>121</ele>
        <time>2010-01-01T03:11:20Z</time>
      </trkpt>
      <trkpt lat="46.7833" lon="-0.96759">
        <ele>121</ele>
        <time>2010-01-01T03:11:37Z</time>
      </trkpt>
      <trkpt lat="46.78612" lon="-0.96948">
        <ele>121</ele>
        <time>2010-01-01T03:12:28Z</time>
      </trkpt>
      <trkpt lat="46.78724" lon="-0.96988">
        <ele>111</ele>
        <time>2010-01-01T03:12:48Z</time>
      </trkpt>
      <trkpt lat="46.78824" lon="-0.97029">
        <ele>108</ele>
        <time>2010-01-01T03:13:05Z</time>
      </trkpt>
      <trkpt lat="46.78917" lon="-0.97084">
        <ele>107</ele>
        <time>2010-01-01T03:13:22Z</time>
      </trkpt>
      <trkpt lat="46.79044" lon="-0.97179">
        <ele>104</ele>
        <time>2010-01-01T03:13:45Z</time>
      </trkpt>
      <trkpt lat="46.79134" lon="-0.97267">
        <ele>108</ele>
        <time>2010-01-01T03:14:03Z</time>
      </trkpt>
      <trkpt lat="46.79164" lon="-0.973">
        <ele>109</ele>
        <time>2010-01-01T03:14:10Z</time>
      </trkpt>
      <trkpt lat="46.79209" lon="-0.97357">
        <ele>109</ele>
        <time>2010-01-01T03:14:20Z</time>
      </trkpt>
      <trkpt lat="46.79274" lon="-0.97455">
        <ele>111</ele>
        <time>2010-01-01T03:14:35Z</time>
      </trkpt>
      <trkpt lat="46.79318" lon="-0.97527">
        <ele>111</ele>
        <time>2010-01-01T03:14:46Z</time>
      </trkpt>
      <trkpt lat="46.79336" lon="-0.97575">
        <ele>113</ele>
        <time>2010-01-01T03:14:52Z</time>
      </trkpt>
      <trkpt lat="46.79348" lon="-0.97629">
        <ele>114</ele>
        <time>2010-01-01T03:14:59Z</time>
      </trkpt>
      <trkpt lat="46.79356" lon="-0.97712">
        <ele>115</ele>
        <time>2010-01-01T03:15:09Z</time>
      </trkpt>
      <trkpt lat="46.79371" lon="-0.97821">
        <ele>113</ele>
        <time>2010-01-01T03:15:21Z</time>
      </trkpt>
      <trkpt lat="46.79386" lon="-0.97872">
        <ele>113</ele>
        <time>2010-01-01T03:15:28Z</time>
      </trkpt>
      <trkpt lat="46.79411" lon="-0.97942">
        <ele>112</ele>
        <time>2010-01-01T03:15:37Z</time>
      </trkpt>
      <trkpt lat="46.79445" lon="-0.98011">
        <ele>110</ele>
        <time>2010-01-01T03:15:46Z</time>
      </trkpt>
      <trkpt lat="46.79472" lon="-0.98045">
        <ele>110</ele>
        <time>2010-01-01T03:15:52Z</time>
      </trkpt>
      <trkpt lat="46.795" lon="-0.98071">
        <ele>109</ele>
        <time>2010-01-01T03:15:58Z</time>
      </trkpt>
      <trkpt lat="46.79544" lon="-0.9812">
        <ele>107</ele>
        <time>2010-01-01T03:16:07Z</time>
      </trkpt>
      <trkpt lat="46.79582" lon="-0.9818">
        <ele>106</ele>
        <time>2010-01-01T03:16:16Z</time>
      </trkpt>
      <trkpt lat="46.796" lon="-0.98219">
        <ele>104</ele>
        <time>2010-01-01T03:16:22Z</time>
      </trkpt>
      <trkpt lat="46.79618" lon="-0.98252">
        <ele>102</ele>
        <time>2010-01-01T03:16:27Z</time>
      </trkpt>
      <trkpt lat="46.79659" lon="-0.98318">
        <ele>97</ele>
        <time>2010-01-01T03:16:37Z</time>
      </trkpt>
      <trkpt lat="46.79737" lon="-0.98364">
        <ele>94</ele>
        <time>2010-01-01T03:16:51Z</time>
      </trkpt>
      <trkpt lat="46.79779" lon="-0.98372">
        <ele>93</ele>
        <time>2010-01-01T03:16:58Z</time>
      </trkpt>
      <trkpt lat="46.79805" lon="-0.98368">
        <ele>93</ele>
        <time>2010-01-01T03:17:02Z</time>
      </trkpt>
      <trkpt lat="46.79832" lon="-0.98355">
        <ele>95</ele>
        <time>2010-01-01T03:17:07Z</time>
      </trkpt>
      <trkpt lat="46.79843" lon="-0.98351">
        <ele>95</ele>
        <time>2010-01-01T03:17:09Z</time>
      </trkpt>
      <trkpt lat="46.79869" lon="-0.98349">
        <ele>96</ele>
        <time>2010-01-01T03:17:13Z</time>
      </trkpt>
      <trkpt lat="46.79899" lon="-0.98357">
        <ele>98</ele>
        <time>2010-01-01T03:17:18Z</time>
      </trkpt>
      <trkpt lat="46.79918" lon="-0.98375">
        <ele>100</ele>
        <time>2010-01-01T03:17:22Z</time>
      </trkpt>
      <trkpt lat="46.79972" lon="-0.98447">
        <ele>101</ele>
        <time>2010-01-01T03:17:34Z</time>
      </trkpt>
      <trkpt lat="46.79994" lon="-0.98467">
        <ele>101</ele>
        <time>2010-01-01T03:17:39Z</time>
      </trkpt>
      <trkpt lat="46.80085" lon="-0.98521">
        <ele>107</ele>
        <time>2010-01-01T03:17:55Z</time>
      </trkpt>
      <trkpt lat="46.8017" lon="-0.98564">
        <ele>108</ele>
        <time>2010-01-01T03:18:10Z</time>
      </trkpt>
      <trkpt lat="46.80302" lon="-0.98641">
        <ele>108</ele>
        <time>2010-01-01T03:18:34Z</time>
      </trkpt>
      <trkpt lat="46.8033" lon="-0.98654">
        <ele>107</ele>
        <time>2010-01-01T03:18:39Z</time>
      </trkpt>
      <trkpt lat="46.80358" lon="-0.98654">
        <ele>106</ele>
        <time>2010-01-01T03:18:43Z</time>
      </trkpt>
      <trkpt lat="46.80414" lon="-0.98636">
        <ele>106</ele>
        <time>2010-01-01T03:18:53Z</time>
      </trkpt>
      <trkpt lat="46.80891" lon="-0.98491">
        <ele>112</ele>
        <time>2010-01-01T03:20:14Z</time>
      </trkpt>
      <trkpt lat="46.80933" lon="-0.98491">
        <ele>111</ele>
        <time>2010-01-01T03:20:21Z</time>
      </trkpt>
      <trkpt lat="46.80976" lon="-0.985">
        <ele>109</ele>
        <time>2010-01-01T03:20:28Z</time>
      </trkpt>
      <trkpt lat="46.81028" lon="-0.98517">
        <ele>104</ele>
        <time>2010-01-01T03:20:37Z</time>
      </trkpt>
      <trkpt lat="46.81119" lon="-0.98541">
        <ele>100</ele>
        <time>2010-01-01T03:20:53Z</time>
      </trkpt>
      <trkpt lat="46.81136" lon="-0.98549">
        <ele>99</ele>
        <time>2010-01-01T03:20:56Z</time>
      </trkpt>
      <trkpt lat="46.81213" lon="-0.98578">
        <ele>94</ele>
        <time>2010-01-01T03:21:09Z</time>
      </trkpt>
      <trkpt lat="46.81295" lon="-0.98604">
        <ele>95</ele>
        <time>2010-01-01T03:21:23Z</time>
      </trkpt>
      <trkpt lat="46.81446" lon="-0.98656">
        <ele>104</ele>
        <time>2010-01-01T03:21:49Z</time>
      </trkpt>
      <trkpt lat="46.81572" lon="-0.987">
        <ele>110</ele>
        <time>2010-01-01T03:22:10Z</time>
      </trkpt>
      <trkpt lat="46.81654" lon="-0.98724">
        <ele>113</ele>
        <time>2010-01-01T03:22:24Z</time>
      </trkpt>
      <trkpt lat="46.81728" lon="-0.9875">
        <ele>114</ele>
        <time>2010-01-01T03:22:37Z</time>
      </trkpt>
      <trkpt lat="46.81762" lon="-0.98767">
        <ele>114</ele>
        <time>2010-01-01T03:22:43Z</time>
      </trkpt>
      <trkpt lat="46.82038" lon="-0.98948">
        <ele>108</ele>
        <time>2010-01-01T03:23:33Z</time>
      </trkpt>
      <trkpt lat="46.82045" lon="-0.98931">
        <ele>108</ele>
        <time>2010-01-01T03:23:36Z</time>
      </trkpt>
      <trkpt lat="46.821" lon="-0.9885">
        <ele>108</ele>
        <time>2010-01-01T03:23:49Z</time>
      </trkpt>
      <trkpt lat="46.82105" lon="-0.98839">
        <ele>108</ele>
        <time>2010-01-01T03:23:50Z</time>
      </trkpt>
      <trkpt lat="46.82126" lon="-0.98806">
        <ele>108</ele>
        <time>2010-01-01T03:23:55Z</time>
      </trkpt>
      <trkpt lat="46.8214" lon="-0.9879">
        <ele>108</ele>
        <time>2010-01-01T03:23:58Z</time>
      </trkpt>
      <trkpt lat="46.82161" lon="-0.98756">
        <ele>109</ele>
        <time>2010-01-01T03:24:04Z</time>
      </trkpt>
      <trkpt lat="46.82191" lon="-0.98696">
        <ele>110</ele>
        <time>2010-01-01T03:24:12Z</time>
      </trkpt>
      <trkpt lat="46.82237" lon="-0.98648">
        <ele>110</ele>
        <time>2010-01-01T03:24:21Z</time>
      </trkpt>
      <trkpt lat="46.82256" lon="-0.98626">
        <ele>110</ele>
        <time>2010-01-01T03:24:25Z</time>
      </trkpt>
      <trkpt lat="46.823" lon="-0.98557">
        <ele>111</ele>
        <time>2010-01-01T03:24:36Z</time>
      </trkpt>
      <trkpt lat="46.82321" lon="-0.98536">
        <ele>110</ele>
        <time>2010-01-01T03:24:40Z</time>
      </trkpt>
      <trkpt lat="46.82335" lon="-0.98534">
        <ele>110</ele>
        <time>2010-01-01T03:24:43Z</time>
      </trkpt>
      <trkpt lat="46.82344" lon="-0.98535">
        <ele>111</ele>
        <time>2010-01-01T03:24:44Z</time>
      </trkpt>
      <trkpt lat="46.82352" lon="-0.9854">
        <ele>111</ele>
        <time>2010-01-01T03:24:46Z</time>
      </trkpt>
      <trkpt lat="46.82377" lon="-0.9851">
        <ele>112</ele>
        <time>2010-01-01T03:24:51Z</time>
      </trkpt>
      <trkpt lat="46.82406" lon="-0.98411">
        <ele>112</ele>
        <time>2010-01-01T03:25:03Z</time>
      </trkpt>
      <trkpt lat="46.82511" lon="-0.98464">
        <ele>116</ele>
        <time>2010-01-01T03:25:22Z</time>
      </trkpt>
      <trkpt lat="46.82643" lon="-0.98475">
        <ele>118</ele>
        <time>2010-01-01T03:25:44Z</time>
      </trkpt>
      <trkpt lat="46.82694" lon="-0.98488">
        <ele>120</ele>
        <time>2010-01-01T03:25:53Z</time>
      </trkpt>
      <trkpt lat="46.82743" lon="-0.98477">
        <ele>121</ele>
        <time>2010-01-01T03:26:01Z</time>
      </trkpt>
      <trkpt lat="46.82769" lon="-0.98464">
        <ele>120</ele>
        <time>2010-01-01T03:26:06Z</time>
      </trkpt>
      <trkpt lat="46.82787" lon="-0.9845">
        <ele>119</ele>
        <time>2010-01-01T03:26:09Z</time>
      </trkpt>
      <trkpt lat="46.82799" lon="-0.98431">
        <ele>119</ele>
        <time>2010-01-01T03:26:12Z</time>
      </trkpt>
      <trkpt lat="46.82929" lon="-0.98206">
        <ele>120</ele>
        <time>2010-01-01T03:26:45Z</time>
      </trkpt>
      <trkpt lat="46.82984" lon="-0.98117">
        <ele>120</ele>
        <time>2010-01-01T03:26:59Z</time>
      </trkpt>
      <trkpt lat="46.83015" lon="-0.98069">
        <ele>120</ele>
        <time>2010-01-01T03:27:07Z</time>
      </trkpt>
      <trkpt lat="46.83036" lon="-0.98025">
        <ele>120</ele>
        <time>2010-01-01T03:27:13Z</time>
      </trkpt>
      <trkpt lat="46.83041" lon="-0.97992">
        <ele>119</ele>
        <time>2010-01-01T03:27:17Z</time>
      </trkpt>
      <trkpt lat="46.83038" lon="-0.97957">
        <ele>119</ele>
        <time>2010-01-01T03:27:21Z</time>
      </trkpt>
      <trkpt lat="46.83" lon="-0.97744">
        <ele>116</ele>
        <time>2010-01-01T03:27:46Z</time>
      </trkpt>
      <trkpt lat="46.82993" lon="-0.9763">
        <ele>117</ele>
        <time>2010-01-01T03:27:59Z</time>
      </trkpt>
      <trkpt lat="46.83079" lon="-0.97277">
        <ele>122</ele>
        <time>2010-01-01T03:28:42Z</time>
      </trkpt>
      <trkpt lat="46.83259" lon="-0.97007">
        <ele>117</ele>
        <time>2010-01-01T03:29:25Z</time>
      </trkpt>
      <trkpt lat="46.83412" lon="-0.96875">
        <ele>107</ele>
        <time>2010-01-01T03:29:54Z</time>
      </trkpt>
      <trkpt lat="46.83598" lon="-0.96545">
        <ele>108</ele>
        <time>2010-01-01T03:30:43Z</time>
      </trkpt>
      <trkpt lat="46.8372" lon="-0.96261">
        <ele>112</ele>
        <time>2010-01-01T03:31:21Z</time>
      </trkpt>
      <trkpt lat="46.83847" lon="-0.9598">
        <ele>120</ele>
        <time>2010-01-01T03:32:00Z</time>
      </trkpt>
      <trkpt lat="46.83933" lon="-0.95812">
        <ele>125</ele>
        <time>2010-01-01T03:32:24Z</time>
      </trkpt>
      <trkpt lat="46.84049" lon="-0.95607">
        <ele>131</ele>
        <time>2010-01-01T03:32:54Z</time>
      </trkpt>
      <trkpt lat="46.84281" lon="-0.95322">
        <ele>138</ele>
        <time>2010-01-01T03:33:45Z</time>
      </trkpt>
      <trkpt lat="46.84366" lon="-0.95215">
        <ele>137</ele>
        <time>2010-01-01T03:34:03Z</time>
      </trkpt>
      <trkpt lat="46.84394" lon="-0.95174">
        <ele>136</ele>
        <time>2010-01-01T03:34:10Z</time>
      </trkpt>
      <trkpt lat="46.84477" lon="-0.94998">
        <ele>132</ele>
        <time>2010-01-01T03:34:34Z</time>
      </trkpt>
      <trkpt lat="46.84495" lon="-0.94968">
        <ele>132</ele>
        <time>2010-01-01T03:34:39Z</time>
      </trkpt>
      <trkpt lat="46.84516" lon="-0.94948">
        <ele>131</ele>
        <time>2010-01-01T03:34:43Z</time>
      </trkpt>
      <trkpt lat="46.84582" lon="-0.94942">
        <ele>129</ele>
        <time>2010-01-01T03:34:54Z</time>
      </trkpt>
      <trkpt lat="46.84659" lon="-0.94996">
        <ele>125</ele>
        <time>2010-01-01T03:35:08Z</time>
      </trkpt>
      <trkpt lat="46.8467" lon="-0.95004">
        <ele>123</ele>
        <time>2010-01-01T03:35:10Z</time>
      </trkpt>
      <trkpt lat="46.84737" lon="-0.94996">
        <ele>116</ele>
        <time>2010-01-01T03:35:22Z</time>
      </trkpt>
      <trkpt lat="46.84775" lon="-0.94968">
        <ele>116</ele>
        <time>2010-01-01T03:35:29Z</time>
      </trkpt>
      <trkpt lat="46.84779" lon="-0.94971">
        <ele>116</ele>
        <time>2010-01-01T03:35:29Z</time>
      </trkpt>
      <trkpt lat="46.84781" lon="-0.94978">
        <ele>116</ele>
        <time>2010-01-01T03:35:30Z</time>
      </trkpt>
      <trkpt lat="46.84781" lon="-0.94986">
        <ele>116</ele>
        <time>2010-01-01T03:35:31Z</time>
      </trkpt>
      <trkpt lat="46.84771" lon="-0.94998">
        <ele>116</ele>
        <time>2010-01-01T03:35:33Z</time>
      </trkpt>
      <trkpt lat="46.84769" lon="-0.95008">
        <ele>116</ele>
        <time>2010-01-01T03:35:35Z</time>
      </trkpt>
      <trkpt lat="46.84769" lon="-0.95018">
        <ele>116</ele>
        <time>2010-01-01T03:35:36Z</time>
      </trkpt>
      <trkpt lat="46.84793" lon="-0.95223">
        <ele>114</ele>
        <time>2010-01-01T03:35:59Z</time>
      </trkpt>
      <trkpt lat="46.84813" lon="-0.95328">
        <ele>114</ele>
        <time>2010-01-01T03:36:12Z</time>
      </trkpt>
      <trkpt lat="46.84816" lon="-0.95351">
        <ele>115</ele>
        <time>2010-01-01T03:36:15Z</time>
      </trkpt>
      <trkpt lat="46.84818" lon="-0.95411">
        <ele>118</ele>
        <time>2010-01-01T03:36:21Z</time>
      </trkpt>
      <trkpt lat="46.84809" lon="-0.95474">
        <ele>122</ele>
        <time>2010-01-01T03:36:29Z</time>
      </trkpt>
      <trkpt lat="46.84809" lon="-0.95483">
        <ele>122</ele>
        <time>2010-01-01T03:36:30Z</time>
      </trkpt>
      <trkpt lat="46.84817" lon="-0.95514">
        <ele>123</ele>
        <time>2010-01-01T03:36:34Z</time>
      </trkpt>
      <trkpt lat="46.84823" lon="-0.95527">
        <ele>124</ele>
        <time>2010-01-01T03:36:35Z</time>
      </trkpt>
      <trkpt lat="46.84827" lon="-0.95531">
        <ele>124</ele>
        <time>2010-01-01T03:36:36Z</time>
      </trkpt>
      <trkpt lat="46.84832" lon="-0.95529">
        <ele>124</ele>
        <time>2010-01-01T03:36:37Z</time>
      </trkpt>
      <trkpt lat="46.84843" lon="-0.95522">
        <ele>124</ele>
        <time>2010-01-01T03:36:39Z</time>
      </trkpt>
      <trkpt lat="46.85076" lon="-0.95245">
        <ele>122</ele>
        <time>2010-01-01T03:37:29Z</time>
      </trkpt>
      <trkpt lat="46.85126" lon="-0.95389">
        <ele>119</ele>
        <time>2010-01-01T03:37:48Z</time>
      </trkpt>
      <trkpt lat="46.85222" lon="-0.95544">
        <ele>110</ele>
        <time>2010-01-01T03:38:11Z</time>
      </trkpt>
      <trkpt lat="46.85291" lon="-0.95625">
        <ele>104</ele>
        <time>2010-01-01T03:38:26Z</time>
      </trkpt>
      <trkpt lat="46.85341" lon="-0.95673">
        <ele>102</ele>
        <time>2010-01-01T03:38:36Z</time>
      </trkpt>
      <trkpt lat="46.85457" lon="-0.95799">
        <ele>108</ele>
        <time>2010-01-01T03:39:00Z</time>
      </trkpt>
      <trkpt lat="46.85522" lon="-0.95897">
        <ele>110</ele>
        <time>2010-01-01T03:39:16Z</time>
      </trkpt>
      <trkpt lat="46.85596" lon="-0.96021">
        <ele>110</ele>
        <time>2010-01-01T03:39:35Z</time>
      </trkpt>
      <trkpt lat="46.85662" lon="-0.96142">
        <ele>112</ele>
        <time>2010-01-01T03:39:52Z</time>
      </trkpt>
      <trkpt lat="46.86028" lon="-0.9679">
        <ele>137</ele>
        <time>2010-01-01T03:41:28Z</time>
      </trkpt>
      <trkpt lat="46.86231" lon="-0.97139">
        <ele>137</ele>
        <time>2010-01-01T03:42:20Z</time>
      </trkpt>
      <trkpt lat="46.86241" lon="-0.97149">
        <ele>138</ele>
        <time>2010-01-01T03:42:22Z</time>
      </trkpt>
      <trkpt lat="46.86247" lon="-0.97146">
        <ele>138</ele>
        <time>2010-01-01T03:42:23Z</time>
      </trkpt>
      <trkpt lat="46.86262" lon="-0.97127">
        <ele>139</ele>
        <time>2010-01-01T03:42:27Z</time>
      </trkpt>
      <trkpt lat="46.86258" lon="-0.97149">
        <ele>138</ele>
        <time>2010-01-01T03:42:29Z</time>
      </trkpt>
      <trkpt lat="46.86266" lon="-0.97157">
        <ele>138</ele>
        <time>2010-01-01T03:42:31Z</time>
      </trkpt>
      <trkpt lat="46.86269" lon="-0.97165">
        <ele>138</ele>
        <time>2010-01-01T03:42:32Z</time>
      </trkpt>
      <trkpt lat="46.8627" lon="-0.97174">
        <ele>138</ele>
        <time>2010-01-01T03:42:33Z</time>
      </trkpt>
      <trkpt lat="46.8627" lon="-0.97184">
        <ele>138</ele>
        <time>2010-01-01T03:42:34Z</time>
      </trkpt>
      <trkpt lat="46.86267" lon="-0.97193">
        <ele>138</ele>
        <time>2010-01-01T03:42:35Z</time>
      </trkpt>
      <trkpt lat="46.86274" lon="-0.97213">
        <ele>138</ele>
        <time>2010-01-01T03:42:38Z</time>
      </trkpt>
      <trkpt lat="46.86439" lon="-0.97509">
        <ele>143</ele>
        <time>2010-01-01T03:43:21Z</time>
      </trkpt>
      <trkpt lat="46.86484" lon="-0.97597">
        <ele>147</ele>
        <time>2010-01-01T03:43:34Z</time>
      </trkpt>
      <trkpt lat="46.86564" lon="-0.97791">
        <ele>151</ele>
        <time>2010-01-01T03:44:00Z</time>
      </trkpt>
      <trkpt lat="46.86618" lon="-0.9805">
        <ele>154</ele>
        <time>2010-01-01T03:44:31Z</time>
      </trkpt>
      <trkpt lat="46.8662" lon="-0.98075">
        <ele>154</ele>
        <time>2010-01-01T03:44:34Z</time>
      </trkpt>
      <trkpt lat="46.86594" lon="-0.98075">
        <ele>155</ele>
        <time>2010-01-01T03:44:38Z</time>
      </trkpt>
      <trkpt lat="46.86567" lon="-0.98081">
        <ele>156</ele>
        <time>2010-01-01T03:44:42Z</time>
      </trkpt>
      <trkpt lat="46.86533" lon="-0.9809">
        <ele>156</ele>
        <time>2010-01-01T03:44:48Z</time>
      </trkpt>
      <trkpt lat="46.8653" lon="-0.98146">
        <ele>158</ele>
        <time>2010-01-01T03:44:55Z</time>
      </trkpt>
      <trkpt lat="46.86526" lon="-0.98175">
        <ele>159</ele>
        <time>2010-01-01T03:44:58Z</time>
      </trkpt>
      <trkpt lat="46.86515" lon="-0.98212">
        <ele>159</ele>
        <time>2010-01-01T03:45:03Z</time>
      </trkpt>
      <trkpt lat="46.86492" lon="-0.98301">
        <ele>160</ele>
        <time>2010-01-01T03:45:13Z</time>
      </trkpt>
      <trkpt lat="46.86452" lon="-0.98402">
        <ele>159</ele>
        <time>2010-01-01T03:45:27Z</time>
      </trkpt>
      <trkpt lat="46.86442" lon="-0.98435">
        <ele>157</ele>
        <time>2010-01-01T03:45:31Z</time>
      </trkpt>
      <trkpt lat="46.86443" lon="-0.98458">
        <ele>155</ele>
        <time>2010-01-01T03:45:33Z</time>
      </trkpt>
      <trkpt lat="46.86451" lon="-0.98491">
        <ele>154</ele>
        <time>2010-01-01T03:45:37Z</time>
      </trkpt>
      <trkpt lat="46.86512" lon="-0.98654">
        <ele>149</ele>
        <time>2010-01-01T03:45:59Z</time>
      </trkpt>
      <trkpt lat="46.86527" lon="-0.98706">
        <ele>147</ele>
        <time>2010-01-01T03:46:05Z</time>
      </trkpt>
      <trkpt lat="46.86546" lon="-0.98739">
        <ele>147</ele>
        <time>2010-01-01T03:46:10Z</time>
      </trkpt>
      <trkpt lat="46.86582" lon="-0.98824">
        <ele>145</ele>
        <time>2010-01-01T03:46:21Z</time>
      </trkpt>
      <trkpt lat="46.86594" lon="-0.98822">
        <ele>144</ele>
        <time>2010-01-01T03:46:23Z</time>
      </trkpt>
      <trkpt lat="46.86601" lon="-0.98827">
        <ele>144</ele>
        <time>2010-01-01T03:46:25Z</time>
      </trkpt>
      <trkpt lat="46.86618" lon="-0.98865">
        <ele>143</ele>
        <time>2010-01-01T03:46:30Z</time>
      </trkpt>
      <trkpt lat="46.8663" lon="-0.98857">
        <ele>141</ele>
        <time>2010-01-01T03:46:32Z</time>
      </trkpt>
      <trkpt lat="46.86644" lon="-0.98851">
        <ele>140</ele>
        <time>2010-01-01T03:46:35Z</time>
      </trkpt>
      <trkpt lat="46.8668" lon="-0.98853">
        <ele>135</ele>
        <time>2010-01-01T03:46:41Z</time>
      </trkpt>
      <trkpt lat="46.86715" lon="-0.99087">
        <ele>128</ele>
        <time>2010-01-01T03:47:08Z</time>
      </trkpt>
      <trkpt lat="46.86726" lon="-0.99095">
        <ele>128</ele>
        <time>2010-01-01T03:47:10Z</time>
      </trkpt>
      <trkpt lat="46.8673" lon="-0.99102">
        <ele>128</ele>
        <time>2010-01-01T03:47:11Z</time>
      </trkpt>
      <trkpt lat="46.86738" lon="-0.99146">
        <ele>127</ele>
        <time>2010-01-01T03:47:16Z</time>
      </trkpt>
      <trkpt lat="46.86739" lon="-0.99165">
        <ele>126</ele>
        <time>2010-01-01T03:47:18Z</time>
      </trkpt>
      <trkpt lat="46.86735" lon="-0.99183">
        <ele>127</ele>
        <time>2010-01-01T03:47:20Z</time>
      </trkpt>
      <trkpt lat="46.86734" lon="-0.9919">
        <ele>127</ele>
        <time>2010-01-01T03:47:21Z</time>
      </trkpt>
      <trkpt lat="46.86801" lon="-0.99619">
        <ele>126</ele>
        <time>2010-01-01T03:48:11Z</time>
      </trkpt>
      <trkpt lat="46.86795" lon="-0.99621">
        <ele>127</ele>
        <time>2010-01-01T03:48:12Z</time>
      </trkpt>
      <trkpt lat="46.86861" lon="-1.00095">
        <ele>121</ele>
        <time>2010-01-01T03:49:08Z</time>
      </trkpt>
      <trkpt lat="46.86919" lon="-1.0048">
        <ele>113</ele>
        <time>2010-01-01T03:49:53Z</time>
      </trkpt>
      <trkpt lat="46.8681" lon="-1.0052">
        <ele>116</ele>
        <time>2010-01-01T03:50:11Z</time>
      </trkpt>
      <trkpt lat="46.86836" lon="-1.00634">
        <ele>113</ele>
        <time>2010-01-01T03:50:25Z</time>
      </trkpt>
      <trkpt lat="46.86766" lon="-1.00652">
        <ele>111</ele>
        <time>2010-01-01T03:50:37Z</time>
      </trkpt>
      <trkpt lat="46.86714" lon="-1.00671">
        <ele>112</ele>
        <time>2010-01-01T03:50:46Z</time>
      </trkpt>
      <trkpt lat="46.86708" lon="-1.0066">
        <ele>111</ele>
        <time>2010-01-01T03:50:47Z</time>
      </trkpt>
      <trkpt lat="46.86664" lon="-1.00646">
        <ele>112</ele>
        <time>2010-01-01T03:50:55Z</time>
      </trkpt>
      <trkpt lat="46.86595" lon="-1.00621">
        <ele>116</ele>
        <time>2010-01-01T03:51:07Z</time>
      </trkpt>
      <trkpt lat="46.86569" lon="-1.00606">
        <ele>117</ele>
        <time>2010-01-01T03:51:11Z</time>
      </trkpt>
    </trkseg>
  </trk>
</gpx>